Time,TemperatureF,DewpointF,PressureIn,WindDirection,WindDirectionDegrees,WindSpeedMPH,WindSpeedGustMPH,Humidity,HourlyPrecipIn,Conditions,Clouds,dailyrainin,SoftwareType,DateUTC
2013-11-06 00:00:00,66.4,62.7,29.94,SSE,148,3.0,4.0,88,0.00,,SKC,0.00,VWS V14.01,2013-11-06 06:00:00,
2013-11-06 00:01:00,66.4,62.7,29.94,SSE,148,2.0,3.0,88,0.00,,SKC,0.00,VWS V14.01,2013-11-06 06:01:00,
2013-11-06 00:02:00,66.4,62.7,29.94,SSE,148,3.0,3.0,88,0.00,,SKC,0.00,VWS V14.01,2013-11-06 06:02:00,
2013-11-06 00:03:00,66.4,62.7,29.94,SSE,148,0.0,0.0,88,0.00,,SKC,0.00,VWS V14.01,2013-11-06 06:03:00,
2013-11-06 00:04:00,66.4,62.7,29.94,SSE,148,1.0,2.0,88,0.00,,SKC,0.00,VWS V14.01,2013-11-06 06:04:00,
2013-11-06 00:05:00,66.5,62.8,29.94,SSE,148,0.0,1.0,88,0.00,,SKC,0.00,VWS V14.01,2013-11-06 06:05:00,
2013-11-06 00:06:00,66.5,62.8,29.94,SSE,148,0.0,0.0,88,0.00,,SKC,0.00,VWS V14.01,2013-11-06 06:06:00,
2013-11-06 00:07:00,66.4,62.7,29.94,SSE,148,0.0,0.0,88,0.00,,SKC,0.00,VWS V14.01,2013-11-06 06:07:00,
2013-11-06 00:08:00,66.5,62.8,29.94,SE,146,0.0,1.0,88,0.00,,SKC,0.00,VWS V14.01,2013-11-06 06:08:00,
2013-11-06 00:09:00,66.5,62.8,29.93,SE,146,0.0,2.0,88,0.00,,SKC,0.00,VWS V14.01,2013-11-06 06:09:00,
2013-11-06 00:10:00,66.5,62.8,29.93,SE,146,0.0,2.0,88,0.00,,SKC,0.00,VWS V14.01,2013-11-06 06:10:00,
2013-11-06 00:11:00,66.4,62.7,29.93,SE,145,0.0,1.0,88,0.00,,SKC,0.00,VWS V14.01,2013-11-06 06:11:00,
2013-11-06 00:12:00,66.4,62.7,29.93,SE,145,0.0,0.0,88,0.00,,SKC,0.00,VWS V14.01,2013-11-06 06:12:00,
2013-11-06 00:13:00,66.4,62.7,29.93,ESE,119,0.0,1.0,88,0.00,,SKC,0.00,VWS V14.01,2013-11-06 06:13:00,
2013-11-06 00:14:00,66.4,62.7,29.93,ESE,119,0.0,0.0,88,0.00,,SKC,0.00,VWS V14.01,2013-11-06 06:14:00,
2013-11-06 00:15:00,66.3,62.7,29.93,ESE,118,0.0,1.0,88,0.00,,SKC,0.00,VWS V14.01,2013-11-06 06:15:00,
2013-11-06 00:16:00,66.3,62.7,29.93,ESE,118,0.0,0.0,88,0.00,,SKC,0.00,VWS V14.01,2013-11-06 06:16:00,
2013-11-06 00:17:00,66.3,62.6,29.93,ESE,118,0.0,0.0,88,0.00,,SKC,0.00,VWS V14.01,2013-11-06 06:17:00,
2013-11-06 00:18:00,66.3,62.7,29.93,ESE,118,2.0,2.0,88,0.00,,SKC,0.00,VWS V14.01,2013-11-06 06:18:00,
2013-11-06 00:19:00,66.3,62.7,29.93,ESE,118,0.0,2.0,88,0.00,,SKC,0.00,VWS V14.01,2013-11-06 06:19:00,
2013-11-06 00:20:00,66.3,62.7,29.93,ESE,118,1.0,1.0,88,0.00,,SKC,0.00,VWS V14.01,2013-11-06 06:20:00,
2013-11-06 00:21:00,66.4,62.7,29.93,ESE,119,3.0,4.0,88,0.00,,SKC,0.00,VWS V14.01,2013-11-06 06:21:00,
2013-11-06 00:22:00,66.3,62.6,29.93,ESE,118,1.0,1.0,88,0.00,,SKC,0.00,VWS V14.01,2013-11-06 06:22:00,
2013-11-06 00:23:00,66.4,62.7,29.93,ESE,119,3.0,3.0,88,0.00,,SKC,0.00,VWS V14.01,2013-11-06 06:23:00,
2013-11-06 00:24:00,66.3,62.7,29.93,ESE,119,2.0,3.0,88,0.00,,SKC,0.00,VWS V14.01,2013-11-06 06:24:00,
2013-11-06 00:25:00,66.3,62.7,29.93,ESE,119,2.0,3.0,88,0.00,,SKC,0.00,VWS V14.01,2013-11-06 06:25:00,
2013-11-06 00:26:00,66.3,62.7,29.93,ESE,119,2.0,2.0,88,0.00,,SKC,0.00,VWS V14.01,2013-11-06 06:26:00,
2013-11-06 00:27:00,66.3,62.6,29.93,ESE,119,1.0,2.0,88,0.00,,SKC,0.00,VWS V14.01,2013-11-06 06:27:00,
2013-11-06 00:28:00,66.1,62.5,29.93,ESE,119,0.0,1.0,88,0.00,,SKC,0.00,VWS V14.01,2013-11-06 06:28:00,
2013-11-06 00:29:00,66.1,62.5,29.93,ESE,119,0.0,1.0,88,0.00,,SKC,0.00,VWS V14.01,2013-11-06 06:29:00,
2013-11-06 00:30:00,66.0,62.3,29.93,ESE,119,0.0,1.0,88,0.00,,SKC,0.00,VWS V14.01,2013-11-06 06:30:00,
2013-11-06 00:31:00,66.0,62.3,29.94,ESE,119,0.0,0.0,88,0.00,,SKC,0.00,VWS V14.01,2013-11-06 06:31:00,
2013-11-06 00:32:00,66.0,62.3,29.94,ESE,119,0.0,0.0,88,0.00,,SKC,0.00,VWS V14.01,2013-11-06 06:32:00,
2013-11-06 00:33:00,65.9,62.2,29.94,ESE,119,0.0,0.0,88,0.00,,SKC,0.00,VWS V14.01,2013-11-06 06:33:00,
2013-11-06 00:34:00,65.8,62.2,29.94,ESE,119,0.0,0.0,88,0.00,,SKC,0.00,VWS V14.01,2013-11-06 06:34:00,
2013-11-06 00:35:00,65.8,62.2,29.94,ESE,119,0.0,0.0,88,0.00,,SKC,0.00,VWS V14.01,2013-11-06 06:35:00,
2013-11-06 00:36:00,65.8,62.2,29.94,ESE,119,0.0,0.0,88,0.00,,SKC,0.00,VWS V14.01,2013-11-06 06:36:00,
2013-11-06 00:37:00,65.8,62.2,29.94,ESE,119,0.0,0.0,88,0.00,,SKC,0.00,VWS V14.01,2013-11-06 06:37:00,
2013-11-06 00:38:00,65.7,62.0,29.94,ESE,119,0.0,0.0,88,0.00,,SKC,0.00,VWS V14.01,2013-11-06 06:38:00,
2013-11-06 00:39:00,65.7,62.0,29.94,ESE,119,0.0,0.0,88,0.00,,SKC,0.00,VWS V14.01,2013-11-06 06:39:00,
2013-11-06 00:40:00,65.6,62.0,29.94,ESE,119,0.0,0.0,88,0.00,,SKC,0.00,VWS V14.01,2013-11-06 06:40:00,
2013-11-06 00:41:00,65.6,62.0,29.94,ESE,119,0.0,0.0,88,0.00,,SKC,0.00,VWS V14.01,2013-11-06 06:41:00,
2013-11-06 00:42:00,65.6,62.0,29.94,ESE,119,0.0,0.0,88,0.00,,SKC,0.00,VWS V14.01,2013-11-06 06:42:00,
2013-11-06 00:43:00,65.6,62.0,29.94,ESE,119,0.0,0.0,88,0.00,,SKC,0.00,VWS V14.01,2013-11-06 06:43:00,
2013-11-06 00:44:00,65.6,62.0,29.94,ESE,119,0.0,0.0,88,0.00,,SKC,0.00,VWS V14.01,2013-11-06 06:44:00,
2013-11-06 00:45:00,65.6,62.0,29.94,ESE,119,0.0,1.0,88,0.00,,SKC,0.00,VWS V14.01,2013-11-06 06:45:00,
2013-11-06 00:46:00,65.7,62.0,29.94,ESE,119,0.0,1.0,88,0.00,,SKC,0.00,VWS V14.01,2013-11-06 06:46:00,
2013-11-06 00:47:00,65.6,62.0,29.94,ESE,119,1.0,1.0,88,0.00,,SKC,0.00,VWS V14.01,2013-11-06 06:47:00,
2013-11-06 00:48:00,65.7,62.0,29.94,ESE,119,0.0,0.0,88,0.00,,SKC,0.00,VWS V14.01,2013-11-06 06:48:00,
2013-11-06 00:49:00,65.7,62.0,29.94,ESE,119,0.0,0.0,88,0.00,,SKC,0.00,VWS V14.01,2013-11-06 06:49:00,
2013-11-06 00:50:00,65.7,62.0,29.94,ESE,119,0.0,0.0,88,0.00,,SKC,0.00,VWS V14.01,2013-11-06 06:50:00,
2013-11-06 00:51:00,65.7,62.0,29.94,ESE,119,0.0,0.0,88,0.00,,SKC,0.00,VWS V14.01,2013-11-06 06:51:00,
2013-11-06 00:52:00,65.7,62.0,29.94,ESE,119,0.0,0.0,88,0.00,,SKC,0.00,VWS V14.01,2013-11-06 06:52:00,
2013-11-06 00:53:00,65.6,62.0,29.94,ESE,119,0.0,0.0,88,0.00,,SKC,0.00,VWS V14.01,2013-11-06 06:53:00,
2013-11-06 00:54:00,65.6,62.0,29.94,ESE,119,0.0,0.0,88,0.00,,SKC,0.00,VWS V14.01,2013-11-06 06:54:00,
2013-11-06 00:55:00,65.6,62.0,29.94,ESE,119,0.0,0.0,88,0.00,,SKC,0.00,VWS V14.01,2013-11-06 06:55:00,
2013-11-06 00:56:00,65.6,62.0,29.94,ESE,119,0.0,0.0,88,0.00,,SKC,0.00,VWS V14.01,2013-11-06 06:56:00,
2013-11-06 00:57:00,65.6,62.0,29.94,ESE,119,0.0,0.0,88,0.00,,SKC,0.00,VWS V14.01,2013-11-06 06:57:00,
2013-11-06 00:58:00,65.6,62.0,29.93,ESE,119,0.0,0.0,88,0.00,,SKC,0.00,VWS V14.01,2013-11-06 06:58:00,
2013-11-06 00:59:00,65.6,62.0,29.93,ESE,119,0.0,0.0,88,0.00,,SKC,0.00,VWS V14.01,2013-11-06 06:59:00,
2013-11-06 01:00:00,65.6,62.0,29.93,ESE,119,0.0,0.0,88,0.00,,SKC,0.00,VWS V14.01,2013-11-06 07:00:00,
2013-11-06 01:01:00,65.6,62.0,29.93,ESE,119,0.0,0.0,88,0.00,,SKC,0.00,VWS V14.01,2013-11-06 07:01:00,
2013-11-06 01:02:00,65.6,62.0,29.93,ESE,119,0.0,0.0,88,0.00,,SKC,0.00,VWS V14.01,2013-11-06 07:02:00,
2013-11-06 01:03:00,65.6,62.0,29.93,ESE,119,0.0,0.0,88,0.00,,SKC,0.00,VWS V14.01,2013-11-06 07:03:00,
2013-11-06 01:04:00,65.6,62.0,29.93,ESE,119,0.0,0.0,88,0.00,,SKC,0.00,VWS V14.01,2013-11-06 07:04:00,
2013-11-06 01:05:00,65.6,62.0,29.93,ESE,119,0.0,0.0,88,0.00,,SKC,0.00,VWS V14.01,2013-11-06 07:05:00,
2013-11-06 01:06:00,65.6,62.0,29.93,ESE,119,0.0,0.0,88,0.00,,SKC,0.00,VWS V14.01,2013-11-06 07:06:00,
2013-11-06 01:07:00,65.6,62.0,29.93,ESE,119,0.0,0.0,88,0.00,,SKC,0.00,VWS V14.01,2013-11-06 07:07:00,
2013-11-06 01:08:00,65.6,62.0,29.93,ESE,119,0.0,0.0,88,0.00,,SKC,0.00,VWS V14.01,2013-11-06 07:08:00,
2013-11-06 01:09:00,65.6,62.0,29.93,ESE,119,0.0,1.0,88,0.00,,SKC,0.00,VWS V14.01,2013-11-06 07:09:00,
2013-11-06 01:10:00,65.6,62.0,29.93,ESE,119,0.0,0.0,88,0.00,,SKC,0.00,VWS V14.01,2013-11-06 07:10:00,
2013-11-06 01:11:00,65.5,61.9,29.93,ESE,119,0.0,0.0,88,0.00,,SKC,0.00,VWS V14.01,2013-11-06 07:11:00,
2013-11-06 01:12:00,65.6,62.0,29.93,ESE,119,0.0,0.0,88,0.00,,SKC,0.00,VWS V14.01,2013-11-06 07:12:00,
2013-11-06 01:13:00,65.6,62.0,29.93,ESE,119,0.0,1.0,88,0.00,,SKC,0.00,VWS V14.01,2013-11-06 07:13:00,
2013-11-06 01:14:00,65.5,61.9,29.93,ESE,119,0.0,0.0,88,0.00,,SKC,0.00,VWS V14.01,2013-11-06 07:14:00,
2013-11-06 01:15:00,65.5,61.9,29.93,ESE,119,0.0,0.0,88,0.00,,SKC,0.00,VWS V14.01,2013-11-06 07:15:00,
2013-11-06 01:16:00,65.5,61.9,29.93,ESE,119,0.0,0.0,88,0.00,,SKC,0.00,VWS V14.01,2013-11-06 07:16:00,
2013-11-06 01:17:00,65.5,61.9,29.93,ESE,119,0.0,0.0,88,0.00,,SKC,0.00,VWS V14.01,2013-11-06 07:17:00,
2013-11-06 01:18:00,65.5,61.9,29.93,ESE,119,0.0,0.0,88,0.00,,SKC,0.00,VWS V14.01,2013-11-06 07:18:00,
2013-11-06 01:19:00,65.4,61.8,29.93,ESE,119,0.0,1.0,88,0.00,,SKC,0.00,VWS V14.01,2013-11-06 07:19:00,
2013-11-06 01:20:00,65.4,61.8,29.93,ESE,119,0.0,0.0,88,0.00,,SKC,0.00,VWS V14.01,2013-11-06 07:20:00,
2013-11-06 01:21:00,65.4,61.8,29.93,ESE,119,0.0,0.0,88,0.00,,SKC,0.00,VWS V14.01,2013-11-06 07:21:00,
2013-11-06 01:22:00,65.4,61.8,29.93,ESE,119,0.0,0.0,88,0.00,,SKC,0.00,VWS V14.01,2013-11-06 07:22:00,
2013-11-06 01:23:00,65.3,61.7,29.93,ESE,119,0.0,0.0,88,0.00,,SKC,0.00,VWS V14.01,2013-11-06 07:23:00,
2013-11-06 01:24:00,65.3,61.7,29.93,ESE,119,0.0,0.0,88,0.00,,SKC,0.00,VWS V14.01,2013-11-06 07:24:00,
2013-11-06 01:25:00,65.2,61.6,29.93,ESE,119,0.0,0.0,88,0.00,,SKC,0.00,VWS V14.01,2013-11-06 07:25:00,
2013-11-06 01:26:00,65.2,61.6,29.93,ESE,119,0.0,0.0,88,0.00,,SKC,0.00,VWS V14.01,2013-11-06 07:26:00,
2013-11-06 01:27:00,65.2,61.6,29.93,ESE,119,0.0,0.0,88,0.00,,SKC,0.00,VWS V14.01,2013-11-06 07:27:00,
2013-11-06 01:28:00,65.1,61.5,29.93,ESE,119,0.0,0.0,88,0.00,,SKC,0.00,VWS V14.01,2013-11-06 07:28:00,
2013-11-06 01:29:00,65.0,61.4,29.93,ESE,119,0.0,0.0,88,0.00,,SKC,0.00,VWS V14.01,2013-11-06 07:29:00,
2013-11-06 01:30:00,65.0,61.4,29.93,ESE,119,0.0,1.0,88,0.00,,SKC,0.00,VWS V14.01,2013-11-06 07:30:00,
2013-11-06 01:31:00,64.9,61.3,29.93,ESE,119,0.0,0.0,88,0.00,,SKC,0.00,VWS V14.01,2013-11-06 07:31:00,
2013-11-06 01:32:00,65.0,61.4,29.93,ESE,119,0.0,0.0,88,0.00,,SKC,0.00,VWS V14.01,2013-11-06 07:32:00,
2013-11-06 01:33:00,64.8,61.2,29.92,ESE,119,0.0,0.0,88,0.00,,SKC,0.00,VWS V14.01,2013-11-06 07:33:00,
2013-11-06 01:34:00,64.8,61.2,29.92,ESE,119,0.0,0.0,88,0.00,,SKC,0.00,VWS V14.01,2013-11-06 07:34:00,
2013-11-06 01:35:00,64.8,61.2,29.92,ESE,119,0.0,0.0,88,0.00,,SKC,0.00,VWS V14.01,2013-11-06 07:35:00,
2013-11-06 01:36:00,64.8,61.2,29.92,ESE,119,0.0,0.0,88,0.00,,SKC,0.00,VWS V14.01,2013-11-06 07:36:00,
2013-11-06 01:37:00,64.8,61.2,29.92,ESE,119,0.0,0.0,88,0.00,,SKC,0.00,VWS V14.01,2013-11-06 07:37:00,
2013-11-06 01:38:00,64.8,61.2,29.92,ESE,119,0.0,0.0,88,0.00,,SKC,0.00,VWS V14.01,2013-11-06 07:38:00,
2013-11-06 01:39:00,64.8,61.2,29.93,ESE,119,0.0,2.0,88,0.00,,SKC,0.00,VWS V14.01,2013-11-06 07:39:00,
2013-11-06 01:40:00,64.8,61.2,29.93,ESE,119,0.0,1.0,88,0.00,,SKC,0.00,VWS V14.01,2013-11-06 07:40:00,
2013-11-06 01:41:00,64.9,61.3,29.93,ESE,119,1.0,2.0,88,0.00,,SKC,0.00,VWS V14.01,2013-11-06 07:41:00,
2013-11-06 01:42:00,64.8,61.2,29.93,ESE,119,0.0,2.0,88,0.00,,SKC,0.00,VWS V14.01,2013-11-06 07:42:00,
2013-11-06 01:43:00,64.9,61.3,29.93,ESE,119,0.0,1.0,88,0.00,,SKC,0.00,VWS V14.01,2013-11-06 07:43:00,
2013-11-06 01:44:00,64.8,61.2,29.93,ESE,119,0.0,2.0,88,0.00,,SKC,0.00,VWS V14.01,2013-11-06 07:44:00,
2013-11-06 01:45:00,64.8,61.2,29.93,ESE,119,1.0,1.0,88,0.00,,SKC,0.00,VWS V14.01,2013-11-06 07:45:00,
2013-11-06 01:46:00,64.7,61.1,29.93,ESE,119,2.0,2.0,88,0.00,,SKC,0.00,VWS V14.01,2013-11-06 07:46:00,
2013-11-06 01:47:00,64.8,61.2,29.93,ESE,119,0.0,1.0,88,0.00,,SKC,0.00,VWS V14.01,2013-11-06 07:47:00,
2013-11-06 01:48:00,64.8,61.2,29.93,ESE,119,2.0,2.0,88,0.00,,SKC,0.00,VWS V14.01,2013-11-06 07:48:00,
2013-11-06 01:49:00,64.9,61.3,29.93,SE,141,3.0,3.0,88,0.00,,SKC,0.00,VWS V14.01,2013-11-06 07:49:00,
2013-11-06 01:50:00,64.9,61.3,29.93,SE,141,1.0,3.0,88,0.00,,SKC,0.00,VWS V14.01,2013-11-06 07:50:00,
2013-11-06 01:51:00,65.0,61.4,29.93,SE,141,3.0,4.0,88,0.00,,SKC,0.00,VWS V14.01,2013-11-06 07:51:00,
2013-11-06 01:52:00,65.0,61.4,29.93,SE,141,3.0,3.0,88,0.00,,SKC,0.00,VWS V14.01,2013-11-06 07:52:00,
2013-11-06 01:53:00,65.1,61.5,29.93,SSE,151,0.0,3.0,88,0.00,,SKC,0.00,VWS V14.01,2013-11-06 07:53:00,
2013-11-06 01:54:00,65.1,61.5,29.93,SSE,151,0.0,3.0,88,0.00,,SKC,0.00,VWS V14.01,2013-11-06 07:54:00,
2013-11-06 01:55:00,65.1,61.5,29.93,SSE,150,2.0,3.0,88,0.00,,SKC,0.00,VWS V14.01,2013-11-06 07:55:00,
2013-11-06 01:56:00,65.1,61.5,29.93,SSE,150,3.0,3.0,88,0.00,,SKC,0.00,VWS V14.01,2013-11-06 07:56:00,
2013-11-06 01:57:00,65.1,61.5,29.93,SSE,150,2.0,2.0,88,0.00,,SKC,0.00,VWS V14.01,2013-11-06 07:57:00,
2013-11-06 01:58:00,65.1,61.5,29.93,SSE,151,1.0,3.0,88,0.00,,SKC,0.00,VWS V14.01,2013-11-06 07:58:00,
2013-11-06 01:59:00,65.0,61.4,29.93,SSE,151,1.0,3.0,88,0.00,,SKC,0.00,VWS V14.01,2013-11-06 07:59:00,
2013-11-06 02:00:00,65.0,61.4,29.93,SSE,151,0.0,2.0,88,0.00,,SKC,0.00,VWS V14.01,2013-11-06 08:00:00,
2013-11-06 02:01:00,65.0,61.4,29.93,SSE,151,0.0,1.0,88,0.00,,SKC,0.00,VWS V14.01,2013-11-06 08:01:00,
2013-11-06 02:02:00,65.0,61.4,29.93,SSE,150,1.0,1.0,88,0.00,,SKC,0.00,VWS V14.01,2013-11-06 08:02:00,
2013-11-06 02:03:00,65.0,61.4,29.93,SSE,150,0.0,3.0,88,0.00,,SKC,0.00,VWS V14.01,2013-11-06 08:03:00,
2013-11-06 02:04:00,65.0,61.4,29.93,SSE,151,0.0,2.0,88,0.00,,SKC,0.00,VWS V14.01,2013-11-06 08:04:00,
2013-11-06 02:05:00,64.9,61.3,29.92,SSE,152,4.0,4.0,88,0.00,,SKC,0.00,VWS V14.01,2013-11-06 08:05:00,
2013-11-06 02:06:00,64.8,61.2,29.93,SE,142,3.0,5.0,88,0.00,,SKC,0.00,VWS V14.01,2013-11-06 08:06:00,
2013-11-06 02:07:00,64.9,61.3,29.92,SSE,152,2.0,5.0,88,0.00,,SKC,0.00,VWS V14.01,2013-11-06 08:07:00,
2013-11-06 02:08:00,64.6,61.0,29.93,SE,139,0.0,3.0,88,0.00,,SKC,0.00,VWS V14.01,2013-11-06 08:08:00,
2013-11-06 02:09:00,64.5,60.9,29.93,SE,138,2.0,3.0,88,0.00,,SKC,0.00,VWS V14.01,2013-11-06 08:09:00,
2013-11-06 02:10:00,64.3,60.7,29.93,SE,139,2.0,3.0,88,0.00,,SKC,0.00,VWS V14.01,2013-11-06 08:10:00,
2013-11-06 02:11:00,64.2,60.6,29.93,SE,140,1.0,4.0,88,0.00,,SKC,0.00,VWS V14.01,2013-11-06 08:11:00,
2013-11-06 02:12:00,64.3,60.7,29.93,SE,139,0.0,2.0,88,0.00,,SKC,0.00,VWS V14.01,2013-11-06 08:12:00,
2013-11-06 02:13:00,64.0,60.4,29.93,SE,140,0.0,4.0,88,0.00,,SKC,0.00,VWS V14.01,2013-11-06 08:13:00,
2013-11-06 02:14:00,63.9,60.3,29.93,SE,140,3.0,3.0,88,0.00,,SKC,0.00,VWS V14.01,2013-11-06 08:14:00,
2013-11-06 02:15:00,63.8,60.2,29.93,SE,140,0.0,3.0,88,0.00,,SKC,0.00,VWS V14.01,2013-11-06 08:15:00,
2013-11-06 02:16:00,63.7,60.1,29.93,SE,140,3.0,3.0,88,0.00,,SKC,0.00,VWS V14.01,2013-11-06 08:16:00,
2013-11-06 02:17:00,63.8,60.2,29.93,SE,140,1.0,1.0,88,0.00,,SKC,0.00,VWS V14.01,2013-11-06 08:17:00,
2013-11-06 02:18:00,63.5,59.9,29.93,SE,140,3.0,4.0,88,0.00,,SKC,0.00,VWS V14.01,2013-11-06 08:18:00,
2013-11-06 02:19:00,63.5,59.9,29.93,SE,140,2.0,3.0,88,0.00,,SKC,0.00,VWS V14.01,2013-11-06 08:19:00,
2013-11-06 02:20:00,63.4,59.8,29.93,SE,140,2.0,3.0,88,0.00,,SKC,0.00,VWS V14.01,2013-11-06 08:20:00,
2013-11-06 02:21:00,63.3,59.7,29.93,SE,140,2.0,3.0,88,0.00,,SKC,0.00,VWS V14.01,2013-11-06 08:21:00,
2013-11-06 02:22:00,63.3,59.7,29.93,SE,140,1.0,3.0,88,0.00,,SKC,0.00,VWS V14.01,2013-11-06 08:22:00,
2013-11-06 02:23:00,63.1,59.5,29.93,SE,140,0.0,4.0,88,0.00,,SKC,0.00,VWS V14.01,2013-11-06 08:23:00,
2013-11-06 02:24:00,63.0,59.4,29.93,SE,140,2.0,3.0,88,0.00,,SKC,0.00,VWS V14.01,2013-11-06 08:24:00,
2013-11-06 02:25:00,62.9,59.3,29.93,SSE,155,2.0,5.0,88,0.00,,SKC,0.00,VWS V14.01,2013-11-06 08:25:00,
2013-11-06 02:26:00,62.7,59.1,29.93,South,169,2.0,6.0,88,0.00,,SKC,0.00,VWS V14.01,2013-11-06 08:26:00,
2013-11-06 02:27:00,62.8,59.2,29.93,SSE,167,5.0,5.0,88,0.00,,SKC,0.00,VWS V14.01,2013-11-06 08:27:00,
2013-11-06 02:28:00,62.5,58.9,29.93,South,169,2.0,4.0,88,0.00,,SKC,0.00,VWS V14.01,2013-11-06 08:28:00,
2013-11-06 02:29:00,62.4,58.8,29.93,SSE,168,2.0,3.0,88,0.00,,SKC,0.00,VWS V14.01,2013-11-06 08:29:00,
2013-11-06 02:30:00,62.3,58.7,29.93,SSE,168,2.0,3.0,88,0.00,,SKC,0.00,VWS V14.01,2013-11-06 08:30:00,
2013-11-06 02:31:00,62.3,58.7,29.93,SSE,168,1.0,3.0,88,0.00,,SKC,0.00,VWS V14.01,2013-11-06 08:31:00,
2013-11-06 02:32:00,62.3,58.7,29.93,SSE,168,1.0,3.0,88,0.00,,SKC,0.00,VWS V14.01,2013-11-06 08:32:00,
2013-11-06 02:33:00,62.1,58.5,29.93,South,169,2.0,4.0,88,0.00,,SKC,0.00,VWS V14.01,2013-11-06 08:33:00,
2013-11-06 02:34:00,62.1,58.5,29.93,South,169,4.0,4.0,88,0.00,,SKC,0.00,VWS V14.01,2013-11-06 08:34:00,
2013-11-06 02:35:00,62.0,58.4,29.93,South,169,0.0,4.0,88,0.00,,SKC,0.00,VWS V14.01,2013-11-06 08:35:00,
2013-11-06 02:36:00,62.0,58.4,29.93,SSE,168,2.0,5.0,88,0.00,,SKC,0.00,VWS V14.01,2013-11-06 08:36:00,
2013-11-06 02:37:00,62.0,58.4,29.93,South,169,3.0,3.0,88,0.00,,SKC,0.00,VWS V14.01,2013-11-06 08:37:00,
2013-11-06 02:38:00,61.9,58.3,29.93,SSE,168,0.0,4.0,88,0.00,,SKC,0.00,VWS V14.01,2013-11-06 08:38:00,
2013-11-06 02:39:00,61.9,58.3,29.93,South,169,2.0,3.0,88,0.00,,SKC,0.00,VWS V14.01,2013-11-06 08:39:00,
2013-11-06 02:40:00,61.8,58.2,29.93,South,169,1.0,4.0,88,0.00,,SKC,0.00,VWS V14.01,2013-11-06 08:40:00,
2013-11-06 02:41:00,61.8,58.2,29.93,SSE,168,2.0,3.0,88,0.00,,SKC,0.00,VWS V14.01,2013-11-06 08:41:00,
2013-11-06 02:42:00,61.8,58.2,29.93,South,169,0.0,2.0,88,0.00,,SKC,0.00,VWS V14.01,2013-11-06 08:42:00,
2013-11-06 02:43:00,61.7,58.1,29.93,SSE,168,0.0,3.0,88,0.00,,SKC,0.00,VWS V14.01,2013-11-06 08:43:00,
2013-11-06 02:44:00,61.7,58.1,29.93,SSE,168,1.0,4.0,88,0.00,,SKC,0.00,VWS V14.01,2013-11-06 08:44:00,
2013-11-06 02:45:00,61.7,58.1,29.93,South,169,0.0,1.0,88,0.00,,SKC,0.00,VWS V14.01,2013-11-06 08:45:00,
2013-11-06 02:46:00,61.7,58.1,29.93,South,169,2.0,2.0,88,0.00,,SKC,0.00,VWS V14.01,2013-11-06 08:46:00,
2013-11-06 02:47:00,61.7,58.1,29.93,South,169,0.0,0.0,88,0.00,,SKC,0.00,VWS V14.01,2013-11-06 08:47:00,
2013-11-06 02:48:00,61.6,58.0,29.93,South,169,3.0,3.0,88,0.00,,SKC,0.00,VWS V14.01,2013-11-06 08:48:00,
2013-11-06 02:49:00,61.6,58.0,29.93,South,169,3.0,4.0,88,0.00,,SKC,0.00,VWS V14.01,2013-11-06 08:49:00,
2013-11-06 02:50:00,61.6,58.0,29.93,SSE,168,3.0,5.0,88,0.00,,SKC,0.00,VWS V14.01,2013-11-06 08:50:00,
2013-11-06 02:51:00,61.6,58.0,29.93,South,169,1.0,4.0,88,0.00,,SKC,0.00,VWS V14.01,2013-11-06 08:51:00,
2013-11-06 02:52:00,61.6,58.0,29.93,SSE,168,2.0,3.0,88,0.00,,SKC,0.00,VWS V14.01,2013-11-06 08:52:00,
2013-11-06 02:53:00,61.5,57.9,29.93,South,169,0.0,3.0,88,0.00,,SKC,0.00,VWS V14.01,2013-11-06 08:53:00,
2013-11-06 02:54:00,61.5,57.9,29.93,South,169,2.0,2.0,88,0.00,,SKC,0.00,VWS V14.01,2013-11-06 08:54:00,
2013-11-06 02:55:00,61.5,57.9,29.93,South,169,1.0,3.0,88,0.00,,SKC,0.00,VWS V14.01,2013-11-06 08:55:00,
2013-11-06 02:56:00,61.5,57.9,29.93,SSE,168,2.0,3.0,88,0.00,,SKC,0.00,VWS V14.01,2013-11-06 08:56:00,
2013-11-06 02:57:00,61.5,57.9,29.93,South,169,2.0,3.0,88,0.00,,SKC,0.00,VWS V14.01,2013-11-06 08:57:00,
2013-11-06 02:58:00,61.5,57.9,29.93,South,169,2.0,3.0,88,0.00,,SKC,0.00,VWS V14.01,2013-11-06 08:58:00,
2013-11-06 02:59:00,61.5,57.9,29.94,South,169,0.0,4.0,88,0.00,,SKC,0.00,VWS V14.01,2013-11-06 08:59:00,
2013-11-06 03:00:00,61.5,57.9,29.94,South,169,1.0,3.0,88,0.00,,SKC,0.00,VWS V14.01,2013-11-06 09:00:00,
2013-11-06 03:01:00,61.5,57.9,29.94,South,169,0.0,2.0,88,0.00,,SKC,0.00,VWS V14.01,2013-11-06 09:01:00,
2013-11-06 03:02:00,61.5,57.9,29.94,South,169,0.0,1.0,88,0.00,,SKC,0.00,VWS V14.01,2013-11-06 09:02:00,
2013-11-06 03:03:00,61.5,57.9,29.94,SSE,168,2.0,2.0,88,0.00,,SKC,0.00,VWS V14.01,2013-11-06 09:03:00,
2013-11-06 03:04:00,61.5,57.9,29.94,SSE,168,3.0,4.0,88,0.00,,SKC,0.00,VWS V14.01,2013-11-06 09:04:00,
2013-11-06 03:05:00,61.5,57.9,29.94,South,169,2.0,3.0,88,0.00,,SKC,0.00,VWS V14.01,2013-11-06 09:05:00,
2013-11-06 03:06:00,61.5,57.9,29.94,SSE,167,3.0,4.0,88,0.00,,SKC,0.00,VWS V14.01,2013-11-06 09:06:00,
2013-11-06 03:07:00,61.5,57.9,29.94,SSE,168,2.0,2.0,88,0.00,,SKC,0.00,VWS V14.01,2013-11-06 09:07:00,
2013-11-06 03:08:00,61.5,57.9,29.93,SE,136,4.0,6.0,88,0.00,,SKC,0.00,VWS V14.01,2013-11-06 09:08:00,
2013-11-06 03:09:00,61.5,57.9,29.93,SE,136,2.0,4.0,88,0.01,,SKC,0.01,VWS V14.01,2013-11-06 09:09:00,
2013-11-06 03:10:00,61.5,57.9,29.94,SE,138,3.0,4.0,88,0.01,,SKC,0.01,VWS V14.01,2013-11-06 09:10:00,
2013-11-06 03:11:00,61.5,57.9,29.94,SE,144,3.0,4.0,88,0.01,,SKC,0.01,VWS V14.01,2013-11-06 09:11:00,
2013-11-06 03:12:00,61.5,57.9,29.94,SE,138,1.0,3.0,88,0.01,,SKC,0.01,VWS V14.01,2013-11-06 09:12:00,
2013-11-06 03:13:00,61.5,57.9,29.94,SSE,147,0.0,5.0,88,0.01,,SKC,0.01,VWS V14.01,2013-11-06 09:13:00,
2013-11-06 03:14:00,61.5,57.9,29.94,SSE,147,3.0,3.0,88,0.01,,SKC,0.01,VWS V14.01,2013-11-06 09:14:00,
2013-11-06 03:15:00,61.6,58.0,29.94,SSE,151,4.0,4.0,88,0.01,,SKC,0.01,VWS V14.01,2013-11-06 09:15:00,
2013-11-06 03:16:00,61.6,58.0,29.94,SSE,156,1.0,5.0,88,0.01,,SKC,0.01,VWS V14.01,2013-11-06 09:16:00,
2013-11-06 03:17:00,61.6,58.0,29.94,SSE,152,2.0,4.0,88,0.01,,SKC,0.01,VWS V14.01,2013-11-06 09:17:00,
2013-11-06 03:18:00,61.6,58.0,29.94,SSE,157,5.0,5.0,88,0.01,,SKC,0.01,VWS V14.01,2013-11-06 09:18:00,
2013-11-06 03:19:00,61.6,58.0,29.94,SSE,152,3.0,5.0,88,0.01,,SKC,0.01,VWS V14.01,2013-11-06 09:19:00,
2013-11-06 03:20:00,61.7,58.1,29.94,SSE,152,3.0,4.0,88,0.01,,SKC,0.01,VWS V14.01,2013-11-06 09:20:00,
2013-11-06 03:21:00,61.7,58.1,29.94,SSE,152,3.0,3.0,88,0.01,,SKC,0.01,VWS V14.01,2013-11-06 09:21:00,
2013-11-06 03:22:00,61.7,58.1,29.94,SSE,152,2.0,3.0,88,0.01,,SKC,0.01,VWS V14.01,2013-11-06 09:22:00,
2013-11-06 03:23:00,61.7,58.1,29.94,SSE,152,1.0,3.0,88,0.01,,SKC,0.01,VWS V14.01,2013-11-06 09:23:00,
2013-11-06 03:24:00,61.7,58.1,29.94,SE,144,2.0,6.0,88,0.01,,SKC,0.01,VWS V14.01,2013-11-06 09:24:00,
2013-11-06 03:25:00,61.8,58.2,29.94,SE,145,0.0,3.0,88,0.01,,SKC,0.01,VWS V14.01,2013-11-06 09:25:00,
2013-11-06 03:26:00,61.8,58.2,29.94,SE,146,2.0,4.0,88,0.01,,SKC,0.01,VWS V14.01,2013-11-06 09:26:00,
2013-11-06 03:27:00,61.8,58.2,29.94,SE,145,1.0,3.0,88,0.01,,SKC,0.01,VWS V14.01,2013-11-06 09:27:00,
2013-11-06 03:28:00,61.8,58.2,29.94,SE,146,1.0,3.0,88,0.01,,SKC,0.01,VWS V14.01,2013-11-06 09:28:00,
2013-11-06 03:29:00,61.8,58.2,29.94,SE,146,3.0,3.0,88,0.01,,SKC,0.01,VWS V14.01,2013-11-06 09:29:00,
2013-11-06 03:30:00,61.8,58.2,29.94,SE,146,2.0,3.0,88,0.01,,SKC,0.01,VWS V14.01,2013-11-06 09:30:00,
2013-11-06 03:31:00,61.8,58.2,29.94,SE,145,2.0,3.0,88,0.01,,SKC,0.01,VWS V14.01,2013-11-06 09:31:00,
2013-11-06 03:32:00,61.8,58.2,29.94,SE,146,2.0,3.0,88,0.01,,SKC,0.01,VWS V14.01,2013-11-06 09:32:00,
2013-11-06 03:33:00,61.8,58.2,29.94,SSE,150,2.0,3.0,88,0.01,,SKC,0.01,VWS V14.01,2013-11-06 09:33:00,
2013-11-06 03:34:00,61.8,58.2,29.94,SSE,150,2.0,3.0,88,0.01,,SKC,0.01,VWS V14.01,2013-11-06 09:34:00,
2013-11-06 03:35:00,61.8,58.2,29.94,SSE,150,3.0,5.0,88,0.01,,SKC,0.01,VWS V14.01,2013-11-06 09:35:00,
2013-11-06 03:36:00,61.9,58.3,29.94,SSE,150,3.0,4.0,88,0.01,,SKC,0.01,VWS V14.01,2013-11-06 09:36:00,
2013-11-06 03:37:00,61.9,58.3,29.94,SSE,150,2.0,3.0,88,0.01,,SKC,0.01,VWS V14.01,2013-11-06 09:37:00,
2013-11-06 03:38:00,61.9,58.3,29.94,SE,142,2.0,5.0,88,0.01,,SKC,0.01,VWS V14.01,2013-11-06 09:38:00,
2013-11-06 03:40:00,61.9,58.3,29.94,SE,144,0.0,3.0,88,0.01,,SKC,0.01,VWS V14.01,2013-11-06 09:40:00,
2013-11-06 03:42:00,61.9,58.3,29.94,SE,144,2.0,2.0,88,0.01,,SKC,0.01,VWS V14.01,2013-11-06 09:42:00,
2013-11-06 03:44:00,62.0,58.4,29.94,SE,144,0.0,4.0,88,0.01,,SKC,0.01,VWS V14.01,2013-11-06 09:44:00,
2013-11-06 03:45:00,62.0,58.4,29.94,SE,144,0.0,2.0,88,0.01,,SKC,0.01,VWS V14.01,2013-11-06 09:45:00,
2013-11-06 03:46:00,62.0,58.4,29.94,SE,144,0.0,1.0,88,0.01,,SKC,0.01,VWS V14.01,2013-11-06 09:46:00,
2013-11-06 03:47:00,62.0,58.4,29.94,SE,144,0.0,0.0,88,0.01,,SKC,0.01,VWS V14.01,2013-11-06 09:47:00,
2013-11-06 03:48:00,62.0,58.4,29.94,SE,144,0.0,1.0,88,0.01,,SKC,0.01,VWS V14.01,2013-11-06 09:48:00,
2013-11-06 03:49:00,62.0,58.4,29.94,SE,144,0.0,0.0,88,0.01,,SKC,0.01,VWS V14.01,2013-11-06 09:49:00,
2013-11-06 03:50:00,62.0,58.4,29.94,SE,144,0.0,0.0,88,0.01,,SKC,0.01,VWS V14.01,2013-11-06 09:50:00,
2013-11-06 03:51:00,62.0,58.4,29.94,SE,144,0.0,0.0,88,0.01,,SKC,0.01,VWS V14.01,2013-11-06 09:51:00,
2013-11-06 03:52:00,62.0,58.4,29.94,SE,144,0.0,0.0,88,0.01,,SKC,0.01,VWS V14.01,2013-11-06 09:52:00,
2013-11-06 03:53:00,61.9,58.3,29.94,SE,144,0.0,2.0,88,0.01,,SKC,0.01,VWS V14.01,2013-11-06 09:53:00,
2013-11-06 03:54:00,61.9,58.3,29.94,SE,144,1.0,1.0,88,0.01,,SKC,0.01,VWS V14.01,2013-11-06 09:54:00,
2013-11-06 03:55:00,61.9,58.3,29.94,SE,144,0.0,2.0,88,0.01,,SKC,0.01,VWS V14.01,2013-11-06 09:55:00,
2013-11-06 03:56:00,61.9,58.3,29.94,SE,144,0.0,1.0,88,0.01,,SKC,0.01,VWS V14.01,2013-11-06 09:56:00,
2013-11-06 03:57:00,61.9,58.3,29.94,SE,144,0.0,1.0,88,0.01,,SKC,0.01,VWS V14.01,2013-11-06 09:57:00,
2013-11-06 03:58:00,61.9,58.3,29.94,SE,144,1.0,2.0,88,0.01,,SKC,0.01,VWS V14.01,2013-11-06 09:58:00,
2013-11-06 03:59:00,61.9,58.3,29.94,SE,144,0.0,2.0,88,0.01,,SKC,0.01,VWS V14.01,2013-11-06 09:59:00,
2013-11-06 04:00:00,61.8,58.2,29.94,SE,144,2.0,2.0,88,0.01,,SKC,0.01,VWS V14.01,2013-11-06 10:00:00,
2013-11-06 04:01:00,61.8,58.2,29.95,SE,144,0.0,2.0,88,0.01,,SKC,0.01,VWS V14.01,2013-11-06 10:01:00,
2013-11-06 04:02:00,61.8,58.2,29.94,SE,144,1.0,2.0,88,0.01,,SKC,0.01,VWS V14.01,2013-11-06 10:02:00,
2013-11-06 04:03:00,61.8,58.2,29.95,SE,144,2.0,2.0,88,0.01,,SKC,0.01,VWS V14.01,2013-11-06 10:03:00,
2013-11-06 04:04:00,61.8,58.2,29.95,SE,144,0.0,2.0,88,0.01,,SKC,0.01,VWS V14.01,2013-11-06 10:04:00,
2013-11-06 04:05:00,61.8,58.2,29.95,SE,144,2.0,3.0,88,0.01,,SKC,0.01,VWS V14.01,2013-11-06 10:05:00,
2013-11-06 04:06:00,61.8,58.2,29.95,SE,144,2.0,3.0,88,0.01,,SKC,0.01,VWS V14.01,2013-11-06 10:06:00,
2013-11-06 04:07:00,61.8,58.2,29.95,SE,144,1.0,3.0,88,0.01,,SKC,0.01,VWS V14.01,2013-11-06 10:07:00,
2013-11-06 04:08:00,61.8,58.2,29.95,SE,144,1.0,3.0,88,0.01,,SKC,0.01,VWS V14.01,2013-11-06 10:08:00,
2013-11-06 04:09:00,61.8,58.2,29.95,SE,144,1.0,2.0,88,0.01,,SKC,0.01,VWS V14.01,2013-11-06 10:09:00,
2013-11-06 04:10:00,61.8,58.2,29.95,SE,144,1.0,2.0,88,0.00,,SKC,0.01,VWS V14.01,2013-11-06 10:10:00,
2013-11-06 04:11:00,61.8,58.2,29.95,SE,144,0.0,1.0,88,0.00,,SKC,0.01,VWS V14.01,2013-11-06 10:11:00,
2013-11-06 04:12:00,61.8,58.2,29.95,SE,144,1.0,1.0,88,0.00,,SKC,0.01,VWS V14.01,2013-11-06 10:12:00,
2013-11-06 04:13:00,61.8,58.2,29.95,SE,144,0.0,0.0,88,0.00,,SKC,0.01,VWS V14.01,2013-11-06 10:13:00,
2013-11-06 04:14:00,61.8,58.2,29.95,SE,144,0.0,1.0,88,0.00,,SKC,0.01,VWS V14.01,2013-11-06 10:14:00,
2013-11-06 04:15:00,61.8,58.2,29.95,SE,144,0.0,1.0,88,0.00,,SKC,0.01,VWS V14.01,2013-11-06 10:15:00,
2013-11-06 04:16:00,61.8,58.2,29.95,SE,144,0.0,0.0,88,0.00,,SKC,0.01,VWS V14.01,2013-11-06 10:16:00,
2013-11-06 04:17:00,61.8,58.2,29.95,SE,144,0.0,0.0,88,0.00,,SKC,0.01,VWS V14.01,2013-11-06 10:17:00,
2013-11-06 04:18:00,61.8,58.2,29.95,SE,144,0.0,1.0,88,0.00,,SKC,0.01,VWS V14.01,2013-11-06 10:18:00,
2013-11-06 04:19:00,61.7,58.1,29.95,SE,144,0.0,3.0,88,0.00,,SKC,0.01,VWS V14.01,2013-11-06 10:19:00,
2013-11-06 04:20:00,61.7,58.1,29.95,SE,144,1.0,1.0,88,0.00,,SKC,0.01,VWS V14.01,2013-11-06 10:20:00,
2013-11-06 04:21:00,61.8,58.2,29.95,SE,144,3.0,3.0,88,0.00,,SKC,0.01,VWS V14.01,2013-11-06 10:21:00,
2013-11-06 04:22:00,61.7,58.1,29.95,SE,144,1.0,2.0,88,0.00,,SKC,0.01,VWS V14.01,2013-11-06 10:22:00,
2013-11-06 04:23:00,61.7,58.1,29.95,SE,144,0.0,2.0,88,0.00,,SKC,0.01,VWS V14.01,2013-11-06 10:23:00,
2013-11-06 04:24:00,61.7,58.1,29.95,SE,144,1.0,1.0,88,0.00,,SKC,0.01,VWS V14.01,2013-11-06 10:24:00,
2013-11-06 04:25:00,61.7,58.1,29.95,SE,144,2.0,2.0,88,0.00,,SKC,0.01,VWS V14.01,2013-11-06 10:25:00,
2013-11-06 04:26:00,61.6,58.0,29.95,SE,144,0.0,2.0,88,0.00,,SKC,0.01,VWS V14.01,2013-11-06 10:26:00,
2013-11-06 04:27:00,61.6,58.0,29.95,SE,144,1.0,2.0,88,0.00,,SKC,0.01,VWS V14.01,2013-11-06 10:27:00,
2013-11-06 04:28:00,61.6,58.0,29.95,SE,144,0.0,2.0,88,0.00,,SKC,0.01,VWS V14.01,2013-11-06 10:28:00,
2013-11-06 04:29:00,61.6,58.0,29.95,SE,144,0.0,1.0,88,0.00,,SKC,0.01,VWS V14.01,2013-11-06 10:29:00,
2013-11-06 04:30:00,61.5,57.9,29.95,SE,144,0.0,1.0,88,0.00,,SKC,0.01,VWS V14.01,2013-11-06 10:30:00,
2013-11-06 04:31:00,61.5,57.9,29.95,SE,144,0.0,1.0,88,0.00,,SKC,0.01,VWS V14.01,2013-11-06 10:31:00,
2013-11-06 04:32:00,61.5,57.9,29.95,SE,144,0.0,1.0,88,0.00,,SKC,0.01,VWS V14.01,2013-11-06 10:32:00,
2013-11-06 04:33:00,61.5,57.9,29.96,SE,144,1.0,2.0,88,0.00,,SKC,0.01,VWS V14.01,2013-11-06 10:33:00,
2013-11-06 04:34:00,61.4,57.8,29.96,SE,144,1.0,2.0,88,0.00,,SKC,0.01,VWS V14.01,2013-11-06 10:34:00,
2013-11-06 04:35:00,61.4,57.8,29.96,SE,144,0.0,2.0,88,0.00,,SKC,0.01,VWS V14.01,2013-11-06 10:35:00,
2013-11-06 04:36:00,61.4,57.8,29.96,SE,144,2.0,4.0,88,0.00,,SKC,0.01,VWS V14.01,2013-11-06 10:36:00,
2013-11-06 04:37:00,61.4,57.8,29.95,SE,144,0.0,1.0,88,0.00,,SKC,0.01,VWS V14.01,2013-11-06 10:37:00,
2013-11-06 04:38:00,61.4,57.8,29.96,SE,144,2.0,2.0,88,0.00,,SKC,0.01,VWS V14.01,2013-11-06 10:38:00,
2013-11-06 04:39:00,61.3,57.7,29.96,SE,144,2.0,2.0,88,0.00,,SKC,0.01,VWS V14.01,2013-11-06 10:39:00,
2013-11-06 04:40:00,61.3,57.7,29.96,SE,144,0.0,2.0,88,0.00,,SKC,0.01,VWS V14.01,2013-11-06 10:40:00,
2013-11-06 04:41:00,61.3,57.7,29.96,SSE,149,0.0,2.0,88,0.00,,SKC,0.01,VWS V14.01,2013-11-06 10:41:00,
2013-11-06 04:42:00,61.3,57.7,29.96,SSE,150,0.0,2.0,88,0.00,,SKC,0.01,VWS V14.01,2013-11-06 10:42:00,
2013-11-06 04:43:00,61.2,57.6,29.96,SSE,150,0.0,2.0,88,0.00,,SKC,0.01,VWS V14.01,2013-11-06 10:43:00,
2013-11-06 04:44:00,61.2,57.6,29.96,SSE,149,0.0,0.0,88,0.00,,SKC,0.01,VWS V14.01,2013-11-06 10:44:00,
2013-11-06 04:45:00,61.2,57.6,29.96,SSE,150,1.0,1.0,88,0.00,,SKC,0.01,VWS V14.01,2013-11-06 10:45:00,
2013-11-06 04:46:00,61.1,57.5,29.96,SSE,149,0.0,2.0,88,0.00,,SKC,0.01,VWS V14.01,2013-11-06 10:46:00,
2013-11-06 04:47:00,61.2,57.6,29.96,SSE,150,1.0,2.0,88,0.00,,SKC,0.01,VWS V14.01,2013-11-06 10:47:00,
2013-11-06 04:48:00,61.0,57.4,29.96,SSE,150,1.0,2.0,88,0.00,,SKC,0.01,VWS V14.01,2013-11-06 10:48:00,
2013-11-06 04:49:00,61.0,57.4,29.96,SSE,150,0.0,1.0,88,0.00,,SKC,0.01,VWS V14.01,2013-11-06 10:49:00,
2013-11-06 04:50:00,61.0,57.4,29.96,SSE,150,0.0,0.0,88,0.00,,SKC,0.01,VWS V14.01,2013-11-06 10:50:00,
2013-11-06 04:51:00,60.9,57.3,29.96,SSE,150,0.0,1.0,88,0.00,,SKC,0.01,VWS V14.01,2013-11-06 10:51:00,
2013-11-06 04:52:00,60.9,57.3,29.96,SSE,149,1.0,1.0,88,0.00,,SKC,0.01,VWS V14.01,2013-11-06 10:52:00,
2013-11-06 04:53:00,60.9,57.3,29.96,SSE,149,0.0,1.0,88,0.00,,SKC,0.01,VWS V14.01,2013-11-06 10:53:00,
2013-11-06 04:54:00,60.9,57.3,29.96,SSE,149,1.0,2.0,88,0.00,,SKC,0.01,VWS V14.01,2013-11-06 10:54:00,
2013-11-06 04:55:00,60.9,57.3,29.96,SSE,150,0.0,1.0,88,0.00,,SKC,0.01,VWS V14.01,2013-11-06 10:55:00,
2013-11-06 04:56:00,60.9,57.3,29.96,SSE,150,0.0,0.0,88,0.00,,SKC,0.01,VWS V14.01,2013-11-06 10:56:00,
2013-11-06 04:57:00,60.9,57.3,29.96,SSE,150,0.0,0.0,88,0.00,,SKC,0.01,VWS V14.01,2013-11-06 10:57:00,
2013-11-06 04:58:00,60.8,57.2,29.96,SSE,150,0.0,0.0,88,0.00,,SKC,0.01,VWS V14.01,2013-11-06 10:58:00,
2013-11-06 04:59:00,60.7,57.1,29.96,SSE,149,0.0,0.0,88,0.00,,SKC,0.01,VWS V14.01,2013-11-06 10:59:00,
2013-11-06 05:00:00,60.7,57.1,29.96,SSE,150,2.0,2.0,88,0.00,,SKC,0.01,VWS V14.01,2013-11-06 11:00:00,
2013-11-06 05:01:00,60.6,57.0,29.96,SSE,150,0.0,3.0,88,0.00,,SKC,0.01,VWS V14.01,2013-11-06 11:01:00,
2013-11-06 05:02:00,60.7,57.1,29.96,SSE,150,0.0,3.0,88,0.00,,SKC,0.01,VWS V14.01,2013-11-06 11:02:00,
2013-11-06 05:03:00,60.6,57.0,29.96,SSE,150,0.0,0.0,88,0.00,,SKC,0.01,VWS V14.01,2013-11-06 11:03:00,
2013-11-06 05:04:00,60.5,56.9,29.96,SSE,150,0.0,1.0,88,0.00,,SKC,0.01,VWS V14.01,2013-11-06 11:04:00,
2013-11-06 05:05:00,60.5,56.9,29.96,SSE,150,0.0,1.0,88,0.00,,SKC,0.01,VWS V14.01,2013-11-06 11:05:00,
2013-11-06 05:06:00,60.5,56.9,29.96,SSE,149,0.0,1.0,88,0.00,,SKC,0.01,VWS V14.01,2013-11-06 11:06:00,
2013-11-06 05:07:00,60.5,56.9,29.96,SSE,150,0.0,1.0,88,0.00,,SKC,0.01,VWS V14.01,2013-11-06 11:07:00,
2013-11-06 05:08:00,60.5,56.9,29.97,SSE,150,0.0,0.0,88,0.00,,SKC,0.01,VWS V14.01,2013-11-06 11:08:00,
2013-11-06 05:09:00,60.5,56.9,29.96,SSE,149,0.0,0.0,88,0.00,,SKC,0.01,VWS V14.01,2013-11-06 11:09:00,
2013-11-06 05:10:00,60.5,56.9,29.96,SSE,150,0.0,1.0,88,0.00,,SKC,0.01,VWS V14.01,2013-11-06 11:10:00,
2013-11-06 05:11:00,60.5,56.9,29.97,SSE,150,0.0,1.0,88,0.00,,SKC,0.01,VWS V14.01,2013-11-06 11:11:00,
2013-11-06 05:12:00,60.5,56.9,29.96,SSE,149,0.0,1.0,88,0.00,,SKC,0.01,VWS V14.01,2013-11-06 11:12:00,
2013-11-06 05:13:00,60.5,56.9,29.97,SSE,149,0.0,1.0,88,0.00,,SKC,0.01,VWS V14.01,2013-11-06 11:13:00,
2013-11-06 05:14:00,60.4,56.8,29.96,SSE,149,0.0,1.0,88,0.00,,SKC,0.01,VWS V14.01,2013-11-06 11:14:00,
2013-11-06 05:15:00,60.4,56.8,29.96,SSE,149,0.0,1.0,88,0.00,,SKC,0.01,VWS V14.01,2013-11-06 11:15:00,
2013-11-06 05:16:00,60.4,56.8,29.96,SSE,149,0.0,1.0,88,0.00,,SKC,0.01,VWS V14.01,2013-11-06 11:16:00,
2013-11-06 05:17:00,60.4,56.8,29.96,SSE,150,0.0,0.0,88,0.00,,SKC,0.01,VWS V14.01,2013-11-06 11:17:00,
2013-11-06 05:18:00,60.4,56.8,29.97,SSE,150,0.0,0.0,88,0.00,,SKC,0.01,VWS V14.01,2013-11-06 11:18:00,
2013-11-06 05:19:00,60.4,56.8,29.97,SSE,150,0.0,1.0,88,0.00,,SKC,0.01,VWS V14.01,2013-11-06 11:19:00,
2013-11-06 05:20:00,60.3,56.7,29.97,SSE,149,0.0,0.0,88,0.00,,SKC,0.01,VWS V14.01,2013-11-06 11:20:00,
2013-11-06 05:21:00,60.3,56.7,29.97,SSE,149,0.0,0.0,88,0.00,,SKC,0.01,VWS V14.01,2013-11-06 11:21:00,
2013-11-06 05:22:00,60.3,56.7,29.97,SSE,150,0.0,0.0,88,0.00,,SKC,0.01,VWS V14.01,2013-11-06 11:22:00,
2013-11-06 05:23:00,60.2,56.6,29.97,SSE,150,0.0,0.0,88,0.00,,SKC,0.01,VWS V14.01,2013-11-06 11:23:00,
2013-11-06 05:24:00,60.1,56.5,29.97,SSE,150,0.0,0.0,88,0.00,,SKC,0.01,VWS V14.01,2013-11-06 11:24:00,
2013-11-06 05:25:00,60.1,56.5,29.97,SSE,150,0.0,0.0,88,0.00,,SKC,0.01,VWS V14.01,2013-11-06 11:25:00,
2013-11-06 05:26:00,60.1,56.5,29.97,SSE,150,0.0,1.0,88,0.00,,SKC,0.01,VWS V14.01,2013-11-06 11:26:00,
2013-11-06 05:27:00,60.1,56.5,29.97,SSE,150,0.0,1.0,88,0.00,,SKC,0.01,VWS V14.01,2013-11-06 11:27:00,
2013-11-06 05:28:00,60.1,56.5,29.97,SSE,149,1.0,1.0,88,0.00,,SKC,0.01,VWS V14.01,2013-11-06 11:28:00,
2013-11-06 05:29:00,60.1,56.5,29.97,SSE,150,0.0,1.0,88,0.00,,SKC,0.01,VWS V14.01,2013-11-06 11:29:00,
2013-11-06 05:30:00,60.2,56.6,29.97,SSE,150,0.0,2.0,88,0.00,,SKC,0.01,VWS V14.01,2013-11-06 11:30:00,
2013-11-06 05:31:00,60.2,56.6,29.97,SSE,150,0.0,0.0,88,0.00,,SKC,0.01,VWS V14.01,2013-11-06 11:31:00,
2013-11-06 05:32:00,60.2,56.6,29.97,SSE,150,0.0,0.0,88,0.00,,SKC,0.01,VWS V14.01,2013-11-06 11:32:00,
2013-11-06 05:33:00,60.2,56.6,29.97,SSE,150,0.0,0.0,88,0.00,,SKC,0.01,VWS V14.01,2013-11-06 11:33:00,
2013-11-06 05:34:00,60.3,56.7,29.97,SSE,149,1.0,2.0,88,0.00,,SKC,0.01,VWS V14.01,2013-11-06 11:34:00,
2013-11-06 05:35:00,60.3,56.7,29.97,SSE,150,0.0,1.0,88,0.00,,SKC,0.01,VWS V14.01,2013-11-06 11:35:00,
2013-11-06 05:36:00,60.4,56.8,29.97,SSE,150,0.0,1.0,88,0.00,,SKC,0.01,VWS V14.01,2013-11-06 11:36:00,
2013-11-06 05:37:00,60.4,56.8,29.97,SSE,150,0.0,0.0,88,0.00,,SKC,0.01,VWS V14.01,2013-11-06 11:37:00,
2013-11-06 05:38:00,60.5,56.9,29.97,SSE,150,0.0,1.0,88,0.00,,SKC,0.01,VWS V14.01,2013-11-06 11:38:00,
2013-11-06 05:39:00,60.5,56.9,29.97,SSE,150,0.0,1.0,88,0.00,,SKC,0.01,VWS V14.01,2013-11-06 11:39:00,
2013-11-06 05:40:00,60.6,57.0,29.97,SSE,149,0.0,1.0,88,0.00,,SKC,0.01,VWS V14.01,2013-11-06 11:40:00,
2013-11-06 05:41:00,60.7,57.1,29.97,SSE,149,0.0,0.0,88,0.00,,SKC,0.01,VWS V14.01,2013-11-06 11:41:00,
2013-11-06 05:42:00,60.6,57.0,29.97,SSE,150,0.0,0.0,88,0.00,,SKC,0.01,VWS V14.01,2013-11-06 11:42:00,
2013-11-06 05:43:00,60.7,57.1,29.97,SSE,150,0.0,0.0,88,0.00,,SKC,0.01,VWS V14.01,2013-11-06 11:43:00,
2013-11-06 05:44:00,60.7,57.1,29.97,SSE,150,0.0,0.0,88,0.00,,SKC,0.01,VWS V14.01,2013-11-06 11:44:00,
2013-11-06 05:45:00,60.7,57.1,29.97,SSE,150,0.0,0.0,88,0.00,,SKC,0.01,VWS V14.01,2013-11-06 11:45:00,
2013-11-06 05:46:00,60.7,57.1,29.97,SSE,150,0.0,0.0,88,0.00,,SKC,0.01,VWS V14.01,2013-11-06 11:46:00,
2013-11-06 05:47:00,60.7,57.1,29.97,SSE,149,0.0,0.0,88,0.00,,SKC,0.01,VWS V14.01,2013-11-06 11:47:00,
2013-11-06 05:48:00,60.8,57.2,29.97,SSE,149,0.0,0.0,88,0.00,,SKC,0.01,VWS V14.01,2013-11-06 11:48:00,
2013-11-06 05:49:00,60.8,57.2,29.98,SSE,150,0.0,0.0,88,0.00,,SKC,0.01,VWS V14.01,2013-11-06 11:49:00,
2013-11-06 05:50:00,60.9,57.3,29.98,SSE,149,0.0,0.0,88,0.00,,SKC,0.01,VWS V14.01,2013-11-06 11:50:00,
2013-11-06 05:51:00,60.9,57.3,29.98,SSE,150,0.0,0.0,88,0.00,,SKC,0.01,VWS V14.01,2013-11-06 11:51:00,
2013-11-06 05:52:00,60.9,57.3,29.98,SSE,150,0.0,0.0,88,0.00,,SKC,0.01,VWS V14.01,2013-11-06 11:52:00,
2013-11-06 05:53:00,60.9,57.3,29.98,SSE,150,0.0,0.0,88,0.00,,SKC,0.01,VWS V14.01,2013-11-06 11:53:00,
2013-11-06 05:54:00,60.9,57.3,29.98,SSE,149,0.0,0.0,88,0.00,,SKC,0.01,VWS V14.01,2013-11-06 11:54:00,
2013-11-06 05:55:00,60.9,57.3,29.98,SSE,149,0.0,0.0,88,0.00,,SKC,0.01,VWS V14.01,2013-11-06 11:55:00,
2013-11-06 05:56:00,61.0,57.4,29.98,SSE,149,0.0,0.0,88,0.00,,SKC,0.01,VWS V14.01,2013-11-06 11:56:00,
2013-11-06 05:57:00,60.9,57.3,29.98,SSE,150,0.0,0.0,88,0.00,,SKC,0.01,VWS V14.01,2013-11-06 11:57:00,
2013-11-06 05:58:00,61.0,57.4,29.98,SSE,150,0.0,0.0,88,0.00,,SKC,0.01,VWS V14.01,2013-11-06 11:58:00,
2013-11-06 05:59:00,61.0,57.4,29.98,SSE,150,0.0,0.0,88,0.00,,SKC,0.01,VWS V14.01,2013-11-06 11:59:00,
2013-11-06 06:00:00,61.0,57.4,29.98,SSE,150,0.0,0.0,88,0.00,,SKC,0.01,VWS V14.01,2013-11-06 12:00:00,
2013-11-06 06:01:00,61.0,57.4,29.98,SSE,149,0.0,0.0,88,0.00,,SKC,0.01,VWS V14.01,2013-11-06 12:01:00,
2013-11-06 06:02:00,61.0,57.4,29.98,SSE,149,0.0,0.0,88,0.00,,SKC,0.01,VWS V14.01,2013-11-06 12:02:00,
2013-11-06 06:03:00,61.0,57.4,29.98,SSE,149,0.0,0.0,88,0.00,,SKC,0.01,VWS V14.01,2013-11-06 12:03:00,
2013-11-06 06:04:00,61.1,57.5,29.98,SSE,150,1.0,1.0,88,0.00,,SKC,0.01,VWS V14.01,2013-11-06 12:04:00,
2013-11-06 06:05:00,61.1,57.5,29.98,SSE,150,0.0,2.0,88,0.00,,SKC,0.01,VWS V14.01,2013-11-06 12:05:00,
2013-11-06 06:06:00,61.1,57.5,29.98,SSE,150,0.0,1.0,88,0.00,,SKC,0.01,VWS V14.01,2013-11-06 12:06:00,
2013-11-06 06:07:00,61.1,57.5,29.98,SSE,149,0.0,1.0,88,0.00,,SKC,0.01,VWS V14.01,2013-11-06 12:07:00,
2013-11-06 06:08:00,61.2,57.6,29.98,SSE,149,0.0,1.0,88,0.00,,SKC,0.01,VWS V14.01,2013-11-06 12:08:00,
2013-11-06 06:09:00,61.2,57.6,29.98,SSE,149,0.0,1.0,88,0.00,,SKC,0.01,VWS V14.01,2013-11-06 12:09:00,
2013-11-06 06:10:00,61.2,57.6,29.98,SSE,150,0.0,0.0,88,0.00,,SKC,0.01,VWS V14.01,2013-11-06 12:10:00,
2013-11-06 06:11:00,61.2,57.6,29.98,SSE,150,0.0,0.0,88,0.00,,SKC,0.01,VWS V14.01,2013-11-06 12:11:00,
2013-11-06 06:12:00,61.2,57.6,29.98,SSE,150,0.0,0.0,88,0.00,,SKC,0.01,VWS V14.01,2013-11-06 12:12:00,
2013-11-06 06:13:00,61.3,57.7,29.98,SSE,150,0.0,1.0,88,0.00,,SKC,0.01,VWS V14.01,2013-11-06 12:13:00,
2013-11-06 06:14:00,61.3,57.7,29.98,SSE,150,0.0,2.0,88,0.00,,SKC,0.01,VWS V14.01,2013-11-06 12:14:00,
2013-11-06 06:15:00,61.4,57.8,29.98,SSE,149,0.0,1.0,88,0.00,,SKC,0.01,VWS V14.01,2013-11-06 12:15:00,
2013-11-06 06:16:00,61.4,57.8,29.98,SSE,149,1.0,1.0,88,0.00,,SKC,0.01,VWS V14.01,2013-11-06 12:16:00,
2013-11-06 06:17:00,61.4,57.8,29.98,SSE,150,0.0,0.0,88,0.00,,SKC,0.01,VWS V14.01,2013-11-06 12:17:00,
2013-11-06 06:18:00,61.4,57.8,29.98,SSE,150,0.0,2.0,88,0.00,,SKC,0.01,VWS V14.01,2013-11-06 12:18:00,
2013-11-06 06:19:00,61.5,57.9,29.98,SSE,150,1.0,2.0,88,0.00,,SKC,0.01,VWS V14.01,2013-11-06 12:19:00,
2013-11-06 06:20:00,61.5,57.9,29.98,SSE,150,0.0,3.0,88,0.00,,SKC,0.01,VWS V14.01,2013-11-06 12:20:00,
2013-11-06 06:21:00,61.5,57.9,29.98,SSE,150,0.0,1.0,88,0.00,,SKC,0.01,VWS V14.01,2013-11-06 12:21:00,
2013-11-06 06:22:00,61.5,57.9,29.98,SSE,150,0.0,1.0,88,0.00,,SKC,0.01,VWS V14.01,2013-11-06 12:22:00,
2013-11-06 06:23:00,61.6,58.0,29.98,SSE,150,1.0,1.0,88,0.00,,SKC,0.01,VWS V14.01,2013-11-06 12:23:00,
2013-11-06 06:24:00,61.6,58.0,29.98,SSE,150,0.0,1.0,88,0.00,,SKC,0.01,VWS V14.01,2013-11-06 12:24:00,
2013-11-06 06:25:00,61.6,58.0,29.98,SSE,150,1.0,2.0,88,0.00,,SKC,0.01,VWS V14.01,2013-11-06 12:25:00,
2013-11-06 06:26:00,61.6,58.0,29.98,SSE,150,0.0,2.0,88,0.00,,SKC,0.01,VWS V14.01,2013-11-06 12:26:00,
2013-11-06 06:27:00,61.6,58.0,29.98,SSE,149,0.0,2.0,88,0.00,,SKC,0.01,VWS V14.01,2013-11-06 12:27:00,
2013-11-06 06:28:00,61.6,58.0,29.98,SSE,150,0.0,0.0,88,0.00,,SKC,0.01,VWS V14.01,2013-11-06 12:28:00,
2013-11-06 06:29:00,61.5,57.9,29.98,SSE,149,0.0,1.0,88,0.00,,SKC,0.01,VWS V14.01,2013-11-06 12:29:00,
2013-11-06 06:30:00,61.5,57.9,29.98,SSE,150,0.0,1.0,88,0.00,,SKC,0.01,VWS V14.01,2013-11-06 12:30:00,
2013-11-06 06:31:00,61.4,57.8,29.99,SSE,149,0.0,0.0,88,0.00,,SKC,0.01,VWS V14.01,2013-11-06 12:31:00,
2013-11-06 06:32:00,61.4,57.8,29.99,SSE,150,0.0,0.0,88,0.00,,SKC,0.01,VWS V14.01,2013-11-06 12:32:00,
2013-11-06 06:33:00,61.4,57.8,29.98,SSE,150,0.0,0.0,88,0.00,,SKC,0.01,VWS V14.01,2013-11-06 12:33:00,
2013-11-06 06:34:00,61.3,57.7,29.98,SSE,150,0.0,0.0,88,0.00,,SKC,0.01,VWS V14.01,2013-11-06 12:34:00,
2013-11-06 06:35:00,61.3,57.7,29.98,SSE,149,0.0,0.0,88,0.00,,SKC,0.01,VWS V14.01,2013-11-06 12:35:00,
2013-11-06 06:36:00,61.3,57.7,29.99,SSE,149,0.0,0.0,88,0.00,,SKC,0.01,VWS V14.01,2013-11-06 12:36:00,
2013-11-06 06:37:00,61.3,57.7,29.99,SSE,150,0.0,0.0,88,0.00,,SKC,0.01,VWS V14.01,2013-11-06 12:37:00,
2013-11-06 06:38:00,61.2,57.6,29.99,SSE,149,0.0,0.0,88,0.00,,SKC,0.01,VWS V14.01,2013-11-06 12:38:00,
2013-11-06 06:39:00,61.2,57.6,29.99,SSE,150,0.0,0.0,88,0.00,,SKC,0.01,VWS V14.01,2013-11-06 12:39:00,
2013-11-06 06:40:00,61.2,57.6,29.99,SSE,150,0.0,0.0,88,0.00,,SKC,0.01,VWS V14.01,2013-11-06 12:40:00,
2013-11-06 06:41:00,61.2,57.6,29.99,SSE,150,0.0,0.0,88,0.00,,SKC,0.01,VWS V14.01,2013-11-06 12:41:00,
2013-11-06 06:42:00,61.2,57.6,29.99,SSE,149,0.0,0.0,88,0.00,,SKC,0.01,VWS V14.01,2013-11-06 12:42:00,
2013-11-06 06:43:00,61.1,57.5,29.99,SSE,149,0.0,0.0,88,0.00,,SKC,0.01,VWS V14.01,2013-11-06 12:43:00,
2013-11-06 06:44:00,61.1,57.5,29.99,SSE,149,0.0,0.0,88,0.00,,SKC,0.01,VWS V14.01,2013-11-06 12:44:00,
2013-11-06 06:45:00,61.1,57.5,29.99,SSE,150,0.0,0.0,88,0.00,,SKC,0.01,VWS V14.01,2013-11-06 12:45:00,
2013-11-06 06:46:00,61.1,57.5,29.99,SSE,150,0.0,0.0,88,0.00,,SKC,0.01,VWS V14.01,2013-11-06 12:46:00,
2013-11-06 06:47:00,61.0,57.4,29.99,SSE,150,0.0,0.0,88,0.00,,SKC,0.01,VWS V14.01,2013-11-06 12:47:00,
2013-11-06 06:48:00,61.0,57.4,29.99,SSE,150,0.0,0.0,88,0.00,,SKC,0.01,VWS V14.01,2013-11-06 12:48:00,
2013-11-06 06:49:00,60.9,57.3,29.99,SSE,149,0.0,0.0,88,0.00,,SKC,0.01,VWS V14.01,2013-11-06 12:49:00,
2013-11-06 06:50:00,61.0,57.4,30.00,SSE,149,0.0,0.0,88,0.00,,SKC,0.01,VWS V14.01,2013-11-06 12:50:00,
2013-11-06 06:51:00,60.9,57.3,30.00,SSE,150,0.0,0.0,88,0.00,,SKC,0.01,VWS V14.01,2013-11-06 12:51:00,
2013-11-06 06:52:00,61.0,57.4,30.00,SSE,150,0.0,0.0,88,0.00,,SKC,0.01,VWS V14.01,2013-11-06 12:52:00,
2013-11-06 06:53:00,61.0,57.4,30.00,SSE,150,0.0,0.0,88,0.00,,SKC,0.01,VWS V14.01,2013-11-06 12:53:00,
2013-11-06 06:54:00,61.0,57.4,30.00,SSE,150,0.0,0.0,88,0.00,,SKC,0.01,VWS V14.01,2013-11-06 12:54:00,
2013-11-06 06:55:00,60.9,57.3,30.00,SSE,150,0.0,0.0,88,0.00,,SKC,0.01,VWS V14.01,2013-11-06 12:55:00,
2013-11-06 06:56:00,60.9,57.3,30.00,SSE,149,0.0,0.0,88,0.00,,SKC,0.01,VWS V14.01,2013-11-06 12:56:00,
2013-11-06 06:57:00,60.9,57.3,30.00,SSE,150,0.0,0.0,88,0.00,,SKC,0.01,VWS V14.01,2013-11-06 12:57:00,
2013-11-06 06:58:00,60.9,57.3,30.00,SSE,150,0.0,0.0,88,0.00,,SKC,0.01,VWS V14.01,2013-11-06 12:58:00,
2013-11-06 06:59:00,60.9,57.3,30.00,SSE,150,0.0,0.0,88,0.00,,SKC,0.01,VWS V14.01,2013-11-06 12:59:00,
2013-11-06 07:00:00,60.9,57.3,30.00,SSE,150,0.0,0.0,88,0.00,,SKC,0.01,VWS V14.01,2013-11-06 13:00:00,
2013-11-06 07:01:00,60.9,57.3,30.00,SSE,150,0.0,0.0,88,0.00,,SKC,0.01,VWS V14.01,2013-11-06 13:01:00,
2013-11-06 07:02:00,60.9,57.3,30.00,SSE,149,0.0,0.0,88,0.00,,SKC,0.01,VWS V14.01,2013-11-06 13:02:00,
2013-11-06 07:03:00,61.0,57.4,30.00,SSE,149,0.0,0.0,88,0.00,,SKC,0.01,VWS V14.01,2013-11-06 13:03:00,
2013-11-06 07:04:00,61.0,57.4,30.00,SSE,149,0.0,0.0,88,0.00,,SKC,0.01,VWS V14.01,2013-11-06 13:04:00,
2013-11-06 07:05:00,61.0,57.4,30.00,SSE,150,0.0,0.0,88,0.00,,SKC,0.01,VWS V14.01,2013-11-06 13:05:00,
2013-11-06 07:06:00,61.0,57.4,30.00,SSE,150,0.0,0.0,88,0.00,,SKC,0.01,VWS V14.01,2013-11-06 13:06:00,
2013-11-06 07:07:00,61.0,57.4,30.00,SSE,150,0.0,0.0,88,0.00,,SKC,0.01,VWS V14.01,2013-11-06 13:07:00,
2013-11-06 07:08:00,61.1,57.5,30.00,SSE,150,0.0,0.0,88,0.00,,SKC,0.01,VWS V14.01,2013-11-06 13:08:00,
2013-11-06 07:09:00,61.1,57.5,30.00,SSE,149,0.0,0.0,88,0.00,,SKC,0.01,VWS V14.01,2013-11-06 13:09:00,
2013-11-06 07:10:00,61.1,57.5,30.00,SSE,150,0.0,0.0,88,0.00,,SKC,0.01,VWS V14.01,2013-11-06 13:10:00,
2013-11-06 07:11:00,61.1,57.5,30.00,SSE,150,0.0,0.0,88,0.00,,SKC,0.01,VWS V14.01,2013-11-06 13:11:00,
2013-11-06 07:12:00,61.1,57.5,30.00,SSE,150,0.0,0.0,88,0.00,,SKC,0.01,VWS V14.01,2013-11-06 13:12:00,
2013-11-06 07:13:00,61.2,57.6,30.00,SSE,150,0.0,0.0,88,0.00,,SKC,0.01,VWS V14.01,2013-11-06 13:13:00,
2013-11-06 07:14:00,61.2,57.6,30.01,SSE,150,0.0,0.0,88,0.00,,SKC,0.01,VWS V14.01,2013-11-06 13:14:00,
2013-11-06 07:15:00,61.1,57.5,30.01,SSE,150,0.0,0.0,88,0.00,,SKC,0.01,VWS V14.01,2013-11-06 13:15:00,
2013-11-06 07:16:00,61.1,57.5,30.01,SSE,150,0.0,0.0,88,0.00,,SKC,0.01,VWS V14.01,2013-11-06 13:16:00,
2013-11-06 07:17:00,61.1,57.5,30.01,SSE,149,0.0,0.0,88,0.00,,SKC,0.01,VWS V14.01,2013-11-06 13:17:00,
2013-11-06 07:18:00,61.3,57.7,30.02,SSE,149,0.0,0.0,88,0.00,,SKC,0.01,VWS V14.01,2013-11-06 13:18:00,
2013-11-06 07:19:00,61.3,57.7,30.02,SSE,149,0.0,0.0,88,0.00,,SKC,0.01,VWS V14.01,2013-11-06 13:19:00,
2013-11-06 07:20:00,61.4,57.8,30.02,SSE,150,0.0,0.0,88,0.00,,SKC,0.01,VWS V14.01,2013-11-06 13:20:00,
2013-11-06 07:21:00,61.6,58.0,30.02,SSE,150,0.0,0.0,88,0.00,,SKC,0.01,VWS V14.01,2013-11-06 13:21:00,
2013-11-06 07:22:00,61.5,57.9,30.02,SSE,150,0.0,0.0,88,0.00,,SKC,0.01,VWS V14.01,2013-11-06 13:22:00,
2013-11-06 07:23:00,61.6,58.0,30.02,SSE,149,0.0,0.0,88,0.00,,SKC,0.01,VWS V14.01,2013-11-06 13:23:00,
2013-11-06 07:24:00,61.7,58.1,30.02,SSE,149,0.0,0.0,88,0.00,,SKC,0.01,VWS V14.01,2013-11-06 13:24:00,
2013-11-06 07:25:00,61.6,58.0,30.02,SSE,149,0.0,0.0,88,0.00,,SKC,0.01,VWS V14.01,2013-11-06 13:25:00,
2013-11-06 07:26:00,61.6,58.0,30.02,SSE,150,0.0,0.0,88,0.00,,SKC,0.01,VWS V14.01,2013-11-06 13:26:00,
2013-11-06 07:27:00,61.6,58.0,30.02,SSE,150,0.0,0.0,88,0.00,,SKC,0.01,VWS V14.01,2013-11-06 13:27:00,
2013-11-06 07:28:00,61.5,57.9,30.02,SSE,150,0.0,0.0,88,0.00,,SKC,0.01,VWS V14.01,2013-11-06 13:28:00,
2013-11-06 07:29:00,61.5,57.9,30.02,SSE,150,0.0,1.0,88,0.00,,SKC,0.01,VWS V14.01,2013-11-06 13:29:00,
2013-11-06 07:30:00,61.5,57.9,30.02,SSE,149,0.0,1.0,88,0.00,,SKC,0.01,VWS V14.01,2013-11-06 13:30:00,
2013-11-06 07:31:00,61.7,58.1,30.02,SSE,149,0.0,1.0,88,0.00,,SKC,0.01,VWS V14.01,2013-11-06 13:31:00,
2013-11-06 07:32:00,61.6,58.0,30.02,SSE,150,1.0,1.0,88,0.00,,SKC,0.01,VWS V14.01,2013-11-06 13:32:00,
2013-11-06 07:33:00,62.1,58.5,30.02,SSE,150,0.0,2.0,88,0.00,,SKC,0.01,VWS V14.01,2013-11-06 13:33:00,
2013-11-06 07:34:00,62.3,58.7,30.02,SSE,150,2.0,3.0,88,0.00,,SKC,0.01,VWS V14.01,2013-11-06 13:34:00,
2013-11-06 07:35:00,62.5,58.9,30.02,SSE,150,0.0,3.0,88,0.00,,SKC,0.01,VWS V14.01,2013-11-06 13:35:00,
2013-11-06 07:36:00,62.7,59.1,30.02,SSE,150,2.0,3.0,88,0.00,,SKC,0.01,VWS V14.01,2013-11-06 13:36:00,
2013-11-06 07:37:00,62.6,59.0,30.02,SSE,150,2.0,3.0,88,0.00,,SKC,0.01,VWS V14.01,2013-11-06 13:37:00,
2013-11-06 07:38:00,62.9,59.3,30.03,SSE,149,1.0,3.0,88,0.00,,SKC,0.01,VWS V14.01,2013-11-06 13:38:00,
2013-11-06 07:39:00,62.9,59.3,30.03,SSE,150,0.0,2.0,88,0.00,,SKC,0.01,VWS V14.01,2013-11-06 13:39:00,
2013-11-06 07:40:00,62.9,59.3,30.03,SSE,150,1.0,3.0,88,0.00,,SKC,0.01,VWS V14.01,2013-11-06 13:40:00,
2013-11-06 07:41:00,63.0,59.4,30.03,SSE,150,1.0,2.0,88,0.00,,SKC,0.01,VWS V14.01,2013-11-06 13:41:00,
2013-11-06 07:42:00,62.9,59.3,30.03,SSE,150,0.0,1.0,88,0.00,,SKC,0.01,VWS V14.01,2013-11-06 13:42:00,
2013-11-06 07:43:00,63.0,59.4,30.04,NNW,342,5.0,5.0,88,0.00,,SKC,0.01,VWS V14.01,2013-11-06 13:43:00,
2013-11-06 07:44:00,62.7,59.1,30.05,NNW,346,6.0,15.0,88,0.00,,SKC,0.01,VWS V14.01,2013-11-06 13:44:00,
2013-11-06 07:45:00,61.7,58.1,30.05,North,360,5.0,11.0,88,0.00,,SKC,0.01,VWS V14.01,2013-11-06 13:45:00,
2013-11-06 07:46:00,60.8,57.2,30.05,NNE,15,12.0,17.0,88,0.00,,SKC,0.01,VWS V14.01,2013-11-06 13:46:00,
2013-11-06 07:47:00,61.3,57.7,30.05,North,11,14.0,14.0,88,0.00,,SKC,0.01,VWS V14.01,2013-11-06 13:47:00,
2013-11-06 07:48:00,59.0,55.8,30.05,NNW,340,9.0,18.0,89,0.00,,SKC,0.01,VWS V14.01,2013-11-06 13:48:00,
2013-11-06 07:49:00,58.5,55.3,30.05,North,360,9.0,13.0,89,0.00,,SKC,0.01,VWS V14.01,2013-11-06 13:49:00,
2013-11-06 07:50:00,57.8,54.6,30.06,NNW,348,9.0,13.0,89,0.00,,SKC,0.01,VWS V14.01,2013-11-06 13:50:00,
2013-11-06 07:51:00,57.3,54.1,30.06,North,355,6.0,10.0,89,0.00,,SKC,0.01,VWS V14.01,2013-11-06 13:51:00,
2013-11-06 07:52:00,57.6,54.4,30.06,North,355,10.0,10.0,89,0.00,,SKC,0.01,VWS V14.01,2013-11-06 13:52:00,
2013-11-06 07:53:00,56.6,53.4,30.05,NNW,340,5.0,16.0,89,0.00,,SKC,0.01,VWS V14.01,2013-11-06 13:53:00,
2013-11-06 07:54:00,56.3,53.4,30.05,North,10,15.0,15.0,90,0.00,,SKC,0.01,VWS V14.01,2013-11-06 13:54:00,
2013-11-06 07:55:00,56.0,52.8,30.05,NNW,344,6.0,15.0,89,0.00,,SKC,0.01,VWS V14.01,2013-11-06 13:55:00,
2013-11-06 07:56:00,55.7,52.5,30.06,NNW,343,14.0,18.0,89,0.00,,SKC,0.01,VWS V14.01,2013-11-06 13:56:00,
2013-11-06 07:57:00,55.9,52.7,30.06,North,360,10.0,16.0,89,0.00,,SKC,0.01,VWS V14.01,2013-11-06 13:57:00,
2013-11-06 07:58:00,55.3,52.1,30.06,North,360,6.0,16.0,89,0.00,,SKC,0.01,VWS V14.01,2013-11-06 13:58:00,
2013-11-06 07:59:00,55.1,52.2,30.06,North,10,12.0,14.0,90,0.00,,SKC,0.01,VWS V14.01,2013-11-06 13:59:00,
2013-11-06 08:00:00,55.0,52.1,30.07,North,360,6.0,16.0,90,0.00,,SKC,0.01,VWS V14.01,2013-11-06 14:00:00,
2013-11-06 08:01:00,54.8,51.9,30.07,North,5,15.0,15.0,90,0.00,,SKC,0.01,VWS V14.01,2013-11-06 14:01:00,
2013-11-06 08:02:00,54.9,52.0,30.07,NW,323,7.0,11.0,90,0.00,,SKC,0.01,VWS V14.01,2013-11-06 14:02:00,
2013-11-06 08:03:00,54.5,51.3,30.08,North,360,12.0,17.0,89,0.01,,SKC,0.02,VWS V14.01,2013-11-06 14:03:00,
2013-11-06 08:04:00,54.4,51.2,30.08,NW,314,10.0,15.0,89,0.01,,SKC,0.02,VWS V14.01,2013-11-06 14:04:00,
2013-11-06 08:05:00,54.3,51.1,30.08,NNW,331,7.0,17.0,89,0.01,,SKC,0.02,VWS V14.01,2013-11-06 14:05:00,
2013-11-06 08:06:00,54.2,51.3,30.08,NNW,334,3.0,18.0,90,0.01,,SKC,0.02,VWS V14.01,2013-11-06 14:06:00,
2013-11-06 08:07:00,54.3,51.1,30.08,NNW,333,18.0,18.0,89,0.01,,SKC,0.02,VWS V14.01,2013-11-06 14:07:00,
2013-11-06 08:08:00,54.0,50.8,30.08,NNW,342,10.0,24.0,89,0.01,,SKC,0.02,VWS V14.01,2013-11-06 14:08:00,
2013-11-06 08:09:00,53.8,50.6,30.08,NNW,329,15.0,19.0,89,0.01,,SKC,0.02,VWS V14.01,2013-11-06 14:09:00,
2013-11-06 08:10:00,53.6,50.4,30.08,NNW,341,7.0,15.0,89,0.01,,SKC,0.02,VWS V14.01,2013-11-06 14:10:00,
2013-11-06 08:11:00,53.5,50.7,30.08,NNE,18,15.0,16.0,90,0.01,,SKC,0.02,VWS V14.01,2013-11-06 14:11:00,
2013-11-06 08:12:00,53.6,50.7,30.08,NNE,15,10.0,12.0,90,0.01,,SKC,0.02,VWS V14.01,2013-11-06 14:12:00,
2013-11-06 08:13:00,53.4,50.5,30.08,NNW,338,14.0,14.0,90,0.01,,SKC,0.02,VWS V14.01,2013-11-06 14:13:00,
2013-11-06 08:14:00,53.3,50.2,30.09,NW,325,7.0,15.0,89,0.01,,SKC,0.02,VWS V14.01,2013-11-06 14:14:00,
2013-11-06 08:15:00,53.3,50.2,30.08,North,360,5.0,16.0,89,0.01,,SKC,0.02,VWS V14.01,2013-11-06 14:15:00,
2013-11-06 08:16:00,53.2,50.0,30.08,North,5,10.0,14.0,89,0.01,,SKC,0.02,VWS V14.01,2013-11-06 14:16:00,
2013-11-06 08:17:00,53.2,50.0,30.08,North,355,7.0,14.0,89,0.01,,SKC,0.02,VWS V14.01,2013-11-06 14:17:00,
2013-11-06 08:18:00,53.1,50.0,30.09,NNE,26,10.0,11.0,89,0.01,,SKC,0.02,VWS V14.01,2013-11-06 14:18:00,
2013-11-06 08:19:00,53.1,50.0,30.09,North,10,5.0,15.0,89,0.02,,SKC,0.03,VWS V14.01,2013-11-06 14:19:00,
2013-11-06 08:20:00,53.1,50.0,30.09,North,360,15.0,16.0,89,0.02,,SKC,0.03,VWS V14.01,2013-11-06 14:20:00,
2013-11-06 08:21:00,53.1,50.0,30.09,NW,323,6.0,15.0,89,0.02,,SKC,0.03,VWS V14.01,2013-11-06 14:21:00,
2013-11-06 08:22:00,53.0,49.8,30.09,North,355,7.0,15.0,89,0.02,,SKC,0.03,VWS V14.01,2013-11-06 14:22:00,
2013-11-06 08:23:00,53.0,49.8,30.09,NNW,348,9.0,9.0,89,0.02,,SKC,0.03,VWS V14.01,2013-11-06 14:23:00,
2013-11-06 08:24:00,53.0,49.8,30.09,NNW,333,7.0,15.0,89,0.02,,SKC,0.03,VWS V14.01,2013-11-06 14:24:00,
2013-11-06 08:25:00,52.9,49.8,30.09,NW,325,5.0,12.0,89,0.02,,SKC,0.03,VWS V14.01,2013-11-06 14:25:00,
2013-11-06 08:26:00,52.8,49.7,30.09,NNW,330,7.0,15.0,89,0.02,,SKC,0.03,VWS V14.01,2013-11-06 14:26:00,
2013-11-06 08:27:00,52.9,49.8,30.09,North,350,3.0,5.0,89,0.02,,SKC,0.03,VWS V14.01,2013-11-06 14:27:00,
2013-11-06 08:28:00,52.6,49.5,30.10,NNW,339,2.0,12.0,89,0.02,,SKC,0.03,VWS V14.01,2013-11-06 14:28:00,
2013-11-06 08:29:00,52.4,49.3,30.10,North,5,11.0,16.0,89,0.02,,SKC,0.03,VWS V14.01,2013-11-06 14:29:00,
2013-11-06 08:30:00,52.3,49.2,30.10,NW,306,10.0,15.0,89,0.02,,SKC,0.03,VWS V14.01,2013-11-06 14:30:00,
2013-11-06 08:31:00,52.1,49.0,30.10,NW,308,6.0,17.0,89,0.02,,SKC,0.03,VWS V14.01,2013-11-06 14:31:00,
2013-11-06 08:32:00,52.2,49.1,30.10,NNW,332,5.0,10.0,89,0.02,,SKC,0.03,VWS V14.01,2013-11-06 14:32:00,
2013-11-06 08:33:00,51.7,48.6,30.10,NNE,22,17.0,17.0,89,0.02,,SKC,0.03,VWS V14.01,2013-11-06 14:33:00,
2013-11-06 08:34:00,51.5,48.7,30.10,North,350,5.0,17.0,90,0.02,,SKC,0.03,VWS V14.01,2013-11-06 14:34:00,
2013-11-06 08:35:00,51.4,48.6,30.10,NW,306,19.0,19.0,90,0.02,,SKC,0.03,VWS V14.01,2013-11-06 14:35:00,
2013-11-06 08:36:00,51.3,48.2,30.10,North,5,12.0,19.0,89,0.02,,SKC,0.03,VWS V14.01,2013-11-06 14:36:00,
2013-11-06 08:37:00,51.4,48.6,30.10,NW,319,10.0,19.0,90,0.02,,SKC,0.03,VWS V14.01,2013-11-06 14:37:00,
2013-11-06 08:38:00,51.0,47.9,30.10,NNW,348,12.0,12.0,89,0.02,,SKC,0.03,VWS V14.01,2013-11-06 14:38:00,
2013-11-06 08:39:00,50.9,47.8,30.10,North,349,15.0,17.0,89,0.02,,SKC,0.03,VWS V14.01,2013-11-06 14:39:00,
2013-11-06 08:40:00,50.9,48.1,30.10,NNE,21,9.0,15.0,90,0.02,,SKC,0.03,VWS V14.01,2013-11-06 14:40:00,
2013-11-06 08:41:00,50.8,48.0,30.10,ENE,72,5.0,16.0,90,0.02,,SKC,0.03,VWS V14.01,2013-11-06 14:41:00,
2013-11-06 08:42:00,50.8,48.0,30.10,North,360,9.0,13.0,90,0.02,,SKC,0.03,VWS V14.01,2013-11-06 14:42:00,
2013-11-06 08:43:00,50.7,47.9,30.10,North,350,7.0,17.0,90,0.02,,SKC,0.03,VWS V14.01,2013-11-06 14:43:00,
2013-11-06 08:44:00,50.7,47.9,30.10,North,355,7.0,13.0,90,0.02,,SKC,0.03,VWS V14.01,2013-11-06 14:44:00,
2013-11-06 08:45:00,50.7,47.9,30.10,NNE,20,9.0,12.0,90,0.02,,SKC,0.03,VWS V14.01,2013-11-06 14:45:00,
2013-11-06 08:46:00,50.7,47.9,30.10,North,10,5.0,12.0,90,0.02,,SKC,0.03,VWS V14.01,2013-11-06 14:46:00,
2013-11-06 08:47:00,50.7,47.9,30.10,NNE,13,9.0,12.0,90,0.02,,SKC,0.03,VWS V14.01,2013-11-06 14:47:00,
2013-11-06 08:48:00,50.8,47.7,30.10,NNW,336,9.0,17.0,89,0.02,,SKC,0.03,VWS V14.01,2013-11-06 14:48:00,
2013-11-06 08:49:00,50.8,47.7,30.11,North,9,6.0,13.0,89,0.02,,SKC,0.03,VWS V14.01,2013-11-06 14:49:00,
2013-11-06 08:50:00,50.8,47.7,30.10,NNE,15,14.0,15.0,89,0.02,,SKC,0.03,VWS V14.01,2013-11-06 14:50:00,
2013-11-06 08:51:00,50.8,47.7,30.10,North,355,7.0,15.0,89,0.02,,SKC,0.03,VWS V14.01,2013-11-06 14:51:00,
2013-11-06 08:52:00,50.8,47.7,30.10,NNW,343,10.0,15.0,89,0.02,,SKC,0.03,VWS V14.01,2013-11-06 14:52:00,
2013-11-06 08:53:00,50.9,47.8,30.10,North,360,10.0,14.0,89,0.02,,SKC,0.03,VWS V14.01,2013-11-06 14:53:00,
2013-11-06 08:54:00,50.9,47.8,30.10,NNW,339,4.0,11.0,89,0.02,,SKC,0.03,VWS V14.01,2013-11-06 14:54:00,
2013-11-06 08:55:00,50.9,47.8,30.10,North,5,13.0,14.0,89,0.02,,SKC,0.03,VWS V14.01,2013-11-06 14:55:00,
2013-11-06 08:56:00,51.0,47.9,30.10,NNE,30,12.0,15.0,89,0.02,,SKC,0.03,VWS V14.01,2013-11-06 14:56:00,
2013-11-06 08:57:00,51.0,47.9,30.10,North,360,11.0,13.0,89,0.02,,SKC,0.03,VWS V14.01,2013-11-06 14:57:00,
2013-11-06 08:58:00,51.0,47.9,30.10,NNW,346,18.0,20.0,89,0.02,,SKC,0.03,VWS V14.01,2013-11-06 14:58:00,
2013-11-06 08:59:00,51.0,47.9,30.10,NNE,15,11.0,20.0,89,0.02,,SKC,0.03,VWS V14.01,2013-11-06 14:59:00,
2013-11-06 09:00:00,51.0,47.9,30.10,NNE,22,14.0,15.0,89,0.02,,SKC,0.03,VWS V14.01,2013-11-06 15:00:00,
2013-11-06 09:01:00,50.9,47.8,30.10,North,355,15.0,23.0,89,0.02,,SKC,0.03,VWS V14.01,2013-11-06 15:01:00,
2013-11-06 09:02:00,50.9,47.8,30.10,NNE,15,9.0,23.0,89,0.02,,SKC,0.03,VWS V14.01,2013-11-06 15:02:00,
2013-11-06 09:03:00,50.9,47.8,30.10,NNE,14,11.0,16.0,89,0.02,,SKC,0.03,VWS V14.01,2013-11-06 15:03:00,
2013-11-06 09:04:00,50.9,47.8,30.10,North,355,14.0,17.0,89,0.01,,SKC,0.03,VWS V14.01,2013-11-06 15:04:00,
2013-11-06 09:05:00,51.0,47.9,30.11,North,5,13.0,16.0,89,0.01,,SKC,0.03,VWS V14.01,2013-11-06 15:05:00,
2013-11-06 09:06:00,51.0,47.9,30.10,North,355,14.0,17.0,89,0.01,,SKC,0.03,VWS V14.01,2013-11-06 15:06:00,
2013-11-06 09:07:00,51.0,47.9,30.10,North,360,12.0,17.0,89,0.01,,SKC,0.03,VWS V14.01,2013-11-06 15:07:00,
2013-11-06 09:08:00,50.9,47.8,30.11,NNE,13,10.0,15.0,89,0.01,,SKC,0.03,VWS V14.01,2013-11-06 15:08:00,
2013-11-06 09:09:00,50.9,47.8,30.11,North,351,13.0,17.0,89,0.01,,SKC,0.03,VWS V14.01,2013-11-06 15:09:00,
2013-11-06 09:10:00,50.9,47.8,30.11,NNE,12,14.0,14.0,89,0.01,,SKC,0.03,VWS V14.01,2013-11-06 15:10:00,
2013-11-06 09:11:00,50.8,47.7,30.11,North,11,6.0,15.0,89,0.01,,SKC,0.03,VWS V14.01,2013-11-06 15:11:00,
2013-11-06 09:12:00,50.8,47.7,30.11,NNW,334,10.0,15.0,89,0.01,,SKC,0.03,VWS V14.01,2013-11-06 15:12:00,
2013-11-06 09:13:00,50.8,47.7,30.11,North,360,9.0,14.0,89,0.01,,SKC,0.03,VWS V14.01,2013-11-06 15:13:00,
2013-11-06 09:14:00,50.8,47.7,30.11,North,360,11.0,17.0,89,0.01,,SKC,0.03,VWS V14.01,2013-11-06 15:14:00,
2013-11-06 09:15:00,50.8,47.7,30.11,North,11,6.0,11.0,89,0.01,,SKC,0.03,VWS V14.01,2013-11-06 15:15:00,
2013-11-06 09:16:00,50.8,47.7,30.11,North,5,6.0,14.0,89,0.01,,SKC,0.03,VWS V14.01,2013-11-06 15:16:00,
2013-11-06 09:17:00,50.8,47.7,30.11,NE,53,10.0,14.0,89,0.01,,SKC,0.03,VWS V14.01,2013-11-06 15:17:00,
2013-11-06 09:18:00,50.8,47.7,30.11,NNW,340,5.0,14.0,89,0.01,,SKC,0.03,VWS V14.01,2013-11-06 15:18:00,
2013-11-06 09:19:00,50.8,47.7,30.11,NNW,344,10.0,14.0,89,0.01,,SKC,0.03,VWS V14.01,2013-11-06 15:19:00,
2013-11-06 09:20:00,50.8,47.7,30.12,North,351,9.0,15.0,89,0.00,,SKC,0.03,VWS V14.01,2013-11-06 15:20:00,
2013-11-06 09:21:00,50.8,47.7,30.12,North,360,10.0,14.0,89,0.00,,SKC,0.03,VWS V14.01,2013-11-06 15:21:00,
2013-11-06 09:22:00,50.7,47.6,30.12,NNW,333,5.0,11.0,89,0.00,,SKC,0.03,VWS V14.01,2013-11-06 15:22:00,
2013-11-06 09:23:00,50.8,47.7,30.12,North,355,13.0,14.0,89,0.00,,SKC,0.03,VWS V14.01,2013-11-06 15:23:00,
2013-11-06 09:24:00,50.8,47.7,30.12,NNE,15,7.0,7.0,89,0.00,,SKC,0.03,VWS V14.01,2013-11-06 15:24:00,
2013-11-06 09:25:00,50.8,47.7,30.12,NNW,337,4.0,17.0,89,0.00,,SKC,0.03,VWS V14.01,2013-11-06 15:25:00,
2013-11-06 09:26:00,50.8,47.7,30.12,NW,312,3.0,14.0,89,0.00,,SKC,0.03,VWS V14.01,2013-11-06 15:26:00,
2013-11-06 09:27:00,50.7,47.6,30.12,NNW,341,7.0,18.0,89,0.00,,SKC,0.03,VWS V14.01,2013-11-06 15:27:00,
2013-11-06 09:28:00,50.8,47.7,30.12,NNW,335,10.0,14.0,89,0.00,,SKC,0.03,VWS V14.01,2013-11-06 15:28:00,
2013-11-06 09:29:00,50.7,47.6,30.12,North,355,5.0,12.0,89,0.00,,SKC,0.03,VWS V14.01,2013-11-06 15:29:00,
2013-11-06 09:30:00,50.7,47.6,30.13,North,350,5.0,9.0,89,0.00,,SKC,0.03,VWS V14.01,2013-11-06 15:30:00,
2013-11-06 09:31:00,50.7,47.6,30.13,North,360,6.0,16.0,89,0.00,,SKC,0.03,VWS V14.01,2013-11-06 15:31:00,
2013-11-06 09:32:00,50.7,47.6,30.13,NNW,340,5.0,14.0,89,0.00,,SKC,0.03,VWS V14.01,2013-11-06 15:32:00,
2013-11-06 09:33:00,50.8,47.7,30.13,NNW,346,11.0,16.0,89,0.00,,SKC,0.03,VWS V14.01,2013-11-06 15:33:00,
2013-11-06 09:34:00,50.7,47.6,30.13,NNW,345,15.0,15.0,89,0.00,,SKC,0.03,VWS V14.01,2013-11-06 15:34:00,
2013-11-06 09:35:00,50.7,47.6,30.13,NW,317,10.0,15.0,89,0.00,,SKC,0.03,VWS V14.01,2013-11-06 15:35:00,
2013-11-06 09:36:00,50.6,47.5,30.13,North,360,7.0,12.0,89,0.00,,SKC,0.03,VWS V14.01,2013-11-06 15:36:00,
2013-11-06 09:37:00,50.6,47.5,30.13,NNW,336,5.0,11.0,89,0.00,,SKC,0.03,VWS V14.01,2013-11-06 15:37:00,
2013-11-06 09:38:00,50.6,47.5,30.13,NNW,338,6.0,12.0,89,0.00,,SKC,0.03,VWS V14.01,2013-11-06 15:38:00,
2013-11-06 09:39:00,50.5,47.4,30.13,NNE,24,10.0,14.0,89,0.00,,SKC,0.03,VWS V14.01,2013-11-06 15:39:00,
2013-11-06 09:40:00,50.5,47.4,30.13,NNE,13,10.0,13.0,89,0.00,,SKC,0.03,VWS V14.01,2013-11-06 15:40:00,
2013-11-06 09:41:00,50.5,47.4,30.13,NNW,337,3.0,12.0,89,0.00,,SKC,0.03,VWS V14.01,2013-11-06 15:41:00,
2013-11-06 09:42:00,50.5,47.4,30.14,North,5,9.0,18.0,89,0.00,,SKC,0.03,VWS V14.01,2013-11-06 15:42:00,
2013-11-06 09:43:00,50.5,47.4,30.13,NNW,344,12.0,12.0,89,0.00,,SKC,0.03,VWS V14.01,2013-11-06 15:43:00,
2013-11-06 09:44:00,50.5,47.4,30.14,NW,318,6.0,13.0,89,0.00,,SKC,0.03,VWS V14.01,2013-11-06 15:44:00,
2013-11-06 09:45:00,50.5,47.4,30.14,NNW,327,10.0,15.0,89,0.00,,SKC,0.03,VWS V14.01,2013-11-06 15:45:00,
2013-11-06 09:46:00,50.5,47.4,30.14,North,5,6.0,11.0,89,0.00,,SKC,0.03,VWS V14.01,2013-11-06 15:46:00,
2013-11-06 09:47:00,50.5,47.4,30.14,NNW,345,10.0,11.0,89,0.00,,SKC,0.03,VWS V14.01,2013-11-06 15:47:00,
2013-11-06 09:48:00,50.5,47.4,30.14,NNW,346,6.0,11.0,89,0.00,,SKC,0.03,VWS V14.01,2013-11-06 15:48:00,
2013-11-06 09:49:00,50.6,47.5,30.14,North,355,6.0,12.0,89,0.00,,SKC,0.03,VWS V14.01,2013-11-06 15:49:00,
2013-11-06 09:50:00,50.7,47.6,30.14,North,355,12.0,20.0,89,0.00,,SKC,0.03,VWS V14.01,2013-11-06 15:50:00,
2013-11-06 09:51:00,50.7,47.6,30.14,NNE,15,6.0,15.0,89,0.00,,SKC,0.03,VWS V14.01,2013-11-06 15:51:00,
2013-11-06 09:52:00,50.8,47.7,30.14,NNE,13,5.0,13.0,89,0.00,,SKC,0.03,VWS V14.01,2013-11-06 15:52:00,
2013-11-06 09:53:00,50.7,47.6,30.14,North,11,10.0,15.0,89,0.00,,SKC,0.03,VWS V14.01,2013-11-06 15:53:00,
2013-11-06 09:54:00,50.9,47.8,30.14,NNW,338,3.0,11.0,89,0.00,,SKC,0.03,VWS V14.01,2013-11-06 15:54:00,
2013-11-06 09:55:00,51.0,47.9,30.14,NNW,346,7.0,12.0,89,0.00,,SKC,0.03,VWS V14.01,2013-11-06 15:55:00,
2013-11-06 09:56:00,51.1,48.0,30.14,NW,306,7.0,10.0,89,0.00,,SKC,0.03,VWS V14.01,2013-11-06 15:56:00,
2013-11-06 09:57:00,51.2,48.1,30.14,WNW,298,4.0,10.0,89,0.00,,SKC,0.03,VWS V14.01,2013-11-06 15:57:00,
2013-11-06 09:58:00,51.1,48.0,30.14,NNW,331,5.0,8.0,89,0.00,,SKC,0.03,VWS V14.01,2013-11-06 15:58:00,
2013-11-06 09:59:00,51.2,48.1,30.14,NNW,342,12.0,14.0,89,0.00,,SKC,0.03,VWS V14.01,2013-11-06 15:59:00,
2013-11-06 10:00:00,51.1,48.0,30.14,NNW,341,5.0,12.0,89,0.00,,SKC,0.03,VWS V14.01,2013-11-06 16:00:00,
2013-11-06 10:01:00,51.2,48.1,30.15,North,355,3.0,5.0,89,0.00,,SKC,0.03,VWS V14.01,2013-11-06 16:01:00,
2013-11-06 10:02:00,51.2,48.1,30.15,NNE,15,6.0,11.0,89,0.00,,SKC,0.03,VWS V14.01,2013-11-06 16:02:00,
2013-11-06 10:03:00,51.1,48.0,30.15,NNW,346,2.0,5.0,89,0.00,,SKC,0.03,VWS V14.01,2013-11-06 16:03:00,
2013-11-06 10:04:00,51.2,48.1,30.15,North,5,4.0,13.0,89,0.00,,SKC,0.03,VWS V14.01,2013-11-06 16:04:00,
2013-11-06 10:05:00,51.2,48.1,30.15,North,9,4.0,13.0,89,0.00,,SKC,0.03,VWS V14.01,2013-11-06 16:05:00,
2013-11-06 10:06:00,51.2,48.1,30.15,North,5,7.0,16.0,89,0.00,,SKC,0.03,VWS V14.01,2013-11-06 16:06:00,
2013-11-06 10:07:00,51.2,48.1,30.15,North,355,6.0,12.0,89,0.00,,SKC,0.03,VWS V14.01,2013-11-06 16:07:00,
2013-11-06 10:08:00,51.2,48.1,30.15,NNW,340,7.0,16.0,89,0.00,,SKC,0.03,VWS V14.01,2013-11-06 16:08:00,
2013-11-06 10:09:00,51.2,48.1,30.15,NNW,331,10.0,13.0,89,0.00,,SKC,0.03,VWS V14.01,2013-11-06 16:09:00,
2013-11-06 10:10:00,51.1,48.0,30.15,WNW,298,11.0,14.0,89,0.00,,SKC,0.03,VWS V14.01,2013-11-06 16:10:00,
2013-11-06 10:11:00,51.0,47.9,30.15,NNW,347,9.0,13.0,89,0.00,,SKC,0.03,VWS V14.01,2013-11-06 16:11:00,
2013-11-06 10:12:00,50.9,48.1,30.15,North,355,11.0,16.0,90,0.00,,SKC,0.03,VWS V14.01,2013-11-06 16:12:00,
2013-11-06 10:13:00,51.0,47.9,30.15,NNE,22,10.0,13.0,89,0.00,,SKC,0.03,VWS V14.01,2013-11-06 16:13:00,
2013-11-06 10:14:00,50.7,47.9,30.15,NNW,348,11.0,13.0,90,0.00,,SKC,0.03,VWS V14.01,2013-11-06 16:14:00,
2013-11-06 10:15:00,50.7,47.6,30.15,North,360,7.0,11.0,89,0.00,,SKC,0.03,VWS V14.01,2013-11-06 16:15:00,
2013-11-06 10:16:00,50.7,47.9,30.15,NNE,26,5.0,9.0,90,0.00,,SKC,0.03,VWS V14.01,2013-11-06 16:16:00,
2013-11-06 10:17:00,50.7,47.6,30.15,NW,325,3.0,6.0,89,0.00,,SKC,0.03,VWS V14.01,2013-11-06 16:17:00,
2013-11-06 10:18:00,50.7,47.9,30.15,NNE,19,7.0,9.0,90,0.00,,SKC,0.03,VWS V14.01,2013-11-06 16:18:00,
2013-11-06 10:19:00,50.7,47.9,30.15,North,355,5.0,10.0,90,0.00,,SKC,0.03,VWS V14.01,2013-11-06 16:19:00,
2013-11-06 10:20:00,50.7,47.6,30.16,NW,313,3.0,5.0,89,0.00,,SKC,0.03,VWS V14.01,2013-11-06 16:20:00,
2013-11-06 10:21:00,50.7,47.6,30.16,North,360,3.0,8.0,89,0.00,,SKC,0.03,VWS V14.01,2013-11-06 16:21:00,
2013-11-06 10:22:00,50.7,47.9,30.16,NNE,28,9.0,10.0,90,0.00,,SKC,0.03,VWS V14.01,2013-11-06 16:22:00,
2013-11-06 10:23:00,50.7,47.6,30.16,NNW,338,2.0,8.0,89,0.00,,SKC,0.03,VWS V14.01,2013-11-06 16:23:00,
2013-11-06 10:24:00,50.6,47.8,30.16,NNW,332,0.0,6.0,90,0.00,,SKC,0.03,VWS V14.01,2013-11-06 16:24:00,
2013-11-06 10:25:00,50.6,47.8,30.16,NW,323,3.0,10.0,90,0.00,,SKC,0.03,VWS V14.01,2013-11-06 16:25:00,
2013-11-06 10:26:00,50.5,47.7,30.16,North,5,0.0,10.0,90,0.00,,SKC,0.03,VWS V14.01,2013-11-06 16:26:00,
2013-11-06 10:27:00,50.5,47.7,30.16,North,5,7.0,10.0,90,0.00,,SKC,0.03,VWS V14.01,2013-11-06 16:27:00,
2013-11-06 10:28:00,50.5,47.7,30.16,North,360,1.0,10.0,90,0.00,,SKC,0.03,VWS V14.01,2013-11-06 16:28:00,
2013-11-06 10:29:00,50.4,47.6,30.16,North,355,1.0,5.0,90,0.00,,SKC,0.03,VWS V14.01,2013-11-06 16:29:00,
2013-11-06 10:30:00,50.4,47.6,30.16,NNW,327,2.0,6.0,90,0.00,,SKC,0.03,VWS V14.01,2013-11-06 16:30:00,
2013-11-06 10:31:00,50.5,47.7,30.16,NNW,340,4.0,5.0,90,0.00,,SKC,0.03,VWS V14.01,2013-11-06 16:31:00,
2013-11-06 10:32:00,50.5,47.7,30.16,North,355,4.0,10.0,90,0.00,,SKC,0.03,VWS V14.01,2013-11-06 16:32:00,
2013-11-06 10:33:00,50.5,47.7,30.16,North,5,4.0,4.0,90,0.00,,SKC,0.03,VWS V14.01,2013-11-06 16:33:00,
2013-11-06 10:34:00,50.3,47.5,30.16,North,360,5.0,9.0,90,0.00,,SKC,0.03,VWS V14.01,2013-11-06 16:34:00,
2013-11-06 10:35:00,50.2,47.4,30.17,NE,44,4.0,7.0,90,0.00,,SKC,0.03,VWS V14.01,2013-11-06 16:35:00,
2013-11-06 10:36:00,50.2,47.4,30.17,NNW,328,1.0,6.0,90,0.00,,SKC,0.03,VWS V14.01,2013-11-06 16:36:00,
2013-11-06 10:37:00,50.2,47.4,30.17,NNW,331,10.0,13.0,90,0.00,,SKC,0.03,VWS V14.01,2013-11-06 16:37:00,
2013-11-06 10:38:00,50.2,47.4,30.17,North,355,1.0,6.0,90,0.00,,SKC,0.03,VWS V14.01,2013-11-06 16:38:00,
2013-11-06 10:39:00,50.1,47.3,30.17,North,355,7.0,13.0,90,0.00,,SKC,0.03,VWS V14.01,2013-11-06 16:39:00,
2013-11-06 10:40:00,50.0,47.2,30.17,North,5,7.0,12.0,90,0.00,,SKC,0.03,VWS V14.01,2013-11-06 16:40:00,
2013-11-06 10:41:00,49.9,47.1,30.17,NNW,348,5.0,8.0,90,0.00,,SKC,0.03,VWS V14.01,2013-11-06 16:41:00,
2013-11-06 10:42:00,50.0,47.2,30.17,NNE,18,4.0,7.0,90,0.00,,SKC,0.03,VWS V14.01,2013-11-06 16:42:00,
2013-11-06 10:43:00,49.9,47.1,30.17,NNW,341,8.0,8.0,90,0.00,,SKC,0.03,VWS V14.01,2013-11-06 16:43:00,
2013-11-06 10:44:00,50.1,47.3,30.17,North,360,6.0,7.0,90,0.00,,SKC,0.03,VWS V14.01,2013-11-06 16:44:00,
2013-11-06 10:45:00,50.3,47.5,30.17,NE,37,5.0,10.0,90,0.00,,SKC,0.03,VWS V14.01,2013-11-06 16:45:00,
2013-11-06 10:46:00,50.4,47.6,30.17,NNE,17,10.0,10.0,90,0.00,,SKC,0.03,VWS V14.01,2013-11-06 16:46:00,
2013-11-06 10:47:00,50.5,47.7,30.16,North,355,6.0,10.0,90,0.00,,SKC,0.03,VWS V14.01,2013-11-06 16:47:00,
2013-11-06 10:48:00,50.4,47.6,30.17,North,5,7.0,10.0,90,0.00,,SKC,0.03,VWS V14.01,2013-11-06 16:48:00,
2013-11-06 10:49:00,50.6,47.8,30.16,North,360,6.0,14.0,90,0.00,,SKC,0.03,VWS V14.01,2013-11-06 16:49:00,
2013-11-06 10:50:00,50.6,47.8,30.16,North,355,6.0,10.0,90,0.00,,SKC,0.03,VWS V14.01,2013-11-06 16:50:00,
2013-11-06 10:51:00,50.7,47.9,30.16,NNW,334,6.0,9.0,90,0.00,,SKC,0.03,VWS V14.01,2013-11-06 16:51:00,
2013-11-06 10:52:00,50.7,47.9,30.16,NNE,15,4.0,11.0,90,0.00,,SKC,0.03,VWS V14.01,2013-11-06 16:52:00,
2013-11-06 10:53:00,50.7,47.9,30.16,North,5,5.0,9.0,90,0.00,,SKC,0.03,VWS V14.01,2013-11-06 16:53:00,
2013-11-06 10:54:00,50.9,48.1,30.16,NNW,331,3.0,12.0,90,0.00,,SKC,0.03,VWS V14.01,2013-11-06 16:54:00,
2013-11-06 10:55:00,50.9,48.1,30.16,North,355,11.0,13.0,90,0.00,,SKC,0.03,VWS V14.01,2013-11-06 16:55:00,
2013-11-06 10:56:00,50.9,48.1,30.16,NNW,341,3.0,15.0,90,0.00,,SKC,0.03,VWS V14.01,2013-11-06 16:56:00,
2013-11-06 10:57:00,50.9,48.1,30.16,North,360,8.0,9.0,90,0.00,,SKC,0.03,VWS V14.01,2013-11-06 16:57:00,
2013-11-06 10:58:00,50.9,48.1,30.16,North,360,5.0,15.0,90,0.00,,SKC,0.03,VWS V14.01,2013-11-06 16:58:00,
2013-11-06 10:59:00,51.0,48.2,30.16,North,5,5.0,13.0,90,0.00,,SKC,0.03,VWS V14.01,2013-11-06 16:59:00,
2013-11-06 11:00:00,51.2,48.4,30.16,NNW,342,11.0,15.0,90,0.00,,SKC,0.03,VWS V14.01,2013-11-06 17:00:00,
2013-11-06 11:01:00,51.3,48.5,30.16,North,355,7.0,12.0,90,0.00,,SKC,0.03,VWS V14.01,2013-11-06 17:01:00,
2013-11-06 11:02:00,51.3,48.5,30.16,North,355,7.0,11.0,90,0.00,,SKC,0.03,VWS V14.01,2013-11-06 17:02:00,
2013-11-06 11:03:00,51.3,48.5,30.16,North,360,7.0,12.0,90,0.00,,SKC,0.03,VWS V14.01,2013-11-06 17:03:00,
2013-11-06 11:04:00,51.4,48.6,30.16,North,5,5.0,11.0,90,0.00,,SKC,0.03,VWS V14.01,2013-11-06 17:04:00,
2013-11-06 11:05:00,51.5,48.7,30.16,NW,324,3.0,9.0,90,0.00,,SKC,0.03,VWS V14.01,2013-11-06 17:05:00,
2013-11-06 11:06:00,51.5,48.7,30.16,North,11,10.0,15.0,90,0.00,,SKC,0.03,VWS V14.01,2013-11-06 17:06:00,
2013-11-06 11:07:00,51.5,48.7,30.16,North,5,12.0,12.0,90,0.00,,SKC,0.03,VWS V14.01,2013-11-06 17:07:00,
2013-11-06 11:08:00,51.5,48.7,30.16,North,350,7.0,15.0,90,0.00,,SKC,0.03,VWS V14.01,2013-11-06 17:08:00,
2013-11-06 11:09:00,51.5,48.7,30.16,North,360,3.0,10.0,90,0.00,,SKC,0.03,VWS V14.01,2013-11-06 17:09:00,
2013-11-06 11:10:00,51.5,48.7,30.16,NNW,331,7.0,9.0,90,0.00,,SKC,0.03,VWS V14.01,2013-11-06 17:10:00,
2013-11-06 11:11:00,51.6,48.8,30.16,North,10,6.0,12.0,90,0.00,,SKC,0.03,VWS V14.01,2013-11-06 17:11:00,
2013-11-06 11:12:00,51.7,48.9,30.16,North,355,7.0,13.0,90,0.00,,SKC,0.03,VWS V14.01,2013-11-06 17:12:00,
2013-11-06 11:13:00,51.6,48.8,30.16,NNE,12,12.0,12.0,90,0.00,,SKC,0.03,VWS V14.01,2013-11-06 17:13:00,
2013-11-06 11:14:00,51.8,49.0,30.16,NNW,335,8.0,13.0,90,0.00,,SKC,0.03,VWS V14.01,2013-11-06 17:14:00,
2013-11-06 11:15:00,51.8,49.0,30.16,NE,40,10.0,16.0,90,0.00,,SKC,0.03,VWS V14.01,2013-11-06 17:15:00,
2013-11-06 11:16:00,51.7,48.6,30.16,North,360,15.0,16.0,89,0.00,,SKC,0.03,VWS V14.01,2013-11-06 17:16:00,
2013-11-06 11:17:00,51.7,48.6,30.16,NNE,28,7.0,15.0,89,0.00,,SKC,0.03,VWS V14.01,2013-11-06 17:17:00,
2013-11-06 11:18:00,51.7,48.6,30.16,NE,38,12.0,12.0,89,0.00,,SKC,0.03,VWS V14.01,2013-11-06 17:18:00,
2013-11-06 11:19:00,51.6,48.5,30.16,North,5,5.0,13.0,89,0.00,,SKC,0.03,VWS V14.01,2013-11-06 17:19:00,
2013-11-06 11:20:00,51.6,48.5,30.16,NNW,342,3.0,6.0,89,0.00,,SKC,0.03,VWS V14.01,2013-11-06 17:20:00,
2013-11-06 11:21:00,51.6,48.5,30.16,North,355,4.0,11.0,89,0.00,,SKC,0.03,VWS V14.01,2013-11-06 17:21:00,
2013-11-06 11:22:00,51.6,48.5,30.15,North,5,4.0,10.0,89,0.00,,SKC,0.03,VWS V14.01,2013-11-06 17:22:00,
2013-11-06 11:23:00,51.6,48.5,30.16,North,360,4.0,11.0,89,0.00,,SKC,0.03,VWS V14.01,2013-11-06 17:23:00,
2013-11-06 11:24:00,51.5,48.4,30.16,North,360,4.0,13.0,89,0.00,,SKC,0.03,VWS V14.01,2013-11-06 17:24:00,
2013-11-06 11:25:00,51.5,48.4,30.16,NNE,22,5.0,10.0,89,0.00,,SKC,0.03,VWS V14.01,2013-11-06 17:25:00,
2013-11-06 11:26:00,51.4,48.3,30.16,NNW,340,1.0,7.0,89,0.00,,SKC,0.03,VWS V14.01,2013-11-06 17:26:00,
2013-11-06 11:27:00,51.4,48.3,30.17,NW,318,6.0,9.0,89,0.00,,SKC,0.03,VWS V14.01,2013-11-06 17:27:00,
2013-11-06 11:28:00,51.4,48.3,30.16,NNW,340,2.0,7.0,89,0.00,,SKC,0.03,VWS V14.01,2013-11-06 17:28:00,
2013-11-06 11:29:00,51.2,48.1,30.17,NW,318,7.0,12.0,89,0.00,,SKC,0.03,VWS V14.01,2013-11-06 17:29:00,
2013-11-06 11:30:00,51.0,47.9,30.17,NNW,327,12.0,13.0,89,0.00,,SKC,0.03,VWS V14.01,2013-11-06 17:30:00,
2013-11-06 11:31:00,50.8,47.4,30.17,North,10,10.0,14.0,88,0.00,,SKC,0.03,VWS V14.01,2013-11-06 17:31:00,
2013-11-06 11:32:00,50.6,47.2,30.17,North,355,8.0,11.0,88,0.00,,SKC,0.03,VWS V14.01,2013-11-06 17:32:00,
2013-11-06 11:33:00,50.8,47.7,30.17,North,350,10.0,14.0,89,0.00,,SKC,0.03,VWS V14.01,2013-11-06 17:33:00,
2013-11-06 11:34:00,50.4,47.0,30.17,NW,308,3.0,11.0,88,0.00,,SKC,0.03,VWS V14.01,2013-11-06 17:34:00,
2013-11-06 11:35:00,50.3,46.9,30.17,WNW,298,2.0,11.0,88,0.00,,SKC,0.03,VWS V14.01,2013-11-06 17:35:00,
2013-11-06 11:36:00,50.3,46.9,30.17,NNE,31,6.0,6.0,88,0.00,,SKC,0.03,VWS V14.01,2013-11-06 17:36:00,
2013-11-06 11:37:00,50.2,47.1,30.17,NNW,334,7.0,13.0,89,0.00,,SKC,0.03,VWS V14.01,2013-11-06 17:37:00,
2013-11-06 11:38:00,50.2,46.8,30.17,NNW,331,3.0,6.0,88,0.00,,SKC,0.03,VWS V14.01,2013-11-06 17:38:00,
2013-11-06 11:39:00,50.1,47.0,30.17,NNW,340,6.0,10.0,89,0.00,,SKC,0.03,VWS V14.01,2013-11-06 17:39:00,
2013-11-06 11:40:00,50.0,46.9,30.17,North,9,7.0,12.0,89,0.00,,SKC,0.03,VWS V14.01,2013-11-06 17:40:00,
2013-11-06 11:41:00,50.0,46.9,30.17,NW,320,11.0,14.0,89,0.00,,SKC,0.03,VWS V14.01,2013-11-06 17:41:00,
2013-11-06 11:42:00,49.9,46.8,30.17,NNW,340,9.0,11.0,89,0.00,,SKC,0.03,VWS V14.01,2013-11-06 17:42:00,
2013-11-06 11:43:00,50.0,46.9,30.17,NNW,343,11.0,14.0,89,0.00,,SKC,0.03,VWS V14.01,2013-11-06 17:43:00,
2013-11-06 11:44:00,49.8,46.7,30.17,NNW,340,4.0,10.0,89,0.00,,SKC,0.03,VWS V14.01,2013-11-06 17:44:00,
2013-11-06 11:45:00,49.7,46.6,30.17,NNW,338,4.0,11.0,89,0.00,,SKC,0.03,VWS V14.01,2013-11-06 17:45:00,
2013-11-06 11:46:00,49.7,46.6,30.17,North,9,7.0,11.0,89,0.00,,SKC,0.03,VWS V14.01,2013-11-06 17:46:00,
2013-11-06 11:47:00,49.7,46.6,30.17,North,360,4.0,13.0,89,0.00,,SKC,0.03,VWS V14.01,2013-11-06 17:47:00,
2013-11-06 11:48:00,49.7,46.6,30.17,North,5,9.0,11.0,89,0.00,,SKC,0.03,VWS V14.01,2013-11-06 17:48:00,
2013-11-06 11:49:00,49.7,46.6,30.17,North,351,4.0,8.0,89,0.00,,SKC,0.03,VWS V14.01,2013-11-06 17:49:00,
2013-11-06 11:50:00,49.8,46.7,30.16,North,355,6.0,11.0,89,0.00,,SKC,0.03,VWS V14.01,2013-11-06 17:50:00,
2013-11-06 11:51:00,49.8,46.7,30.16,NNW,341,3.0,11.0,89,0.00,,SKC,0.03,VWS V14.01,2013-11-06 17:51:00,
2013-11-06 11:52:00,49.9,46.8,30.16,NNW,328,6.0,12.0,89,0.00,,SKC,0.03,VWS V14.01,2013-11-06 17:52:00,
2013-11-06 11:53:00,49.8,46.7,30.16,NNW,338,5.0,11.0,89,0.00,,SKC,0.03,VWS V14.01,2013-11-06 17:53:00,
2013-11-06 11:54:00,50.0,47.2,30.16,NW,324,5.0,13.0,90,0.00,,SKC,0.03,VWS V14.01,2013-11-06 17:54:00,
2013-11-06 11:55:00,50.0,47.2,30.16,NNW,337,10.0,13.0,90,0.00,,SKC,0.03,VWS V14.01,2013-11-06 17:55:00,
2013-11-06 11:56:00,50.0,47.2,30.16,North,5,2.0,13.0,90,0.00,,SKC,0.03,VWS V14.01,2013-11-06 17:56:00,
2013-11-06 11:57:00,50.1,47.3,30.16,NNE,28,10.0,10.0,90,0.00,,SKC,0.03,VWS V14.01,2013-11-06 17:57:00,
2013-11-06 11:58:00,50.0,47.2,30.16,North,10,5.0,13.0,90,0.00,,SKC,0.03,VWS V14.01,2013-11-06 17:58:00,
2013-11-06 11:59:00,50.2,47.4,30.16,NNW,337,9.0,10.0,90,0.00,,SKC,0.03,VWS V14.01,2013-11-06 17:59:00,
2013-11-06 12:00:00,50.4,47.6,30.16,WNW,295,7.0,12.0,90,0.00,,SKC,0.03,VWS V14.01,2013-11-06 18:00:00,
2013-11-06 12:01:00,50.5,47.4,30.16,NNW,329,3.0,14.0,89,0.00,,SKC,0.03,VWS V14.01,2013-11-06 18:01:00,
2013-11-06 12:02:00,50.8,47.7,30.16,North,5,6.0,16.0,89,0.00,,SKC,0.03,VWS V14.01,2013-11-06 18:02:00,
2013-11-06 12:03:00,50.5,47.4,30.16,NW,312,7.0,14.0,89,0.00,,SKC,0.03,VWS V14.01,2013-11-06 18:03:00,
2013-11-06 12:04:00,51.0,48.2,30.16,NNW,342,10.0,13.0,90,0.00,,SKC,0.03,VWS V14.01,2013-11-06 18:04:00,
2013-11-06 12:05:00,51.2,48.4,30.16,North,360,11.0,14.0,90,0.00,,SKC,0.03,VWS V14.01,2013-11-06 18:05:00,
2013-11-06 12:06:00,51.1,48.0,30.16,NW,326,9.0,13.0,89,0.00,,SKC,0.03,VWS V14.01,2013-11-06 18:06:00,
2013-11-06 12:07:00,51.1,48.0,30.16,NNW,329,4.0,11.0,89,0.00,,SKC,0.03,VWS V14.01,2013-11-06 18:07:00,
2013-11-06 12:08:00,51.1,48.0,30.16,NNW,327,9.0,13.0,89,0.00,,SKC,0.03,VWS V14.01,2013-11-06 18:08:00,
2013-11-06 12:09:00,51.0,47.9,30.16,North,355,10.0,10.0,89,0.00,,SKC,0.03,VWS V14.01,2013-11-06 18:09:00,
2013-11-06 12:10:00,51.0,47.9,30.16,NE,39,11.0,11.0,89,0.00,,SKC,0.03,VWS V14.01,2013-11-06 18:10:00,
2013-11-06 12:11:00,50.9,47.8,30.16,North,360,12.0,13.0,89,0.00,,SKC,0.03,VWS V14.01,2013-11-06 18:11:00,
2013-11-06 12:12:00,51.0,47.9,30.17,NNE,13,15.0,15.0,89,0.00,,SKC,0.03,VWS V14.01,2013-11-06 18:12:00,
2013-11-06 12:13:00,50.9,47.8,30.16,NNE,24,6.0,13.0,89,0.00,,SKC,0.03,VWS V14.01,2013-11-06 18:13:00,
2013-11-06 12:14:00,50.8,47.7,30.17,NNW,341,5.0,12.0,89,0.00,,SKC,0.03,VWS V14.01,2013-11-06 18:14:00,
2013-11-06 12:15:00,50.8,47.7,30.17,WNW,291,2.0,10.0,89,0.00,,SKC,0.03,VWS V14.01,2013-11-06 18:15:00,
2013-11-06 12:16:00,50.7,47.6,30.17,NNW,339,4.0,10.0,89,0.00,,SKC,0.03,VWS V14.01,2013-11-06 18:16:00,
2013-11-06 12:17:00,50.7,47.6,30.17,North,349,6.0,11.0,89,0.00,,SKC,0.03,VWS V14.01,2013-11-06 18:17:00,
2013-11-06 12:18:00,50.8,47.7,30.17,NNW,338,9.0,10.0,89,0.00,,SKC,0.03,VWS V14.01,2013-11-06 18:18:00,
2013-11-06 12:19:00,50.8,47.7,30.17,North,355,11.0,14.0,89,0.00,,SKC,0.03,VWS V14.01,2013-11-06 18:19:00,
2013-11-06 12:20:00,50.9,47.8,30.17,NNW,342,2.0,12.0,89,0.00,,SKC,0.03,VWS V14.01,2013-11-06 18:20:00,
2013-11-06 12:21:00,50.9,47.8,30.17,North,355,7.0,12.0,89,0.00,,SKC,0.03,VWS V14.01,2013-11-06 18:21:00,
2013-11-06 12:22:00,51.0,47.9,30.17,North,5,9.0,13.0,89,0.00,,SKC,0.03,VWS V14.01,2013-11-06 18:22:00,
2013-11-06 12:23:00,50.9,47.8,30.17,North,349,6.0,12.0,89,0.00,,SKC,0.03,VWS V14.01,2013-11-06 18:23:00,
2013-11-06 12:24:00,51.1,48.0,30.17,NNW,346,7.0,9.0,89,0.00,,SKC,0.03,VWS V14.01,2013-11-06 18:24:00,
2013-11-06 12:25:00,51.2,48.1,30.17,NNW,337,5.0,9.0,89,0.00,,SKC,0.03,VWS V14.01,2013-11-06 18:25:00,
2013-11-06 12:26:00,51.4,48.3,30.17,North,355,7.0,10.0,89,0.00,,SKC,0.03,VWS V14.01,2013-11-06 18:26:00,
2013-11-06 12:27:00,51.4,48.3,30.17,North,9,6.0,17.0,89,0.00,,SKC,0.03,VWS V14.01,2013-11-06 18:27:00,
2013-11-06 12:28:00,51.3,48.2,30.17,NNE,16,7.0,10.0,89,0.00,,SKC,0.03,VWS V14.01,2013-11-06 18:28:00,
2013-11-06 12:29:00,51.4,48.0,30.17,NNW,346,7.0,13.0,88,0.00,,SKC,0.03,VWS V14.01,2013-11-06 18:29:00,
2013-11-06 12:30:00,51.4,48.0,30.17,North,9,10.0,12.0,88,0.00,,SKC,0.03,VWS V14.01,2013-11-06 18:30:00,
2013-11-06 12:31:00,51.4,48.0,30.17,North,10,9.0,13.0,88,0.00,,SKC,0.03,VWS V14.01,2013-11-06 18:31:00,
2013-11-06 12:32:00,51.4,48.0,30.16,North,360,10.0,16.0,88,0.00,,SKC,0.03,VWS V14.01,2013-11-06 18:32:00,
2013-11-06 12:33:00,51.4,48.0,30.17,North,10,10.0,13.0,88,0.00,,SKC,0.03,VWS V14.01,2013-11-06 18:33:00,
2013-11-06 12:34:00,51.4,48.0,30.16,NNW,338,12.0,12.0,88,0.00,,SKC,0.03,VWS V14.01,2013-11-06 18:34:00,
2013-11-06 12:35:00,51.4,48.0,30.16,NW,326,14.0,14.0,88,0.00,,SKC,0.03,VWS V14.01,2013-11-06 18:35:00,
2013-11-06 12:36:00,51.4,48.0,30.16,NNW,341,12.0,14.0,88,0.00,,SKC,0.03,VWS V14.01,2013-11-06 18:36:00,
2013-11-06 12:37:00,51.4,48.0,30.16,North,360,12.0,14.0,88,0.00,,SKC,0.03,VWS V14.01,2013-11-06 18:37:00,
2013-11-06 12:38:00,51.4,48.0,30.16,NW,325,3.0,14.0,88,0.00,,SKC,0.03,VWS V14.01,2013-11-06 18:38:00,
2013-11-06 12:39:00,51.4,48.0,30.16,North,360,10.0,12.0,88,0.00,,SKC,0.03,VWS V14.01,2013-11-06 18:39:00,
2013-11-06 12:40:00,51.5,48.1,30.16,North,360,6.0,11.0,88,0.00,,SKC,0.03,VWS V14.01,2013-11-06 18:40:00,
2013-11-06 12:41:00,51.5,48.1,30.16,NNW,331,6.0,11.0,88,0.00,,SKC,0.03,VWS V14.01,2013-11-06 18:41:00,
2013-11-06 12:42:00,51.6,48.2,30.16,NE,34,14.0,14.0,88,0.00,,SKC,0.03,VWS V14.01,2013-11-06 18:42:00,
2013-11-06 12:43:00,51.5,48.1,30.16,NNE,17,9.0,11.0,88,0.00,,SKC,0.03,VWS V14.01,2013-11-06 18:43:00,
2013-11-06 12:44:00,51.6,48.2,30.16,North,350,8.0,14.0,88,0.00,,SKC,0.03,VWS V14.01,2013-11-06 18:44:00,
2013-11-06 12:45:00,51.6,48.2,30.16,NNW,337,10.0,13.0,88,0.00,,SKC,0.03,VWS V14.01,2013-11-06 18:45:00,
2013-11-06 12:46:00,51.6,47.9,30.16,NNW,333,10.0,10.0,87,0.00,,SKC,0.03,VWS V14.01,2013-11-06 18:46:00,
2013-11-06 12:47:00,51.6,48.2,30.16,NNE,24,5.0,10.0,88,0.00,,SKC,0.03,VWS V14.01,2013-11-06 18:47:00,
2013-11-06 12:48:00,51.6,48.2,30.16,NNW,343,8.0,10.0,88,0.00,,SKC,0.03,VWS V14.01,2013-11-06 18:48:00,
2013-11-06 12:49:00,51.7,48.0,30.16,NNE,16,11.0,14.0,87,0.00,,SKC,0.03,VWS V14.01,2013-11-06 18:49:00,
2013-11-06 12:50:00,51.6,47.9,30.16,North,5,13.0,14.0,87,0.00,,SKC,0.03,VWS V14.01,2013-11-06 18:50:00,
2013-11-06 12:51:00,51.5,47.8,30.16,NNW,340,7.0,14.0,87,0.00,,SKC,0.03,VWS V14.01,2013-11-06 18:51:00,
2013-11-06 12:52:00,51.5,47.8,30.16,NNE,28,14.0,14.0,87,0.00,,SKC,0.03,VWS V14.01,2013-11-06 18:52:00,
2013-11-06 12:53:00,51.5,47.8,30.16,NNW,327,6.0,14.0,87,0.00,,SKC,0.03,VWS V14.01,2013-11-06 18:53:00,
2013-11-06 12:54:00,51.5,47.8,30.16,North,360,6.0,15.0,87,0.00,,SKC,0.03,VWS V14.01,2013-11-06 18:54:00,
2013-11-06 12:55:00,51.5,47.8,30.16,North,5,7.0,10.0,87,0.00,,SKC,0.03,VWS V14.01,2013-11-06 18:55:00,
2013-11-06 12:56:00,51.5,47.8,30.16,North,360,10.0,14.0,87,0.00,,SKC,0.03,VWS V14.01,2013-11-06 18:56:00,
2013-11-06 12:57:00,51.5,47.8,30.16,North,350,7.0,10.0,87,0.00,,SKC,0.03,VWS V14.01,2013-11-06 18:57:00,
2013-11-06 12:58:00,51.5,47.8,30.16,North,355,12.0,12.0,87,0.00,,SKC,0.03,VWS V14.01,2013-11-06 18:58:00,
2013-11-06 12:59:00,51.5,47.8,30.17,North,360,6.0,11.0,87,0.00,,SKC,0.03,VWS V14.01,2013-11-06 18:59:00,
2013-11-06 13:00:00,51.6,47.9,30.17,NNW,330,5.0,10.0,87,0.00,,SKC,0.03,VWS V14.01,2013-11-06 19:00:00,
2013-11-06 13:01:00,51.5,47.8,30.17,North,351,3.0,17.0,87,0.00,,SKC,0.03,VWS V14.01,2013-11-06 19:01:00,
2013-11-06 13:02:00,51.4,47.4,30.17,NNW,340,6.0,13.0,86,0.00,,SKC,0.03,VWS V14.01,2013-11-06 19:02:00,
2013-11-06 13:03:00,51.6,47.9,30.17,North,5,7.0,17.0,87,0.00,,SKC,0.03,VWS V14.01,2013-11-06 19:03:00,
2013-11-06 13:04:00,51.4,47.4,30.17,NNW,347,6.0,10.0,86,0.00,,SKC,0.03,VWS V14.01,2013-11-06 19:04:00,
2013-11-06 13:05:00,51.3,47.3,30.17,NW,319,6.0,14.0,86,0.00,,SKC,0.03,VWS V14.01,2013-11-06 19:05:00,
2013-11-06 13:06:00,51.3,47.3,30.17,NNE,22,6.0,12.0,86,0.00,,SKC,0.03,VWS V14.01,2013-11-06 19:06:00,
2013-11-06 13:07:00,51.4,47.4,30.17,North,355,5.0,7.0,86,0.00,,SKC,0.03,VWS V14.01,2013-11-06 19:07:00,
2013-11-06 13:08:00,51.3,47.3,30.17,North,355,8.0,12.0,86,0.00,,SKC,0.03,VWS V14.01,2013-11-06 19:08:00,
2013-11-06 13:09:00,51.7,47.7,30.17,North,5,6.0,7.0,86,0.00,,SKC,0.03,VWS V14.01,2013-11-06 19:09:00,
2013-11-06 13:10:00,51.8,48.1,30.17,North,355,8.0,9.0,87,0.00,,SKC,0.03,VWS V14.01,2013-11-06 19:10:00,
2013-11-06 13:11:00,52.0,48.3,30.17,NNE,19,6.0,11.0,87,0.00,,SKC,0.03,VWS V14.01,2013-11-06 19:11:00,
2013-11-06 13:12:00,52.1,48.0,30.17,North,360,6.0,15.0,86,0.00,,SKC,0.03,VWS V14.01,2013-11-06 19:12:00,
2013-11-06 13:13:00,52.0,48.3,30.17,North,5,9.0,11.0,87,0.00,,SKC,0.03,VWS V14.01,2013-11-06 19:13:00,
2013-11-06 13:14:00,52.2,48.2,30.17,NW,322,6.0,11.0,86,0.00,,SKC,0.03,VWS V14.01,2013-11-06 19:14:00,
2013-11-06 13:15:00,52.3,47.9,30.17,North,360,8.0,9.0,85,0.00,,SKC,0.03,VWS V14.01,2013-11-06 19:15:00,
2013-11-06 13:16:00,52.3,47.9,30.17,North,349,5.0,12.0,85,0.00,,SKC,0.03,VWS V14.01,2013-11-06 19:16:00,
2013-11-06 13:17:00,52.4,47.7,30.17,North,5,6.0,10.0,84,0.00,,SKC,0.03,VWS V14.01,2013-11-06 19:17:00,
2013-11-06 13:18:00,52.3,47.9,30.17,North,355,11.0,12.0,85,0.00,,SKC,0.03,VWS V14.01,2013-11-06 19:18:00,
2013-11-06 13:19:00,52.6,47.9,30.17,NNW,341,5.0,12.0,84,0.00,,SKC,0.03,VWS V14.01,2013-11-06 19:19:00,
2013-11-06 13:20:00,52.7,48.0,30.17,North,350,11.0,14.0,84,0.00,,SKC,0.03,VWS V14.01,2013-11-06 19:20:00,
2013-11-06 13:21:00,52.7,48.0,30.17,NNE,19,4.0,15.0,84,0.00,,SKC,0.03,VWS V14.01,2013-11-06 19:21:00,
2013-11-06 13:22:00,52.8,47.8,30.17,North,360,10.0,13.0,83,0.00,,SKC,0.03,VWS V14.01,2013-11-06 19:22:00,
2013-11-06 13:23:00,52.7,48.0,30.17,NW,325,6.0,15.0,84,0.00,,SKC,0.03,VWS V14.01,2013-11-06 19:23:00,
2013-11-06 13:24:00,53.0,48.3,30.17,NNE,23,14.0,14.0,84,0.00,,SKC,0.03,VWS V14.01,2013-11-06 19:24:00,
2013-11-06 13:25:00,53.1,48.1,30.17,North,5,10.0,14.0,83,0.00,,SKC,0.03,VWS V14.01,2013-11-06 19:25:00,
2013-11-06 13:26:00,53.1,48.1,30.17,NNE,22,9.0,12.0,83,0.00,,SKC,0.03,VWS V14.01,2013-11-06 19:26:00,
2013-11-06 13:27:00,53.2,48.2,30.17,North,355,11.0,16.0,83,0.00,,SKC,0.03,VWS V14.01,2013-11-06 19:27:00,
2013-11-06 13:28:00,53.1,48.1,30.17,North,355,6.0,12.0,83,0.00,,SKC,0.03,VWS V14.01,2013-11-06 19:28:00,
2013-11-06 13:29:00,53.3,48.3,30.17,NNE,21,11.0,14.0,83,0.00,,SKC,0.03,VWS V14.01,2013-11-06 19:29:00,
2013-11-06 13:30:00,53.4,48.4,30.17,NNW,328,4.0,11.0,83,0.00,,SKC,0.03,VWS V14.01,2013-11-06 19:30:00,
2013-11-06 13:31:00,53.5,48.5,30.17,North,355,11.0,11.0,83,0.00,,SKC,0.03,VWS V14.01,2013-11-06 19:31:00,
2013-11-06 13:32:00,53.5,48.5,30.17,NNE,18,15.0,18.0,83,0.00,,SKC,0.03,VWS V14.01,2013-11-06 19:32:00,
2013-11-06 13:33:00,53.5,48.5,30.17,NNW,342,8.0,9.0,83,0.00,,SKC,0.03,VWS V14.01,2013-11-06 19:33:00,
2013-11-06 13:34:00,53.6,48.6,30.17,North,360,7.0,14.0,83,0.00,,SKC,0.03,VWS V14.01,2013-11-06 19:34:00,
2013-11-06 13:35:00,53.7,48.3,30.17,NNE,18,7.0,13.0,82,0.00,,SKC,0.03,VWS V14.01,2013-11-06 19:35:00,
2013-11-06 13:36:00,53.8,48.4,30.16,NNW,333,4.0,11.0,82,0.00,,SKC,0.03,VWS V14.01,2013-11-06 19:36:00,
2013-11-06 13:37:00,53.9,48.5,30.17,North,360,11.0,13.0,82,0.00,,SKC,0.03,VWS V14.01,2013-11-06 19:37:00,
2013-11-06 13:38:00,53.8,48.4,30.16,NNW,332,4.0,11.0,82,0.00,,SKC,0.03,VWS V14.01,2013-11-06 19:38:00,
2013-11-06 13:39:00,54.3,48.6,30.16,North,355,10.0,17.0,81,0.00,,SKC,0.03,VWS V14.01,2013-11-06 19:39:00,
2013-11-06 13:40:00,54.4,48.4,30.16,NNE,14,11.0,19.0,80,0.00,,SKC,0.03,VWS V14.01,2013-11-06 19:40:00,
2013-11-06 13:41:00,54.4,48.4,30.16,NNE,15,13.0,15.0,80,0.00,,SKC,0.03,VWS V14.01,2013-11-06 19:41:00,
2013-11-06 13:42:00,54.4,48.0,30.16,North,350,4.0,17.0,79,0.00,,SKC,0.03,VWS V14.01,2013-11-06 19:42:00,
2013-11-06 13:43:00,54.4,48.4,30.16,NNE,15,14.0,15.0,80,0.00,,SKC,0.03,VWS V14.01,2013-11-06 19:43:00,
2013-11-06 13:44:00,54.5,48.1,30.16,NNE,21,10.0,13.0,79,0.00,,SKC,0.03,VWS V14.01,2013-11-06 19:44:00,
2013-11-06 13:45:00,54.5,48.1,30.16,North,355,6.0,17.0,79,0.00,,SKC,0.03,VWS V14.01,2013-11-06 19:45:00,
2013-11-06 13:46:00,54.4,48.0,30.16,North,349,5.0,16.0,79,0.00,,SKC,0.03,VWS V14.01,2013-11-06 19:46:00,
2013-11-06 13:47:00,54.3,47.6,30.16,NNW,336,9.0,12.0,78,0.00,,SKC,0.03,VWS V14.01,2013-11-06 19:47:00,
2013-11-06 13:48:00,54.4,48.0,30.16,North,349,6.0,16.0,79,0.00,,SKC,0.03,VWS V14.01,2013-11-06 19:48:00,
2013-11-06 13:49:00,54.3,47.9,30.16,NNW,340,6.0,11.0,79,0.00,,SKC,0.03,VWS V14.01,2013-11-06 19:49:00,
2013-11-06 13:50:00,54.3,47.9,30.16,North,5,4.0,13.0,79,0.00,,SKC,0.03,VWS V14.01,2013-11-06 19:50:00,
2013-11-06 13:51:00,54.4,48.4,30.16,North,360,10.0,13.0,80,0.00,,SKC,0.03,VWS V14.01,2013-11-06 19:51:00,
2013-11-06 13:52:00,54.5,48.1,30.16,North,9,9.0,15.0,79,0.00,,SKC,0.03,VWS V14.01,2013-11-06 19:52:00,
2013-11-06 13:53:00,54.4,48.4,30.16,North,360,10.0,13.0,80,0.00,,SKC,0.03,VWS V14.01,2013-11-06 19:53:00,
2013-11-06 13:54:00,54.7,48.3,30.16,NNE,18,7.0,11.0,79,0.00,,SKC,0.03,VWS V14.01,2013-11-06 19:54:00,
2013-11-06 13:55:00,54.8,48.8,30.16,NW,324,4.0,7.0,80,0.00,,SKC,0.03,VWS V14.01,2013-11-06 19:55:00,
2013-11-06 13:56:00,55.0,49.0,30.16,NNW,336,7.0,10.0,80,0.00,,SKC,0.03,VWS V14.01,2013-11-06 19:56:00,
2013-11-06 13:57:00,55.3,49.2,30.16,NNE,22,5.0,7.0,80,0.00,,SKC,0.03,VWS V14.01,2013-11-06 19:57:00,
2013-11-06 13:58:00,55.0,49.0,30.16,NNW,336,7.0,10.0,80,0.00,,SKC,0.03,VWS V14.01,2013-11-06 19:58:00,
2013-11-06 13:59:00,55.9,49.8,30.16,NNW,345,8.0,13.0,80,0.00,,SKC,0.03,VWS V14.01,2013-11-06 19:59:00,
2013-11-06 14:00:00,56.1,49.7,30.16,North,355,4.0,10.0,79,0.00,,SKC,0.03,VWS V14.01,2013-11-06 20:00:00,
2013-11-06 14:01:00,56.3,49.5,30.16,NW,323,10.0,13.0,78,0.00,,SKC,0.03,VWS V14.01,2013-11-06 20:01:00,
2013-11-06 14:02:00,56.4,49.3,30.16,NW,321,13.0,16.0,77,0.00,,SKC,0.03,VWS V14.01,2013-11-06 20:02:00,
2013-11-06 14:03:00,56.3,49.5,30.16,NNE,13,10.0,13.0,78,0.00,,SKC,0.03,VWS V14.01,2013-11-06 20:03:00,
2013-11-06 14:04:00,56.4,49.3,30.16,NNW,348,5.0,7.0,77,0.00,,SKC,0.03,VWS V14.01,2013-11-06 20:04:00,
2013-11-06 14:05:00,56.4,49.3,30.16,NW,322,5.0,15.0,77,0.00,,SKC,0.03,VWS V14.01,2013-11-06 20:05:00,
2013-11-06 14:06:00,56.3,48.8,30.16,North,5,4.0,11.0,76,0.00,,SKC,0.03,VWS V14.01,2013-11-06 20:06:00,
2013-11-06 14:07:00,56.3,48.8,30.16,North,350,3.0,9.0,76,0.00,,SKC,0.03,VWS V14.01,2013-11-06 20:07:00,
2013-11-06 14:08:00,56.3,48.8,30.16,ENE,63,3.0,11.0,76,0.00,,SKC,0.03,VWS V14.01,2013-11-06 20:08:00,
2013-11-06 14:09:00,56.3,48.8,30.16,NNW,348,1.0,9.0,76,0.00,,SKC,0.03,VWS V14.01,2013-11-06 20:09:00,
2013-11-06 14:10:00,56.3,48.8,30.16,North,5,21.0,23.0,76,0.00,,SKC,0.03,VWS V14.01,2013-11-06 20:10:00,
2013-11-06 14:11:00,56.1,48.3,30.16,NNE,25,14.0,21.0,75,0.00,,SKC,0.03,VWS V14.01,2013-11-06 20:11:00,
2013-11-06 14:12:00,56.0,48.2,30.16,NNE,30,16.0,16.0,75,0.00,,SKC,0.03,VWS V14.01,2013-11-06 20:12:00,
2013-11-06 14:13:00,56.1,48.3,30.16,NNE,25,14.0,21.0,75,0.00,,SKC,0.03,VWS V14.01,2013-11-06 20:13:00,
2013-11-06 14:14:00,55.8,48.0,30.16,North,355,9.0,13.0,75,0.00,,SKC,0.03,VWS V14.01,2013-11-06 20:14:00,
2013-11-06 14:15:00,55.8,48.0,30.16,North,350,11.0,14.0,75,0.00,,SKC,0.03,VWS V14.01,2013-11-06 20:15:00,
2013-11-06 14:16:00,55.8,48.0,30.16,North,5,4.0,13.0,75,0.00,,SKC,0.03,VWS V14.01,2013-11-06 20:16:00,
2013-11-06 14:17:00,55.9,48.5,30.16,NW,324,11.0,11.0,76,0.00,,SKC,0.03,VWS V14.01,2013-11-06 20:17:00,
2013-11-06 14:18:00,55.8,48.0,30.16,NNE,13,6.0,13.0,75,0.00,,SKC,0.03,VWS V14.01,2013-11-06 20:18:00,
2013-11-06 14:19:00,56.3,49.2,30.16,NNE,14,12.0,14.0,77,0.00,,SKC,0.03,VWS V14.01,2013-11-06 20:19:00,
2013-11-06 14:20:00,56.5,48.7,30.16,NNE,19,6.0,12.0,75,0.00,,SKC,0.03,VWS V14.01,2013-11-06 20:20:00,
2013-11-06 14:21:00,56.8,49.3,30.16,North,10,9.0,11.0,76,0.00,,SKC,0.03,VWS V14.01,2013-11-06 20:21:00,
2013-11-06 14:22:00,56.9,49.4,30.16,North,355,13.0,13.0,76,0.00,,SKC,0.03,VWS V14.01,2013-11-06 20:22:00,
2013-11-06 14:23:00,56.8,49.3,30.16,North,10,9.0,11.0,76,0.00,,SKC,0.03,VWS V14.01,2013-11-06 20:23:00,
2013-11-06 14:24:00,57.0,48.4,30.16,NNE,13,15.0,18.0,73,0.00,,SKC,0.03,VWS V14.01,2013-11-06 20:24:00,
2013-11-06 14:25:00,56.9,48.0,30.16,North,9,12.0,17.0,72,0.00,,SKC,0.03,VWS V14.01,2013-11-06 20:25:00,
2013-11-06 14:26:00,56.8,47.9,30.16,North,350,11.0,17.0,72,0.00,,SKC,0.03,VWS V14.01,2013-11-06 20:26:00,
2013-11-06 14:27:00,56.5,47.6,30.16,NNW,345,9.0,12.0,72,0.00,,SKC,0.03,VWS V14.01,2013-11-06 20:27:00,
2013-11-06 14:28:00,56.8,47.9,30.16,North,350,11.0,17.0,72,0.00,,SKC,0.03,VWS V14.01,2013-11-06 20:28:00,
2013-11-06 14:29:00,56.3,47.8,30.16,NNW,338,5.0,10.0,73,0.00,,SKC,0.03,VWS V14.01,2013-11-06 20:29:00,
2013-11-06 14:30:00,56.3,47.8,30.16,North,355,13.0,15.0,73,0.00,,SKC,0.03,VWS V14.01,2013-11-06 20:30:00,
2013-11-06 14:31:00,56.2,48.0,30.16,NNE,14,8.0,17.0,74,0.00,,SKC,0.03,VWS V14.01,2013-11-06 20:31:00,
2013-11-06 14:32:00,56.2,48.0,30.17,North,360,4.0,12.0,74,0.00,,SKC,0.03,VWS V14.01,2013-11-06 20:32:00,
2013-11-06 14:33:00,56.2,48.0,30.16,NNE,14,8.0,17.0,74,0.00,,SKC,0.03,VWS V14.01,2013-11-06 20:33:00,
2013-11-06 14:34:00,56.3,48.5,30.17,NNW,338,6.0,7.0,75,0.00,,SKC,0.03,VWS V14.01,2013-11-06 20:34:00,
2013-11-06 14:35:00,56.4,48.6,30.17,North,11,9.0,16.0,75,0.00,,SKC,0.03,VWS V14.01,2013-11-06 20:35:00,
2013-11-06 14:36:00,56.4,48.2,30.17,North,355,12.0,14.0,74,0.00,,SKC,0.03,VWS V14.01,2013-11-06 20:36:00,
2013-11-06 14:37:00,56.5,48.3,30.17,North,355,9.0,12.0,74,0.00,,SKC,0.03,VWS V14.01,2013-11-06 20:37:00,
2013-11-06 14:38:00,56.4,48.2,30.17,North,9,14.0,14.0,74,0.00,,SKC,0.03,VWS V14.01,2013-11-06 20:38:00,
2013-11-06 14:39:00,56.6,48.1,30.17,North,360,5.0,13.0,73,0.00,,SKC,0.03,VWS V14.01,2013-11-06 20:39:00,
2013-11-06 14:40:00,56.6,48.1,30.17,North,360,1.0,10.0,73,0.00,,SKC,0.03,VWS V14.01,2013-11-06 20:40:00,
2013-11-06 14:41:00,56.8,48.6,30.16,NNE,30,5.0,9.0,74,0.00,,SKC,0.03,VWS V14.01,2013-11-06 20:41:00,
2013-11-06 14:42:00,56.9,48.7,30.16,NNW,344,4.0,13.0,74,0.00,,SKC,0.03,VWS V14.01,2013-11-06 20:42:00,
2013-11-06 14:43:00,56.8,48.6,30.16,NNE,30,5.0,9.0,74,0.00,,SKC,0.03,VWS V14.01,2013-11-06 20:43:00,
2013-11-06 14:44:00,57.3,48.7,30.16,NNW,340,10.0,14.0,73,0.00,,SKC,0.03,VWS V14.01,2013-11-06 20:44:00,
2013-11-06 14:45:00,57.4,48.5,30.16,North,349,4.0,15.0,72,0.00,,SKC,0.03,VWS V14.01,2013-11-06 20:45:00,
2013-11-06 14:46:00,57.5,48.6,30.16,NE,38,5.0,10.0,72,0.00,,SKC,0.03,VWS V14.01,2013-11-06 20:46:00,
2013-11-06 14:47:00,57.6,48.7,30.17,North,5,4.0,9.0,72,0.00,,SKC,0.03,VWS V14.01,2013-11-06 20:47:00,
2013-11-06 14:48:00,57.5,48.6,30.16,NE,38,5.0,10.0,72,0.00,,SKC,0.03,VWS V14.01,2013-11-06 20:48:00,
2013-11-06 14:49:00,57.8,48.5,30.17,North,360,9.0,15.0,71,0.00,,SKC,0.03,VWS V14.01,2013-11-06 20:49:00,
2013-11-06 14:50:00,57.8,48.5,30.17,NNE,26,13.0,13.0,71,0.00,,SKC,0.03,VWS V14.01,2013-11-06 20:50:00,
2013-11-06 14:51:00,57.9,48.6,30.17,North,349,4.0,13.0,71,0.00,,SKC,0.03,VWS V14.01,2013-11-06 20:51:00,
2013-11-06 14:52:00,58.0,48.7,30.17,NNE,26,11.0,11.0,71,0.00,,SKC,0.03,VWS V14.01,2013-11-06 20:52:00,
2013-11-06 14:53:00,57.9,48.6,30.17,North,349,4.0,13.0,71,0.00,,SKC,0.03,VWS V14.01,2013-11-06 20:53:00,
2013-11-06 14:54:00,58.1,48.4,30.17,NNE,13,3.0,12.0,70,0.00,,SKC,0.03,VWS V14.01,2013-11-06 20:54:00,
2013-11-06 14:55:00,58.2,48.5,30.17,NNW,346,5.0,14.0,70,0.00,,SKC,0.03,VWS V14.01,2013-11-06 20:55:00,
2013-11-06 14:56:00,58.2,48.1,30.17,NNW,336,6.0,10.0,69,0.00,,SKC,0.03,VWS V14.01,2013-11-06 20:56:00,
2013-11-06 14:57:00,58.2,47.7,30.16,NNW,344,9.0,13.0,68,0.00,,SKC,0.03,VWS V14.01,2013-11-06 20:57:00,
2013-11-06 14:58:00,58.2,48.1,30.17,NNW,336,6.0,10.0,69,0.00,,SKC,0.03,VWS V14.01,2013-11-06 20:58:00,
2013-11-06 14:59:00,58.2,47.7,30.16,North,5,4.0,10.0,68,0.00,,SKC,0.03,VWS V14.01,2013-11-06 20:59:00,
2013-11-06 15:00:00,58.1,47.2,30.16,North,5,12.0,16.0,67,0.00,,SKC,0.03,VWS V14.01,2013-11-06 21:00:00,
2013-11-06 15:01:00,58.1,47.2,30.17,North,355,3.0,12.0,67,0.00,,SKC,0.03,VWS V14.01,2013-11-06 21:01:00,
2013-11-06 15:02:00,58.1,46.8,30.17,NNW,331,12.0,13.0,66,0.00,,SKC,0.03,VWS V14.01,2013-11-06 21:02:00,
2013-11-06 15:03:00,58.1,47.2,30.17,North,355,3.0,12.0,67,0.00,,SKC,0.03,VWS V14.01,2013-11-06 21:03:00,
2013-11-06 15:04:00,57.9,46.6,30.16,NNW,338,3.0,13.0,66,0.00,,SKC,0.03,VWS V14.01,2013-11-06 21:04:00,
2013-11-06 15:05:00,57.8,46.9,30.17,NNE,30,9.0,15.0,67,0.00,,SKC,0.03,VWS V14.01,2013-11-06 21:05:00,
2013-11-06 15:06:00,57.7,46.4,30.17,North,360,12.0,13.0,66,0.00,,SKC,0.03,VWS V14.01,2013-11-06 21:06:00,
2013-11-06 15:07:00,57.7,46.4,30.17,North,360,5.0,13.0,66,0.00,,SKC,0.03,VWS V14.01,2013-11-06 21:07:00,
2013-11-06 15:08:00,57.7,46.4,30.17,North,360,12.0,13.0,66,0.00,,SKC,0.03,VWS V14.01,2013-11-06 21:08:00,
2013-11-06 15:09:00,57.7,46.8,30.16,NNW,345,3.0,11.0,67,0.00,,SKC,0.03,VWS V14.01,2013-11-06 21:09:00,
2013-11-06 15:10:00,57.7,47.2,30.16,North,355,9.0,10.0,68,0.00,,SKC,0.03,VWS V14.01,2013-11-06 21:10:00,
2013-11-06 15:11:00,57.8,46.9,30.17,North,355,5.0,12.0,67,0.00,,SKC,0.03,VWS V14.01,2013-11-06 21:11:00,
2013-11-06 15:12:00,57.9,47.0,30.16,North,10,6.0,13.0,67,0.00,,SKC,0.03,VWS V14.01,2013-11-06 21:12:00,
2013-11-06 15:13:00,57.8,46.9,30.17,North,355,5.0,12.0,67,0.00,,SKC,0.03,VWS V14.01,2013-11-06 21:13:00,
2013-11-06 15:14:00,57.7,46.0,30.17,NE,43,11.0,14.0,65,0.00,,SKC,0.03,VWS V14.01,2013-11-06 21:14:00,
2013-11-06 15:15:00,57.5,45.8,30.17,North,360,9.0,14.0,65,0.00,,SKC,0.03,VWS V14.01,2013-11-06 21:15:00,
2013-11-06 15:16:00,57.3,46.0,30.17,North,360,4.0,10.0,66,0.00,,SKC,0.03,VWS V14.01,2013-11-06 21:16:00,
2013-11-06 15:17:00,57.2,46.4,30.17,NNW,347,8.0,11.0,67,0.00,,SKC,0.03,VWS V14.01,2013-11-06 21:17:00,
2013-11-06 15:18:00,57.4,46.2,30.17,North,5,3.0,10.0,66,0.00,,SKC,0.03,VWS V14.01,2013-11-06 21:18:00,
2013-11-06 15:19:00,57.2,46.4,30.17,North,355,6.0,11.0,67,0.00,,SKC,0.03,VWS V14.01,2013-11-06 21:19:00,
2013-11-06 15:20:00,57.3,46.8,30.16,NNW,333,4.0,10.0,68,0.00,,SKC,0.03,VWS V14.01,2013-11-06 21:20:00,
2013-11-06 15:21:00,57.4,46.5,30.16,NNW,331,6.0,15.0,67,0.00,,SKC,0.03,VWS V14.01,2013-11-06 21:21:00,
2013-11-06 15:22:00,57.5,46.2,30.16,North,355,9.0,12.0,66,0.00,,SKC,0.03,VWS V14.01,2013-11-06 21:22:00,
2013-11-06 15:23:00,57.4,46.5,30.16,NNW,332,6.0,15.0,67,0.00,,SKC,0.03,VWS V14.01,2013-11-06 21:23:00,
2013-11-06 15:24:00,57.6,46.3,30.16,NNE,13,9.0,13.0,66,0.00,,SKC,0.03,VWS V14.01,2013-11-06 21:24:00,
2013-11-06 15:25:00,57.6,45.9,30.16,NNW,337,9.0,14.0,65,0.00,,SKC,0.03,VWS V14.01,2013-11-06 21:25:00,
2013-11-06 15:26:00,57.5,45.8,30.17,North,360,12.0,15.0,65,0.00,,SKC,0.03,VWS V14.01,2013-11-06 21:26:00,
2013-11-06 15:27:00,57.5,45.8,30.16,North,5,12.0,15.0,65,0.00,,SKC,0.03,VWS V14.01,2013-11-06 21:27:00,
2013-11-06 15:28:00,57.5,45.8,30.17,NNE,14,7.0,15.0,65,0.00,,SKC,0.03,VWS V14.01,2013-11-06 21:28:00,
2013-11-06 15:29:00,57.4,46.2,30.17,North,360,3.0,12.0,66,0.00,,SKC,0.03,VWS V14.01,2013-11-06 21:29:00,
2013-11-06 15:30:00,57.4,46.2,30.17,North,360,7.0,10.0,66,0.00,,SKC,0.03,VWS V14.01,2013-11-06 21:30:00,
2013-11-06 15:31:00,57.3,46.0,30.17,NNE,29,7.0,10.0,66,0.00,,SKC,0.03,VWS V14.01,2013-11-06 21:31:00,
2013-11-06 15:32:00,57.2,45.6,30.16,NW,322,4.0,13.0,65,0.00,,SKC,0.03,VWS V14.01,2013-11-06 21:32:00,
2013-11-06 15:33:00,57.3,46.0,30.17,North,10,6.0,10.0,66,0.00,,SKC,0.03,VWS V14.01,2013-11-06 21:33:00,
2013-11-06 15:34:00,57.1,45.9,30.16,North,350,7.0,11.0,66,0.00,,SKC,0.03,VWS V14.01,2013-11-06 21:34:00,
2013-11-06 15:35:00,57.0,45.8,30.16,North,5,5.0,8.0,66,0.00,,SKC,0.03,VWS V14.01,2013-11-06 21:35:00,
2013-11-06 15:36:00,56.9,46.1,30.16,North,355,6.0,10.0,67,0.00,,SKC,0.03,VWS V14.01,2013-11-06 21:36:00,
2013-11-06 15:37:00,56.8,46.0,30.16,NE,34,10.0,10.0,67,0.00,,SKC,0.03,VWS V14.01,2013-11-06 21:37:00,
2013-11-06 15:38:00,56.9,46.1,30.16,North,355,9.0,10.0,67,0.00,,SKC,0.03,VWS V14.01,2013-11-06 21:38:00,
2013-11-06 15:39:00,56.7,45.9,30.16,North,355,5.0,10.0,67,0.00,,SKC,0.03,VWS V14.01,2013-11-06 21:39:00,
2013-11-06 15:40:00,56.7,46.3,30.16,North,360,4.0,7.0,68,0.00,,SKC,0.03,VWS V14.01,2013-11-06 21:40:00,
2013-11-06 15:41:00,56.8,46.4,30.16,NNE,33,5.0,12.0,68,0.00,,SKC,0.03,VWS V14.01,2013-11-06 21:41:00,
2013-11-06 15:42:00,56.9,46.8,30.16,NW,314,2.0,7.0,69,0.00,,SKC,0.03,VWS V14.01,2013-11-06 21:42:00,
2013-11-06 15:43:00,56.8,46.4,30.16,NNE,32,12.0,12.0,68,0.00,,SKC,0.03,VWS V14.01,2013-11-06 21:43:00,
2013-11-06 15:44:00,57.1,46.3,30.16,NNW,348,7.0,13.0,67,0.00,,SKC,0.03,VWS V14.01,2013-11-06 21:44:00,
2013-11-06 15:45:00,57.2,46.4,30.16,NNE,26,12.0,12.0,67,0.00,,SKC,0.03,VWS V14.01,2013-11-06 21:45:00,
2013-11-06 15:46:00,57.3,46.5,30.16,North,5,6.0,12.0,67,0.00,,SKC,0.03,VWS V14.01,2013-11-06 21:46:00,
2013-11-06 15:47:00,57.5,46.6,30.17,NNE,22,5.0,7.0,67,0.00,,SKC,0.03,VWS V14.01,2013-11-06 21:47:00,
2013-11-06 15:48:00,57.3,46.5,30.16,North,360,7.0,12.0,67,0.00,,SKC,0.03,VWS V14.01,2013-11-06 21:48:00,
2013-11-06 15:49:00,57.8,46.5,30.16,NNE,16,6.0,14.0,66,0.00,,SKC,0.03,VWS V14.01,2013-11-06 21:49:00,
2013-11-06 15:50:00,57.9,46.6,30.16,North,360,7.0,13.0,66,0.00,,SKC,0.03,VWS V14.01,2013-11-06 21:50:00,
2013-11-06 15:51:00,58.0,46.7,30.16,NNE,28,5.0,11.0,66,0.00,,SKC,0.03,VWS V14.01,2013-11-06 21:51:00,
2013-11-06 15:52:00,58.1,46.8,30.16,North,5,10.0,11.0,66,0.00,,SKC,0.03,VWS V14.01,2013-11-06 21:52:00,
2013-11-06 15:53:00,58.0,46.7,30.16,NNE,25,7.0,11.0,66,0.00,,SKC,0.03,VWS V14.01,2013-11-06 21:53:00,
2013-11-06 15:54:00,58.4,47.1,30.17,North,360,10.0,11.0,66,0.00,,SKC,0.03,VWS V14.01,2013-11-06 21:54:00,
2013-11-06 15:55:00,58.4,46.3,30.17,NNE,21,7.0,11.0,64,0.00,,SKC,0.03,VWS V14.01,2013-11-06 21:55:00,
2013-11-06 15:56:00,58.4,46.7,30.17,North,360,5.0,10.0,65,0.00,,SKC,0.03,VWS V14.01,2013-11-06 21:56:00,
2013-11-06 15:57:00,58.5,46.8,30.17,NNW,342,5.0,9.0,65,0.00,,SKC,0.03,VWS V14.01,2013-11-06 21:57:00,
2013-11-06 15:58:00,58.4,46.7,30.17,NNE,22,6.0,10.0,65,0.00,,SKC,0.03,VWS V14.01,2013-11-06 21:58:00,
2013-11-06 15:59:00,58.5,46.8,30.17,North,360,6.0,14.0,65,0.00,,SKC,0.03,VWS V14.01,2013-11-06 21:59:00,
2013-11-06 16:00:00,58.5,46.8,30.17,NW,324,9.0,9.0,65,0.00,,SKC,0.03,VWS V14.01,2013-11-06 22:00:00,
2013-11-06 16:01:00,58.5,46.8,30.17,NNW,348,3.0,11.0,65,0.00,,SKC,0.03,VWS V14.01,2013-11-06 22:01:00,
2013-11-06 16:02:00,58.4,46.7,30.17,NNE,15,3.0,9.0,65,0.00,,SKC,0.03,VWS V14.01,2013-11-06 22:02:00,
2013-11-06 16:03:00,58.5,46.8,30.17,North,349,4.0,11.0,65,0.00,,SKC,0.03,VWS V14.01,2013-11-06 22:03:00,
2013-11-06 16:04:00,58.3,47.0,30.17,North,355,7.0,12.0,66,0.00,,SKC,0.03,VWS V14.01,2013-11-06 22:04:00,
2013-11-06 16:05:00,58.3,46.6,30.17,North,360,7.0,10.0,65,0.00,,SKC,0.03,VWS V14.01,2013-11-06 22:05:00,
2013-11-06 16:06:00,58.2,46.9,30.17,North,5,5.0,11.0,66,0.00,,SKC,0.03,VWS V14.01,2013-11-06 22:06:00,
2013-11-06 16:07:00,58.2,46.9,30.17,North,360,6.0,11.0,66,0.00,,SKC,0.03,VWS V14.01,2013-11-06 22:07:00,
2013-11-06 16:08:00,58.2,46.9,30.17,North,9,4.0,11.0,66,0.00,,SKC,0.03,VWS V14.01,2013-11-06 22:08:00,
2013-11-06 16:09:00,58.2,46.9,30.17,NW,323,7.0,11.0,66,0.00,,SKC,0.03,VWS V14.01,2013-11-06 22:09:00,
2013-11-06 16:10:00,58.1,46.4,30.17,NNE,13,10.0,10.0,65,0.00,,SKC,0.03,VWS V14.01,2013-11-06 22:10:00,
2013-11-06 16:11:00,58.1,46.8,30.17,NNE,25,5.0,10.0,66,0.00,,SKC,0.03,VWS V14.01,2013-11-06 22:11:00,
2013-11-06 16:12:00,58.1,46.8,30.17,NNE,13,11.0,13.0,66,0.00,,SKC,0.03,VWS V14.01,2013-11-06 22:12:00,
2013-11-06 16:13:00,58.1,46.8,30.17,NNE,26,7.0,10.0,66,0.00,,SKC,0.03,VWS V14.01,2013-11-06 22:13:00,
2013-11-06 16:14:00,58.0,46.3,30.17,NE,38,6.0,13.0,65,0.00,,SKC,0.03,VWS V14.01,2013-11-06 22:14:00,
2013-11-06 16:15:00,57.8,46.1,30.17,NNE,13,7.0,14.0,65,0.00,,SKC,0.03,VWS V14.01,2013-11-06 22:15:00,
2013-11-06 16:16:00,57.7,46.0,30.16,NNE,19,11.0,11.0,65,0.00,,SKC,0.03,VWS V14.01,2013-11-06 22:16:00,
2013-11-06 16:17:00,57.6,45.9,30.16,NNE,24,6.0,14.0,65,0.00,,SKC,0.03,VWS V14.01,2013-11-06 22:17:00,
2013-11-06 16:18:00,57.7,46.0,30.16,NE,44,10.0,10.0,65,0.00,,SKC,0.03,VWS V14.01,2013-11-06 22:18:00,
2013-11-06 16:19:00,57.5,46.2,30.16,NNE,13,13.0,13.0,66,0.00,,SKC,0.03,VWS V14.01,2013-11-06 22:19:00,
2013-11-06 16:20:00,57.4,46.2,30.16,North,5,10.0,15.0,66,0.00,,SKC,0.03,VWS V14.01,2013-11-06 22:20:00,
2013-11-06 16:21:00,57.4,45.8,30.16,NNE,16,7.0,14.0,65,0.00,,SKC,0.03,VWS V14.01,2013-11-06 22:21:00,
2013-11-06 16:22:00,57.4,45.8,30.16,North,11,8.0,16.0,65,0.00,,SKC,0.03,VWS V14.01,2013-11-06 22:22:00,
2013-11-06 16:23:00,57.4,45.8,30.16,North,360,9.0,14.0,65,0.00,,SKC,0.03,VWS V14.01,2013-11-06 22:23:00,
2013-11-06 16:24:00,57.5,46.2,30.16,NNW,329,9.0,16.0,66,0.00,,SKC,0.03,VWS V14.01,2013-11-06 22:24:00,
2013-11-06 16:25:00,57.5,45.8,30.16,North,5,16.0,16.0,65,0.00,,SKC,0.03,VWS V14.01,2013-11-06 22:25:00,
2013-11-06 16:26:00,57.5,45.4,30.16,North,5,7.0,16.0,64,0.00,,SKC,0.03,VWS V14.01,2013-11-06 22:26:00,
2013-11-06 16:27:00,57.6,45.5,30.16,North,5,4.0,9.0,64,0.00,,SKC,0.03,VWS V14.01,2013-11-06 22:27:00,
2013-11-06 16:28:00,57.5,45.4,30.16,North,360,10.0,16.0,64,0.00,,SKC,0.03,VWS V14.01,2013-11-06 22:28:00,
2013-11-06 16:29:00,57.7,45.2,30.16,North,360,12.0,18.0,63,0.00,,SKC,0.03,VWS V14.01,2013-11-06 22:29:00,
2013-11-06 16:30:00,57.7,45.2,30.16,NE,35,13.0,16.0,63,0.00,,SKC,0.03,VWS V14.01,2013-11-06 22:30:00,
2013-11-06 16:31:00,57.6,45.1,30.16,North,5,9.0,14.0,63,0.00,,SKC,0.03,VWS V14.01,2013-11-06 22:31:00,
2013-11-06 16:32:00,57.6,45.5,30.16,North,5,10.0,13.0,64,0.00,,SKC,0.03,VWS V14.01,2013-11-06 22:32:00,
2013-11-06 16:33:00,57.6,45.1,30.16,NNE,13,9.0,14.0,63,0.00,,SKC,0.03,VWS V14.01,2013-11-06 22:33:00,
2013-11-06 16:34:00,57.6,45.5,30.16,NNE,28,15.0,15.0,64,0.00,,SKC,0.03,VWS V14.01,2013-11-06 22:34:00,
2013-11-06 16:35:00,57.6,45.1,30.16,NNE,15,6.0,17.0,63,0.00,,SKC,0.03,VWS V14.01,2013-11-06 22:35:00,
2013-11-06 16:36:00,57.6,45.1,30.16,North,360,6.0,10.0,63,0.00,,SKC,0.03,VWS V14.01,2013-11-06 22:36:00,
2013-11-06 16:37:00,57.6,45.1,30.16,NNW,348,7.0,16.0,63,0.00,,SKC,0.03,VWS V14.01,2013-11-06 22:37:00,
2013-11-06 16:38:00,57.6,45.1,30.16,NNW,345,4.0,10.0,63,0.00,,SKC,0.03,VWS V14.01,2013-11-06 22:38:00,
2013-11-06 16:39:00,57.6,45.5,30.16,North,355,6.0,11.0,64,0.00,,SKC,0.03,VWS V14.01,2013-11-06 22:39:00,
2013-11-06 16:40:00,57.5,45.4,30.16,NNW,334,11.0,15.0,64,0.00,,SKC,0.03,VWS V14.01,2013-11-06 22:40:00,
2013-11-06 16:41:00,57.5,45.4,30.16,North,11,11.0,11.0,64,0.00,,SKC,0.03,VWS V14.01,2013-11-06 22:41:00,
2013-11-06 16:42:00,57.5,45.4,30.16,North,5,8.0,11.0,64,0.00,,SKC,0.03,VWS V14.01,2013-11-06 22:42:00,
2013-11-06 16:43:00,57.5,45.4,30.16,NNE,14,11.0,11.0,64,0.00,,SKC,0.03,VWS V14.01,2013-11-06 22:43:00,
2013-11-06 16:44:00,57.5,45.4,30.16,North,355,11.0,14.0,64,0.00,,SKC,0.03,VWS V14.01,2013-11-06 22:44:00,
2013-11-06 16:45:00,57.5,45.4,30.16,NNE,25,13.0,16.0,64,0.00,,SKC,0.03,VWS V14.01,2013-11-06 22:45:00,
2013-11-06 16:46:00,57.4,45.3,30.16,North,355,11.0,17.0,64,0.00,,SKC,0.03,VWS V14.01,2013-11-06 22:46:00,
2013-11-06 16:47:00,57.4,45.3,30.16,NNE,17,12.0,14.0,64,0.00,,SKC,0.03,VWS V14.01,2013-11-06 22:47:00,
2013-11-06 16:48:00,57.4,45.3,30.16,North,355,11.0,17.0,64,0.00,,SKC,0.03,VWS V14.01,2013-11-06 22:48:00,
2013-11-06 16:49:00,57.3,45.2,30.16,NNE,17,5.0,12.0,64,0.00,,SKC,0.03,VWS V14.01,2013-11-06 22:49:00,
2013-11-06 16:50:00,57.3,45.7,30.16,North,360,6.0,7.0,65,0.00,,SKC,0.03,VWS V14.01,2013-11-06 22:50:00,
2013-11-06 16:51:00,57.3,45.7,30.16,North,355,9.0,15.0,65,0.00,,SKC,0.03,VWS V14.01,2013-11-06 22:51:00,
2013-11-06 16:52:00,57.3,45.7,30.16,North,10,6.0,9.0,65,0.00,,SKC,0.03,VWS V14.01,2013-11-06 22:52:00,
2013-11-06 16:53:00,57.3,45.7,30.16,North,11,10.0,15.0,65,0.00,,SKC,0.03,VWS V14.01,2013-11-06 22:53:00,
2013-11-06 16:54:00,57.2,45.6,30.16,NNE,22,4.0,9.0,65,0.00,,SKC,0.03,VWS V14.01,2013-11-06 22:54:00,
2013-11-06 16:55:00,57.2,45.6,30.17,NNW,339,4.0,7.0,65,0.00,,SKC,0.03,VWS V14.01,2013-11-06 22:55:00,
2013-11-06 16:56:00,57.3,45.7,30.17,NNW,334,3.0,10.0,65,0.00,,SKC,0.03,VWS V14.01,2013-11-06 22:56:00,
2013-11-06 16:57:00,57.3,45.7,30.17,North,360,4.0,10.0,65,0.00,,SKC,0.03,VWS V14.01,2013-11-06 22:57:00,
2013-11-06 16:58:00,57.2,45.6,30.17,NNW,333,6.0,10.0,65,0.00,,SKC,0.03,VWS V14.01,2013-11-06 22:58:00,
2013-11-06 16:59:00,57.2,45.6,30.17,NNE,14,5.0,14.0,65,0.00,,SKC,0.03,VWS V14.01,2013-11-06 22:59:00,
2013-11-06 17:00:00,57.2,45.6,30.17,NNE,30,6.0,10.0,65,0.00,,SKC,0.03,VWS V14.01,2013-11-06 23:00:00,
2013-11-06 17:01:00,57.2,45.6,30.17,NNE,20,9.0,10.0,65,0.00,,SKC,0.03,VWS V14.01,2013-11-06 23:01:00,
2013-11-06 17:02:00,57.2,46.0,30.17,North,5,6.0,9.0,66,0.00,,SKC,0.03,VWS V14.01,2013-11-06 23:02:00,
2013-11-06 17:03:00,57.2,45.6,30.17,NNE,20,9.0,10.0,65,0.00,,SKC,0.03,VWS V14.01,2013-11-06 23:03:00,
2013-11-06 17:04:00,57.1,45.9,30.17,NW,326,7.0,11.0,66,0.00,,SKC,0.03,VWS V14.01,2013-11-06 23:04:00,
2013-11-06 17:05:00,57.1,45.9,30.17,North,360,10.0,15.0,66,0.00,,SKC,0.03,VWS V14.01,2013-11-06 23:05:00,
2013-11-06 17:06:00,57.1,45.9,30.17,North,5,7.0,11.0,66,0.00,,SKC,0.03,VWS V14.01,2013-11-06 23:06:00,
2013-11-06 17:07:00,57.0,45.8,30.17,North,5,6.0,11.0,66,0.00,,SKC,0.03,VWS V14.01,2013-11-06 23:07:00,
2013-11-06 17:08:00,57.1,45.9,30.17,North,5,7.0,11.0,66,0.00,,SKC,0.03,VWS V14.01,2013-11-06 23:08:00,
2013-11-06 17:09:00,56.9,45.7,30.17,NNE,13,4.0,5.0,66,0.00,,SKC,0.03,VWS V14.01,2013-11-06 23:09:00,
2013-11-06 17:10:00,56.9,46.1,30.17,North,360,3.0,6.0,67,0.00,,SKC,0.03,VWS V14.01,2013-11-06 23:10:00,
2013-11-06 17:11:00,56.9,46.1,30.17,NNE,26,4.0,6.0,67,0.00,,SKC,0.03,VWS V14.01,2013-11-06 23:11:00,
2013-11-06 17:12:00,56.8,46.0,30.17,NNE,14,7.0,11.0,67,0.00,,SKC,0.03,VWS V14.01,2013-11-06 23:12:00,
2013-11-06 17:13:00,56.9,46.1,30.17,NNE,26,4.0,6.0,67,0.00,,SKC,0.03,VWS V14.01,2013-11-06 23:13:00,
2013-11-06 17:14:00,56.8,46.0,30.17,North,351,8.0,11.0,67,0.00,,SKC,0.03,VWS V14.01,2013-11-06 23:14:00,
2013-11-06 17:15:00,56.7,45.9,30.17,North,5,10.0,13.0,67,0.00,,SKC,0.03,VWS V14.01,2013-11-06 23:15:00,
2013-11-06 17:16:00,56.7,45.9,30.17,NNE,15,7.0,10.0,67,0.00,,SKC,0.03,VWS V14.01,2013-11-06 23:16:00,
2013-11-06 17:17:00,56.7,45.9,30.17,North,11,3.0,7.0,67,0.00,,SKC,0.03,VWS V14.01,2013-11-06 23:17:00,
2013-11-06 17:18:00,56.7,45.9,30.17,NNE,19,8.0,10.0,67,0.00,,SKC,0.03,VWS V14.01,2013-11-06 23:18:00,
2013-11-06 17:19:00,56.6,45.8,30.17,North,9,4.0,9.0,67,0.00,,SKC,0.03,VWS V14.01,2013-11-06 23:19:00,
2013-11-06 17:20:00,56.6,45.8,30.17,North,5,10.0,10.0,67,0.00,,SKC,0.03,VWS V14.01,2013-11-06 23:20:00,
2013-11-06 17:21:00,56.6,45.8,30.17,North,355,10.0,11.0,67,0.00,,SKC,0.03,VWS V14.01,2013-11-06 23:21:00,
2013-11-06 17:22:00,56.5,45.7,30.17,North,360,4.0,11.0,67,0.00,,SKC,0.03,VWS V14.01,2013-11-06 23:22:00,
2013-11-06 17:23:00,56.6,45.8,30.17,North,355,10.0,11.0,67,0.00,,SKC,0.03,VWS V14.01,2013-11-06 23:23:00,
2013-11-06 17:24:00,56.4,45.6,30.17,North,355,6.0,7.0,67,0.00,,SKC,0.03,VWS V14.01,2013-11-06 23:24:00,
2013-11-06 17:25:00,56.4,45.6,30.17,NNE,26,6.0,12.0,67,0.00,,SKC,0.03,VWS V14.01,2013-11-06 23:25:00,
2013-11-06 17:26:00,56.4,45.6,30.18,North,9,8.0,8.0,67,0.00,,SKC,0.03,VWS V14.01,2013-11-06 23:26:00,
2013-11-06 17:27:00,56.3,45.5,30.18,NE,44,6.0,8.0,67,0.00,,SKC,0.03,VWS V14.01,2013-11-06 23:27:00,
2013-11-06 17:28:00,56.4,45.6,30.18,North,9,8.0,8.0,67,0.00,,SKC,0.03,VWS V14.01,2013-11-06 23:28:00,
2013-11-06 17:29:00,56.2,45.4,30.18,North,9,3.0,9.0,67,0.00,,SKC,0.03,VWS V14.01,2013-11-06 23:29:00,
2013-11-06 17:30:00,56.2,45.4,30.18,NNE,12,7.0,7.0,67,0.00,,SKC,0.03,VWS V14.01,2013-11-06 23:30:00,
2013-11-06 17:31:00,56.1,45.3,30.18,North,5,6.0,11.0,67,0.00,,SKC,0.03,VWS V14.01,2013-11-06 23:31:00,
2013-11-06 17:32:00,56.1,45.3,30.18,NNE,14,6.0,7.0,67,0.00,,SKC,0.03,VWS V14.01,2013-11-06 23:32:00,
2013-11-06 17:33:00,56.1,45.3,30.18,North,10,6.0,11.0,67,0.00,,SKC,0.03,VWS V14.01,2013-11-06 23:33:00,
2013-11-06 17:34:00,56.0,45.2,30.18,North,350,5.0,9.0,67,0.00,,SKC,0.03,VWS V14.01,2013-11-06 23:34:00,
2013-11-06 17:35:00,55.9,45.1,30.18,NNE,13,2.0,6.0,67,0.00,,SKC,0.03,VWS V14.01,2013-11-06 23:35:00,
2013-11-06 17:36:00,55.9,45.1,30.18,NNE,30,5.0,7.0,67,0.00,,SKC,0.03,VWS V14.01,2013-11-06 23:36:00,
2013-11-06 17:37:00,55.8,45.4,30.18,North,5,7.0,10.0,68,0.00,,SKC,0.03,VWS V14.01,2013-11-06 23:37:00,
2013-11-06 17:38:00,55.9,45.1,30.18,NNE,26,4.0,7.0,67,0.00,,SKC,0.03,VWS V14.01,2013-11-06 23:38:00,
2013-11-06 17:39:00,55.7,45.3,30.18,North,9,6.0,7.0,68,0.00,,SKC,0.03,VWS V14.01,2013-11-06 23:39:00,
2013-11-06 17:40:00,55.7,45.3,30.19,North,360,5.0,9.0,68,0.00,,SKC,0.03,VWS V14.01,2013-11-06 23:40:00,
2013-11-06 17:41:00,55.6,45.2,30.19,North,360,4.0,7.0,68,0.00,,SKC,0.03,VWS V14.01,2013-11-06 23:41:00,
2013-11-06 17:42:00,55.6,45.2,30.19,North,360,5.0,7.0,68,0.00,,SKC,0.03,VWS V14.01,2013-11-06 23:42:00,
2013-11-06 17:43:00,55.6,45.2,30.19,North,5,4.0,7.0,68,0.00,,SKC,0.03,VWS V14.01,2013-11-06 23:43:00,
2013-11-06 17:44:00,55.4,45.0,30.19,North,5,8.0,9.0,68,0.00,,SKC,0.03,VWS V14.01,2013-11-06 23:44:00,
2013-11-06 17:45:00,55.4,45.0,30.19,NNE,30,4.0,12.0,68,0.00,,SKC,0.03,VWS V14.01,2013-11-06 23:45:00,
2013-11-06 17:46:00,55.4,45.0,30.19,North,5,6.0,10.0,68,0.00,,SKC,0.03,VWS V14.01,2013-11-06 23:46:00,
2013-11-06 17:47:00,55.3,44.9,30.19,North,9,5.0,10.0,68,0.00,,SKC,0.03,VWS V14.01,2013-11-06 23:47:00,
2013-11-06 17:48:00,55.4,45.0,30.19,North,355,8.0,10.0,68,0.00,,SKC,0.03,VWS V14.01,2013-11-06 23:48:00,
2013-11-06 17:49:00,55.2,44.8,30.19,NNE,19,5.0,9.0,68,0.00,,SKC,0.03,VWS V14.01,2013-11-06 23:49:00,
2013-11-06 17:50:00,55.2,44.8,30.19,North,5,5.0,10.0,68,0.00,,SKC,0.03,VWS V14.01,2013-11-06 23:50:00,
2013-11-06 17:51:00,55.1,44.7,30.19,NE,35,5.0,7.0,68,0.00,,SKC,0.03,VWS V14.01,2013-11-06 23:51:00,
2013-11-06 17:52:00,55.1,44.7,30.19,North,5,6.0,7.0,68,0.00,,SKC,0.03,VWS V14.01,2013-11-06 23:52:00,
2013-11-06 17:53:00,55.2,44.8,30.19,North,360,5.0,7.0,68,0.00,,SKC,0.03,VWS V14.01,2013-11-06 23:53:00,
2013-11-06 17:54:00,55.0,44.3,30.19,NNE,12,4.0,9.0,67,0.00,,SKC,0.03,VWS V14.01,2013-11-06 23:54:00,
2013-11-06 17:55:00,55.0,44.3,30.19,NNE,19,13.0,13.0,67,0.00,,SKC,0.03,VWS V14.01,2013-11-06 23:55:00,
2013-11-06 17:56:00,54.9,44.2,30.19,North,9,7.0,13.0,67,0.00,,SKC,0.03,VWS V14.01,2013-11-06 23:56:00,
2013-11-06 17:57:00,54.8,43.7,30.19,North,5,5.0,11.0,66,0.00,,SKC,0.03,VWS V14.01,2013-11-06 23:57:00,
2013-11-06 17:58:00,54.9,44.2,30.19,North,9,7.0,13.0,67,0.00,,SKC,0.03,VWS V14.01,2013-11-06 23:58:00,
2013-11-06 17:59:00,54.8,43.7,30.19,NNE,22,13.0,18.0,66,0.00,,SKC,0.03,VWS V14.01,2013-11-06 23:59:00,
2013-11-06 18:00:00,54.8,43.3,30.19,NNE,13,7.0,13.0,65,0.00,,SKC,0.03,VWS V14.01,2013-11-07 00:00:00,
2013-11-06 18:01:00,54.8,43.3,30.19,North,355,4.0,7.0,65,0.00,,SKC,0.03,VWS V14.01,2013-11-07 00:01:00,
2013-11-06 18:02:00,54.8,43.7,30.19,North,11,6.0,7.0,66,0.00,,SKC,0.03,VWS V14.01,2013-11-07 00:02:00,
2013-11-06 18:03:00,54.8,43.3,30.19,North,355,4.0,7.0,65,0.00,,SKC,0.03,VWS V14.01,2013-11-07 00:03:00,
2013-11-06 18:04:00,54.7,43.2,30.19,North,9,4.0,9.0,65,0.00,,SKC,0.03,VWS V14.01,2013-11-07 00:04:00,
2013-11-06 18:05:00,54.7,43.2,30.20,North,355,5.0,11.0,65,0.00,,SKC,0.03,VWS V14.01,2013-11-07 00:05:00,
2013-11-06 18:06:00,54.6,43.1,30.20,NE,51,9.0,9.0,65,0.00,,SKC,0.03,VWS V14.01,2013-11-07 00:06:00,
2013-11-06 18:07:00,54.6,43.1,30.20,NNE,14,6.0,12.0,65,0.00,,SKC,0.03,VWS V14.01,2013-11-07 00:07:00,
2013-11-06 18:08:00,54.6,43.1,30.20,NNE,14,8.0,9.0,65,0.00,,SKC,0.03,VWS V14.01,2013-11-07 00:08:00,
2013-11-06 18:09:00,54.6,43.1,30.20,North,5,2.0,5.0,65,0.00,,SKC,0.03,VWS V14.01,2013-11-07 00:09:00,
2013-11-06 18:10:00,54.6,43.1,30.20,North,5,6.0,9.0,65,0.00,,SKC,0.03,VWS V14.01,2013-11-07 00:10:00,
2013-11-06 18:11:00,54.5,42.6,30.20,NNW,348,6.0,13.0,64,0.00,,SKC,0.03,VWS V14.01,2013-11-07 00:11:00,
2013-11-06 18:12:00,54.5,42.6,30.20,North,350,8.0,9.0,64,0.00,,SKC,0.03,VWS V14.01,2013-11-07 00:12:00,
2013-11-06 18:13:00,54.5,42.6,30.20,North,360,5.0,13.0,64,0.00,,SKC,0.03,VWS V14.01,2013-11-07 00:13:00,
2013-11-06 18:14:00,54.5,42.6,30.20,North,360,3.0,7.0,64,0.00,,SKC,0.03,VWS V14.01,2013-11-07 00:14:00,
2013-11-06 18:15:00,54.4,42.5,30.20,NE,34,4.0,6.0,64,0.00,,SKC,0.03,VWS V14.01,2013-11-07 00:15:00,
2013-11-06 18:16:00,54.4,42.5,30.20,North,5,7.0,7.0,64,0.00,,SKC,0.03,VWS V14.01,2013-11-07 00:16:00,
2013-11-06 18:17:00,54.3,42.4,30.21,North,5,5.0,10.0,64,0.00,,SKC,0.03,VWS V14.01,2013-11-07 00:17:00,
2013-11-06 18:18:00,54.4,42.5,30.20,North,11,0.0,4.0,64,0.00,,SKC,0.03,VWS V14.01,2013-11-07 00:18:00,
2013-11-06 18:19:00,54.3,42.4,30.21,NE,37,6.0,9.0,64,0.00,,SKC,0.03,VWS V14.01,2013-11-07 00:19:00,
2013-11-06 18:20:00,54.2,42.3,30.21,NNE,28,4.0,7.0,64,0.00,,SKC,0.03,VWS V14.01,2013-11-07 00:20:00,
2013-11-06 18:21:00,54.2,42.3,30.21,NE,36,6.0,9.0,64,0.00,,SKC,0.03,VWS V14.01,2013-11-07 00:21:00,
2013-11-06 18:22:00,54.2,42.3,30.21,NNE,19,10.0,10.0,64,0.00,,SKC,0.03,VWS V14.01,2013-11-07 00:22:00,
2013-11-06 18:23:00,54.2,42.3,30.21,NE,37,6.0,9.0,64,0.00,,SKC,0.03,VWS V14.01,2013-11-07 00:23:00,
2013-11-06 18:24:00,54.1,42.2,30.21,NNE,13,6.0,10.0,64,0.00,,SKC,0.03,VWS V14.01,2013-11-07 00:24:00,
2013-11-06 18:25:00,54.1,42.2,30.21,North,5,5.0,6.0,64,0.00,,SKC,0.03,VWS V14.01,2013-11-07 00:25:00,
2013-11-06 18:26:00,54.1,42.6,30.21,NNE,28,4.0,7.0,65,0.00,,SKC,0.03,VWS V14.01,2013-11-07 00:26:00,
2013-11-06 18:27:00,54.0,42.5,30.21,North,11,7.0,7.0,65,0.00,,SKC,0.03,VWS V14.01,2013-11-07 00:27:00,
2013-11-06 18:28:00,54.1,42.6,30.21,NNE,17,3.0,7.0,65,0.00,,SKC,0.03,VWS V14.01,2013-11-07 00:28:00,
2013-11-06 18:29:00,54.0,42.5,30.21,NNE,22,4.0,9.0,65,0.00,,SKC,0.03,VWS V14.01,2013-11-07 00:29:00,
2013-11-06 18:30:00,53.9,42.4,30.21,NNE,33,5.0,7.0,65,0.00,,SKC,0.03,VWS V14.01,2013-11-07 00:30:00,
2013-11-06 18:31:00,53.9,42.4,30.21,NNE,25,10.0,10.0,65,0.00,,SKC,0.03,VWS V14.01,2013-11-07 00:31:00,
2013-11-06 18:32:00,53.9,42.4,30.21,NNE,17,3.0,10.0,65,0.00,,SKC,0.03,VWS V14.01,2013-11-07 00:32:00,
2013-11-06 18:33:00,53.9,42.4,30.21,NNE,25,10.0,10.0,65,0.00,,SKC,0.03,VWS V14.01,2013-11-07 00:33:00,
2013-11-06 18:34:00,53.8,42.3,30.21,North,5,8.0,8.0,65,0.00,,SKC,0.03,VWS V14.01,2013-11-07 00:34:00,
2013-11-06 18:35:00,53.8,42.3,30.21,NNE,18,5.0,11.0,65,0.00,,SKC,0.03,VWS V14.01,2013-11-07 00:35:00,
2013-11-06 18:36:00,53.7,42.2,30.21,North,11,3.0,6.0,65,0.00,,SKC,0.03,VWS V14.01,2013-11-07 00:36:00,
2013-11-06 18:37:00,53.7,42.6,30.21,NNE,17,5.0,9.0,66,0.00,,SKC,0.03,VWS V14.01,2013-11-07 00:37:00,
2013-11-06 18:38:00,53.7,42.2,30.21,North,11,3.0,6.0,65,0.00,,SKC,0.03,VWS V14.01,2013-11-07 00:38:00,
2013-11-06 18:39:00,53.6,42.5,30.21,NNW,345,9.0,9.0,66,0.00,,SKC,0.03,VWS V14.01,2013-11-07 00:39:00,
2013-11-06 18:40:00,53.6,42.5,30.21,North,9,5.0,12.0,66,0.00,,SKC,0.03,VWS V14.01,2013-11-07 00:40:00,
2013-11-06 18:41:00,53.5,42.4,30.22,North,11,5.0,9.0,66,0.00,,SKC,0.03,VWS V14.01,2013-11-07 00:41:00,
2013-11-06 18:42:00,53.5,42.4,30.22,North,5,4.0,5.0,66,0.00,,SKC,0.03,VWS V14.01,2013-11-07 00:42:00,
2013-11-06 18:43:00,53.5,42.4,30.21,North,11,5.0,9.0,66,0.00,,SKC,0.03,VWS V14.01,2013-11-07 00:43:00,
2013-11-06 18:44:00,53.4,42.3,30.22,NNE,13,7.0,10.0,66,0.00,,SKC,0.03,VWS V14.01,2013-11-07 00:44:00,
2013-11-06 18:45:00,53.4,42.3,30.22,NNW,346,10.0,12.0,66,0.00,,SKC,0.03,VWS V14.01,2013-11-07 00:45:00,
2013-11-06 18:46:00,53.4,42.3,30.22,NNE,12,7.0,11.0,66,0.00,,SKC,0.03,VWS V14.01,2013-11-07 00:46:00,
2013-11-06 18:47:00,53.4,42.3,30.22,NNE,15,7.0,7.0,66,0.00,,SKC,0.03,VWS V14.01,2013-11-07 00:47:00,
2013-11-06 18:48:00,53.4,42.3,30.22,NNE,33,8.0,11.0,66,0.00,,SKC,0.03,VWS V14.01,2013-11-07 00:48:00,
2013-11-06 18:49:00,53.4,42.3,30.22,NNE,19,5.0,9.0,66,0.00,,SKC,0.03,VWS V14.01,2013-11-07 00:49:00,
2013-11-06 18:50:00,53.3,42.2,30.22,NNE,18,6.0,9.0,66,0.00,,SKC,0.03,VWS V14.01,2013-11-07 00:50:00,
2013-11-06 18:51:00,53.3,42.2,30.22,North,350,10.0,10.0,66,0.00,,SKC,0.03,VWS V14.01,2013-11-07 00:51:00,
2013-11-06 18:52:00,53.3,42.2,30.22,North,5,10.0,11.0,66,0.00,,SKC,0.03,VWS V14.01,2013-11-07 00:52:00,
2013-11-06 18:53:00,53.3,42.2,30.22,North,349,9.0,9.0,66,0.00,,SKC,0.03,VWS V14.01,2013-11-07 00:53:00,
2013-11-06 18:54:00,53.3,42.2,30.22,North,355,4.0,7.0,66,0.00,,SKC,0.03,VWS V14.01,2013-11-07 00:54:00,
2013-11-06 18:55:00,53.3,42.2,30.22,North,360,11.0,12.0,66,0.00,,SKC,0.03,VWS V14.01,2013-11-07 00:55:00,
2013-11-06 18:56:00,53.3,42.2,30.22,NNE,24,4.0,11.0,66,0.00,,SKC,0.03,VWS V14.01,2013-11-07 00:56:00,
2013-11-06 18:57:00,53.3,42.2,30.22,North,9,5.0,6.0,66,0.00,,SKC,0.03,VWS V14.01,2013-11-07 00:57:00,
2013-11-06 18:58:00,53.3,42.2,30.22,NNE,24,4.0,11.0,66,0.00,,SKC,0.03,VWS V14.01,2013-11-07 00:58:00,
2013-11-06 18:59:00,53.2,42.2,30.22,North,355,5.0,12.0,66,0.00,,SKC,0.03,VWS V14.01,2013-11-07 00:59:00,
2013-11-06 19:00:00,53.2,42.2,30.22,North,5,5.0,10.0,66,0.00,,SKC,0.03,VWS V14.01,2013-11-07 01:00:00,
2013-11-06 19:01:00,53.2,42.2,30.22,NNW,344,5.0,9.0,66,0.00,,SKC,0.03,VWS V14.01,2013-11-07 01:01:00,
2013-11-06 19:02:00,53.2,42.2,30.22,North,10,12.0,12.0,66,0.00,,SKC,0.03,VWS V14.01,2013-11-07 01:02:00,
2013-11-06 19:03:00,53.2,42.2,30.22,North,355,5.0,9.0,66,0.00,,SKC,0.03,VWS V14.01,2013-11-07 01:03:00,
2013-11-06 19:04:00,53.1,42.1,30.22,North,11,5.0,9.0,66,0.00,,SKC,0.03,VWS V14.01,2013-11-07 01:04:00,
2013-11-06 19:05:00,53.1,42.1,30.22,NNE,24,10.0,12.0,66,0.00,,SKC,0.03,VWS V14.01,2013-11-07 01:05:00,
2013-11-06 19:06:00,53.1,42.1,30.22,North,5,4.0,10.0,66,0.00,,SKC,0.03,VWS V14.01,2013-11-07 01:06:00,
2013-11-06 19:07:00,53.0,42.3,30.22,NNE,18,4.0,5.0,67,0.00,,SKC,0.03,VWS V14.01,2013-11-07 01:07:00,
2013-11-06 19:08:00,53.1,42.1,30.22,North,360,5.0,10.0,66,0.00,,SKC,0.03,VWS V14.01,2013-11-07 01:08:00,
2013-11-06 19:09:00,53.0,42.0,30.22,NNE,16,9.0,9.0,66,0.00,,SKC,0.03,VWS V14.01,2013-11-07 01:09:00,
2013-11-06 19:10:00,53.0,42.0,30.22,North,10,4.0,12.0,66,0.00,,SKC,0.03,VWS V14.01,2013-11-07 01:10:00,
2013-11-06 19:11:00,52.9,41.9,30.22,North,11,8.0,9.0,66,0.00,,SKC,0.03,VWS V14.01,2013-11-07 01:11:00,
2013-11-06 19:12:00,52.9,41.9,30.22,NNE,15,5.0,8.0,66,0.00,,SKC,0.03,VWS V14.01,2013-11-07 01:12:00,
2013-11-06 19:13:00,52.9,41.9,30.22,NNE,17,9.0,9.0,66,0.00,,SKC,0.03,VWS V14.01,2013-11-07 01:13:00,
2013-11-06 19:14:00,52.8,41.8,30.23,North,9,7.0,11.0,66,0.00,,SKC,0.03,VWS V14.01,2013-11-07 01:14:00,
2013-11-06 19:15:00,52.8,41.8,30.23,NE,40,4.0,10.0,66,0.00,,SKC,0.03,VWS V14.01,2013-11-07 01:15:00,
2013-11-06 19:16:00,52.8,41.4,30.23,NNE,19,6.0,7.0,65,0.00,,SKC,0.03,VWS V14.01,2013-11-07 01:16:00,
2013-11-06 19:17:00,52.8,41.4,30.23,NNE,23,3.0,10.0,65,0.00,,SKC,0.03,VWS V14.01,2013-11-07 01:17:00,
2013-11-06 19:18:00,52.8,41.4,30.23,North,5,7.0,7.0,65,0.00,,SKC,0.03,VWS V14.01,2013-11-07 01:18:00,
2013-11-06 19:19:00,52.8,41.4,30.23,North,9,3.0,4.0,65,0.00,,SKC,0.03,VWS V14.01,2013-11-07 01:19:00,
2013-11-06 19:20:00,52.7,41.3,30.23,NNE,15,7.0,7.0,65,0.00,,SKC,0.03,VWS V14.01,2013-11-07 01:20:00,
2013-11-06 19:21:00,52.7,41.3,30.23,North,9,3.0,10.0,65,0.00,,SKC,0.03,VWS V14.01,2013-11-07 01:21:00,
2013-11-06 19:22:00,52.7,41.3,30.23,NNE,23,4.0,8.0,65,0.00,,SKC,0.03,VWS V14.01,2013-11-07 01:22:00,
2013-11-06 19:23:00,52.7,41.3,30.23,North,11,2.0,10.0,65,0.00,,SKC,0.03,VWS V14.01,2013-11-07 01:23:00,
2013-11-06 19:24:00,52.7,41.3,30.23,NNE,21,3.0,4.0,65,0.00,,SKC,0.03,VWS V14.01,2013-11-07 01:24:00,
2013-11-06 19:25:00,52.6,41.2,30.23,NE,37,4.0,5.0,65,0.00,,SKC,0.03,VWS V14.01,2013-11-07 01:25:00,
2013-11-06 19:26:00,52.6,40.8,30.23,NNE,12,6.0,9.0,64,0.00,,SKC,0.03,VWS V14.01,2013-11-07 01:26:00,
2013-11-06 19:27:00,52.6,40.8,30.23,NE,50,9.0,10.0,64,0.00,,SKC,0.03,VWS V14.01,2013-11-07 01:27:00,
2013-11-06 19:28:00,52.6,40.8,30.23,North,9,9.0,9.0,64,0.00,,SKC,0.03,VWS V14.01,2013-11-07 01:28:00,
2013-11-06 19:29:00,52.6,40.8,30.23,NNE,15,6.0,9.0,64,0.00,,SKC,0.03,VWS V14.01,2013-11-07 01:29:00,
2013-11-06 19:30:00,52.7,40.5,30.23,NNE,13,4.0,7.0,63,0.00,,SKC,0.03,VWS V14.01,2013-11-07 01:30:00,
2013-11-06 19:31:00,52.7,40.5,30.23,NE,41,6.0,8.0,63,0.00,,SKC,0.03,VWS V14.01,2013-11-07 01:31:00,
2013-11-06 19:32:00,52.8,40.6,30.23,NNE,15,4.0,7.0,63,0.00,,SKC,0.03,VWS V14.01,2013-11-07 01:32:00,
2013-11-06 19:33:00,52.7,40.5,30.23,NE,41,6.0,8.0,63,0.00,,SKC,0.03,VWS V14.01,2013-11-07 01:33:00,
2013-11-06 19:34:00,52.8,40.6,30.24,NNE,15,7.0,8.0,63,0.00,,SKC,0.03,VWS V14.01,2013-11-07 01:34:00,
2013-11-06 19:35:00,52.8,40.6,30.24,NNE,19,3.0,7.0,63,0.00,,SKC,0.03,VWS V14.01,2013-11-07 01:35:00,
2013-11-06 19:36:00,52.8,40.6,30.24,NNE,19,3.0,6.0,63,0.00,,SKC,0.03,VWS V14.01,2013-11-07 01:36:00,
2013-11-06 19:37:00,52.8,41.0,30.24,NNE,19,1.0,3.0,64,0.00,,SKC,0.03,VWS V14.01,2013-11-07 01:37:00,
2013-11-06 19:38:00,52.8,40.6,30.24,NNE,19,3.0,6.0,63,0.00,,SKC,0.03,VWS V14.01,2013-11-07 01:38:00,
2013-11-06 19:39:00,52.7,40.5,30.24,NNE,28,4.0,7.0,63,0.00,,SKC,0.03,VWS V14.01,2013-11-07 01:39:00,
2013-11-06 19:40:00,52.7,40.5,30.24,NNE,17,5.0,6.0,63,0.00,,SKC,0.03,VWS V14.01,2013-11-07 01:40:00,
2013-11-06 19:41:00,52.6,40.4,30.24,NNE,13,1.0,5.0,63,0.00,,SKC,0.03,VWS V14.01,2013-11-07 01:41:00,
2013-11-06 19:42:00,52.6,40.8,30.24,NNE,13,9.0,10.0,64,0.00,,SKC,0.03,VWS V14.01,2013-11-07 01:42:00,
2013-11-06 19:43:00,52.6,40.4,30.24,NNE,13,1.0,5.0,63,0.00,,SKC,0.03,VWS V14.01,2013-11-07 01:43:00,
2013-11-06 19:44:00,52.6,40.8,30.24,NNE,18,7.0,8.0,64,0.00,,SKC,0.03,VWS V14.01,2013-11-07 01:44:00,
2013-11-06 19:45:00,52.5,40.7,30.24,NNE,15,2.0,8.0,64,0.00,,SKC,0.03,VWS V14.01,2013-11-07 01:45:00,
2013-11-06 19:46:00,52.5,40.7,30.24,NNE,19,3.0,5.0,64,0.00,,SKC,0.03,VWS V14.01,2013-11-07 01:46:00,
2013-11-06 19:47:00,52.5,40.7,30.24,NNE,24,2.0,10.0,64,0.00,,SKC,0.03,VWS V14.01,2013-11-07 01:47:00,
2013-11-06 19:48:00,52.5,40.7,30.24,North,11,3.0,5.0,64,0.00,,SKC,0.03,VWS V14.01,2013-11-07 01:48:00,
2013-11-06 19:49:00,52.4,40.6,30.25,NNE,27,3.0,6.0,64,0.00,,SKC,0.03,VWS V14.01,2013-11-07 01:49:00,
2013-11-06 19:50:00,52.4,40.6,30.25,NNE,21,7.0,7.0,64,0.00,,SKC,0.03,VWS V14.01,2013-11-07 01:50:00,
2013-11-06 19:51:00,52.4,40.6,30.25,NNE,32,7.0,7.0,64,0.00,,SKC,0.03,VWS V14.01,2013-11-07 01:51:00,
2013-11-06 19:52:00,52.4,40.6,30.25,NNE,24,3.0,6.0,64,0.00,,SKC,0.03,VWS V14.01,2013-11-07 01:52:00,
2013-11-06 19:53:00,52.4,40.6,30.25,NNE,24,6.0,7.0,64,0.00,,SKC,0.03,VWS V14.01,2013-11-07 01:53:00,
2013-11-06 19:54:00,52.4,41.0,30.25,NNE,28,4.0,6.0,65,0.00,,SKC,0.03,VWS V14.01,2013-11-07 01:54:00,
2013-11-06 19:55:00,52.3,40.9,30.25,NNE,18,5.0,7.0,65,0.00,,SKC,0.03,VWS V14.01,2013-11-07 01:55:00,
2013-11-06 19:56:00,52.3,40.9,30.25,NNE,21,2.0,5.0,65,0.00,,SKC,0.03,VWS V14.01,2013-11-07 01:56:00,
2013-11-06 19:57:00,52.3,40.9,30.25,NNE,21,3.0,3.0,65,0.00,,SKC,0.03,VWS V14.01,2013-11-07 01:57:00,
2013-11-06 19:58:00,52.3,40.9,30.25,NNE,21,2.0,5.0,65,0.00,,SKC,0.03,VWS V14.01,2013-11-07 01:58:00,
2013-11-06 19:59:00,52.2,40.8,30.25,NNE,14,2.0,6.0,65,0.00,,SKC,0.03,VWS V14.01,2013-11-07 01:59:00,
2013-11-06 20:00:00,52.2,40.8,30.25,NNE,28,3.0,6.0,65,0.00,,SKC,0.03,VWS V14.01,2013-11-07 02:00:00,
2013-11-06 20:01:00,52.1,40.7,30.25,NNE,29,4.0,5.0,65,0.00,,SKC,0.03,VWS V14.01,2013-11-07 02:01:00,
2013-11-06 20:02:00,52.1,40.7,30.25,North,11,2.0,5.0,65,0.00,,SKC,0.03,VWS V14.01,2013-11-07 02:02:00,
2013-11-06 20:03:00,52.1,40.7,30.25,NNE,29,2.0,5.0,65,0.00,,SKC,0.03,VWS V14.01,2013-11-07 02:03:00,
2013-11-06 20:04:00,52.0,40.6,30.25,NNE,22,3.0,4.0,65,0.00,,SKC,0.03,VWS V14.01,2013-11-07 02:04:00,
2013-11-06 20:05:00,51.9,40.5,30.25,NNE,25,3.0,5.0,65,0.00,,SKC,0.03,VWS V14.01,2013-11-07 02:05:00,
2013-11-06 20:06:00,51.9,40.9,30.25,NE,37,4.0,7.0,66,0.00,,SKC,0.03,VWS V14.01,2013-11-07 02:06:00,
2013-11-06 20:07:00,51.9,40.5,30.25,NNE,13,4.0,6.0,65,0.00,,SKC,0.03,VWS V14.01,2013-11-07 02:07:00,
2013-11-06 20:08:00,51.9,40.9,30.25,NE,39,6.0,7.0,66,0.00,,SKC,0.03,VWS V14.01,2013-11-07 02:08:00,
2013-11-06 20:09:00,51.8,40.8,30.25,North,9,4.0,9.0,66,0.00,,SKC,0.03,VWS V14.01,2013-11-07 02:09:00,
2013-11-06 20:10:00,51.8,40.8,30.25,NNE,14,3.0,4.0,66,0.00,,SKC,0.03,VWS V14.01,2013-11-07 02:10:00,
2013-11-06 20:11:00,51.8,40.8,30.26,NNE,25,3.0,3.0,66,0.00,,SKC,0.03,VWS V14.01,2013-11-07 02:11:00,
2013-11-06 20:12:00,51.7,40.7,30.25,NE,37,5.0,7.0,66,0.00,,SKC,0.03,VWS V14.01,2013-11-07 02:12:00,
2013-11-06 20:13:00,51.8,40.8,30.25,NNE,27,2.0,3.0,66,0.00,,SKC,0.03,VWS V14.01,2013-11-07 02:13:00,
2013-11-06 20:14:00,51.7,40.7,30.25,NNE,26,5.0,11.0,66,0.00,,SKC,0.03,VWS V14.01,2013-11-07 02:14:00,
2013-11-06 20:15:00,51.7,40.7,30.26,NNE,32,4.0,6.0,66,0.00,,SKC,0.03,VWS V14.01,2013-11-07 02:15:00,
2013-11-06 20:16:00,51.7,40.7,30.26,NNE,28,7.0,9.0,66,0.00,,SKC,0.03,VWS V14.01,2013-11-07 02:16:00,
2013-11-06 20:17:00,51.7,40.7,30.26,NNE,22,9.0,9.0,66,0.00,,SKC,0.03,VWS V14.01,2013-11-07 02:17:00,
2013-11-06 20:18:00,51.7,40.7,30.26,North,360,7.0,9.0,66,0.00,,SKC,0.03,VWS V14.01,2013-11-07 02:18:00,
2013-11-06 20:19:00,51.7,40.3,30.26,NNE,19,4.0,5.0,65,0.00,,SKC,0.03,VWS V14.01,2013-11-07 02:19:00,
2013-11-06 20:20:00,51.7,40.7,30.26,NNE,26,2.0,6.0,66,0.00,,SKC,0.03,VWS V14.01,2013-11-07 02:20:00,
2013-11-06 20:21:00,51.7,40.7,30.26,NNE,29,3.0,7.0,66,0.00,,SKC,0.03,VWS V14.01,2013-11-07 02:21:00,
2013-11-06 20:22:00,51.7,40.7,30.26,NNE,26,4.0,6.0,66,0.00,,SKC,0.03,VWS V14.01,2013-11-07 02:22:00,
2013-11-06 20:23:00,51.7,40.7,30.26,NNE,29,3.0,7.0,66,0.00,,SKC,0.03,VWS V14.01,2013-11-07 02:23:00,
2013-11-06 20:24:00,51.7,40.7,30.26,NNE,29,3.0,6.0,66,0.00,,SKC,0.03,VWS V14.01,2013-11-07 02:24:00,
2013-11-06 20:25:00,51.6,40.6,30.26,NNE,17,3.0,6.0,66,0.00,,SKC,0.03,VWS V14.01,2013-11-07 02:25:00,
2013-11-06 20:26:00,51.6,40.2,30.26,NNE,25,6.0,6.0,65,0.00,,SKC,0.03,VWS V14.01,2013-11-07 02:26:00,
2013-11-06 20:27:00,51.6,40.6,30.26,NNE,19,9.0,10.0,66,0.00,,SKC,0.03,VWS V14.01,2013-11-07 02:27:00,
2013-11-06 20:28:00,51.6,40.2,30.26,NNE,17,5.0,6.0,65,0.00,,SKC,0.03,VWS V14.01,2013-11-07 02:28:00,
2013-11-06 20:29:00,51.6,40.6,30.26,NNE,25,7.0,9.0,66,0.00,,SKC,0.03,VWS V14.01,2013-11-07 02:29:00,
2013-11-06 20:30:00,51.6,40.2,30.26,North,9,4.0,9.0,65,0.00,,SKC,0.03,VWS V14.01,2013-11-07 02:30:00,
2013-11-06 20:31:00,51.6,40.6,30.26,North,355,9.0,9.0,66,0.00,,SKC,0.03,VWS V14.01,2013-11-07 02:31:00,
2013-11-06 20:32:00,51.5,40.1,30.26,NNE,21,5.0,11.0,65,0.00,,SKC,0.03,VWS V14.01,2013-11-07 02:32:00,
2013-11-06 20:33:00,51.6,40.6,30.26,North,9,9.0,9.0,66,0.00,,SKC,0.03,VWS V14.01,2013-11-07 02:33:00,
2013-11-06 20:34:00,51.6,40.2,30.26,North,5,6.0,9.0,65,0.00,,SKC,0.03,VWS V14.01,2013-11-07 02:34:00,
2013-11-06 20:35:00,51.6,40.2,30.26,NE,47,7.0,7.0,65,0.00,,SKC,0.03,VWS V14.01,2013-11-07 02:35:00,
2013-11-06 20:36:00,51.6,40.2,30.26,NNE,12,5.0,7.0,65,0.00,,SKC,0.03,VWS V14.01,2013-11-07 02:36:00,
2013-11-06 20:37:00,51.6,40.2,30.26,North,5,5.0,9.0,65,0.00,,SKC,0.03,VWS V14.01,2013-11-07 02:37:00,
2013-11-06 20:38:00,51.6,40.2,30.26,NNE,14,5.0,7.0,65,0.00,,SKC,0.03,VWS V14.01,2013-11-07 02:38:00,
2013-11-06 20:39:00,51.5,40.1,30.26,North,5,9.0,10.0,65,0.00,,SKC,0.03,VWS V14.01,2013-11-07 02:39:00,
2013-11-06 20:40:00,51.5,40.1,30.26,NNE,18,4.0,11.0,65,0.00,,SKC,0.03,VWS V14.01,2013-11-07 02:40:00,
2013-11-06 20:41:00,51.5,40.1,30.26,NNE,32,5.0,9.0,65,0.00,,SKC,0.03,VWS V14.01,2013-11-07 02:41:00,
2013-11-06 20:42:00,51.5,40.1,30.26,North,11,10.0,10.0,65,0.00,,SKC,0.03,VWS V14.01,2013-11-07 02:42:00,
2013-11-06 20:43:00,51.5,40.1,30.26,NNE,32,7.0,9.0,65,0.00,,SKC,0.03,VWS V14.01,2013-11-07 02:43:00,
2013-11-06 20:44:00,51.5,40.1,30.26,North,9,3.0,5.0,65,0.00,,SKC,0.03,VWS V14.01,2013-11-07 02:44:00,
2013-11-06 20:45:00,51.4,40.0,30.26,North,10,5.0,7.0,65,0.00,,SKC,0.03,VWS V14.01,2013-11-07 02:45:00,
2013-11-06 20:47:00,51.4,40.0,30.26,North,11,3.0,13.0,65,0.00,,SKC,0.03,VWS V14.01,2013-11-07 02:47:00,
2013-11-06 20:48:00,51.4,40.0,30.26,NNW,338,10.0,12.0,65,0.00,,SKC,0.03,VWS V14.01,2013-11-07 02:48:00,
2013-11-06 20:49:00,51.4,40.0,30.26,North,360,9.0,10.0,65,0.00,,SKC,0.03,VWS V14.01,2013-11-07 02:49:00,
2013-11-06 20:50:00,51.4,40.0,30.27,NNE,24,4.0,12.0,65,0.00,,SKC,0.03,VWS V14.01,2013-11-07 02:50:00,
2013-11-06 20:51:00,51.4,40.0,30.27,North,360,6.0,8.0,65,0.00,,SKC,0.03,VWS V14.01,2013-11-07 02:51:00,
2013-11-06 20:52:00,51.4,40.0,30.26,NNE,25,5.0,11.0,65,0.00,,SKC,0.03,VWS V14.01,2013-11-07 02:52:00,
2013-11-06 20:53:00,51.4,40.0,30.27,North,360,6.0,8.0,65,0.00,,SKC,0.03,VWS V14.01,2013-11-07 02:53:00,
2013-11-06 20:54:00,51.4,40.0,30.27,NNE,22,5.0,8.0,65,0.00,,SKC,0.03,VWS V14.01,2013-11-07 02:54:00,
2013-11-06 20:55:00,51.3,40.0,30.27,NNE,24,4.0,11.0,65,0.00,,SKC,0.03,VWS V14.01,2013-11-07 02:55:00,
2013-11-06 20:56:00,51.3,39.5,30.27,North,11,4.0,5.0,64,0.00,,SKC,0.03,VWS V14.01,2013-11-07 02:56:00,
2013-11-06 20:57:00,51.3,40.0,30.27,NNE,15,4.0,6.0,65,0.00,,SKC,0.03,VWS V14.01,2013-11-07 02:57:00,
2013-11-06 20:58:00,51.3,39.5,30.27,North,11,4.0,5.0,64,0.00,,SKC,0.03,VWS V14.01,2013-11-07 02:58:00,
2013-11-06 20:59:00,51.2,39.8,30.27,NNE,14,2.0,5.0,65,0.00,,SKC,0.03,VWS V14.01,2013-11-07 02:59:00,
2013-11-06 21:00:00,51.2,39.8,30.27,NNE,22,4.0,6.0,65,0.00,,SKC,0.03,VWS V14.01,2013-11-07 03:00:00,
2013-11-06 21:01:00,51.1,39.8,30.27,North,360,7.0,11.0,65,0.00,,SKC,0.03,VWS V14.01,2013-11-07 03:01:00,
2013-11-06 21:02:00,51.1,39.8,30.28,NNE,18,4.0,7.0,65,0.00,,SKC,0.03,VWS V14.01,2013-11-07 03:02:00,
2013-11-06 21:03:00,51.1,39.8,30.27,North,11,5.0,11.0,65,0.00,,SKC,0.03,VWS V14.01,2013-11-07 03:03:00,
2013-11-06 21:04:00,51.0,39.7,30.28,NNE,19,5.0,8.0,65,0.00,,SKC,0.03,VWS V14.01,2013-11-07 03:04:00,
2013-11-06 21:05:00,51.0,39.7,30.28,North,10,4.0,6.0,65,0.00,,SKC,0.03,VWS V14.01,2013-11-07 03:05:00,
2013-11-06 21:06:00,51.0,39.7,30.28,North,360,4.0,9.0,65,0.00,,SKC,0.03,VWS V14.01,2013-11-07 03:06:00,
2013-11-06 21:07:00,51.0,39.7,30.28,NNE,28,4.0,12.0,65,0.00,,SKC,0.03,VWS V14.01,2013-11-07 03:07:00,
2013-11-06 21:08:00,51.0,39.7,30.28,North,360,4.0,9.0,65,0.00,,SKC,0.03,VWS V14.01,2013-11-07 03:08:00,
2013-11-06 21:09:00,51.0,39.7,30.28,NNE,19,4.0,6.0,65,0.00,,SKC,0.03,VWS V14.01,2013-11-07 03:09:00,
2013-11-06 21:11:00,51.0,39.7,30.28,NE,53,4.0,7.0,65,0.00,,SKC,0.03,VWS V14.01,2013-11-07 03:11:00,
2013-11-06 21:12:00,51.0,39.7,30.28,North,10,5.0,6.0,65,0.00,,SKC,0.03,VWS V14.01,2013-11-07 03:12:00,
2013-11-06 21:13:00,51.0,39.7,30.28,NE,52,3.0,7.0,65,0.00,,SKC,0.03,VWS V14.01,2013-11-07 03:13:00,
2013-11-06 21:14:00,50.9,39.6,30.29,NNE,24,4.0,6.0,65,0.00,,SKC,0.03,VWS V14.01,2013-11-07 03:14:00,
2013-11-06 21:15:00,50.9,39.6,30.29,NNE,15,6.0,6.0,65,0.00,,SKC,0.03,VWS V14.01,2013-11-07 03:15:00,
2013-11-06 21:16:00,50.9,39.6,30.29,NNE,19,5.0,10.0,65,0.00,,SKC,0.03,VWS V14.01,2013-11-07 03:16:00,
2013-11-06 21:17:00,50.9,39.6,30.29,NNE,14,4.0,6.0,65,0.00,,SKC,0.03,VWS V14.01,2013-11-07 03:17:00,
2013-11-06 21:18:00,50.9,39.6,30.29,NNE,22,7.0,10.0,65,0.00,,SKC,0.03,VWS V14.01,2013-11-07 03:18:00,
2013-11-06 21:19:00,50.8,39.9,30.29,North,9,5.0,7.0,66,0.00,,SKC,0.03,VWS V14.01,2013-11-07 03:19:00,
2013-11-06 21:20:00,50.8,39.9,30.29,NNE,22,4.0,9.0,66,0.00,,SKC,0.03,VWS V14.01,2013-11-07 03:20:00,
2013-11-06 21:21:00,50.8,39.9,30.29,North,360,5.0,5.0,66,0.00,,SKC,0.03,VWS V14.01,2013-11-07 03:21:00,
2013-11-06 21:22:00,50.8,39.9,30.29,NE,52,3.0,8.0,66,0.00,,SKC,0.03,VWS V14.01,2013-11-07 03:22:00,
2013-11-06 21:23:00,50.8,39.5,30.29,North,5,4.0,5.0,65,0.00,,SKC,0.03,VWS V14.01,2013-11-07 03:23:00,
2013-11-06 21:24:00,50.7,39.8,30.29,NNE,25,2.0,9.0,66,0.00,,SKC,0.03,VWS V14.01,2013-11-07 03:24:00,
2013-11-06 21:25:00,50.7,39.8,30.29,North,350,3.0,6.0,66,0.00,,SKC,0.03,VWS V14.01,2013-11-07 03:25:00,
2013-11-06 21:26:00,50.6,39.7,30.29,North,10,3.0,6.0,66,0.00,,SKC,0.03,VWS V14.01,2013-11-07 03:26:00,
2013-11-06 21:27:00,50.6,39.7,30.29,NNE,25,5.0,7.0,66,0.00,,SKC,0.03,VWS V14.01,2013-11-07 03:27:00,
2013-11-06 21:28:00,50.6,39.7,30.29,North,10,2.0,6.0,66,0.00,,SKC,0.03,VWS V14.01,2013-11-07 03:28:00,
2013-11-06 21:29:00,50.6,39.7,30.29,NE,34,4.0,7.0,66,0.00,,SKC,0.03,VWS V14.01,2013-11-07 03:29:00,
2013-11-06 21:30:00,50.5,39.6,30.29,North,5,6.0,6.0,66,0.00,,SKC,0.03,VWS V14.01,2013-11-07 03:30:00,
2013-11-06 21:31:00,50.5,39.6,30.29,NNE,17,5.0,9.0,66,0.00,,SKC,0.03,VWS V14.01,2013-11-07 03:31:00,
2013-11-06 21:32:00,50.5,39.6,30.29,NNE,13,8.0,8.0,66,0.00,,SKC,0.03,VWS V14.01,2013-11-07 03:32:00,
2013-11-06 21:33:00,50.5,39.6,30.29,NNE,17,5.0,9.0,66,0.00,,SKC,0.03,VWS V14.01,2013-11-07 03:33:00,
2013-11-06 21:34:00,50.4,39.5,30.29,NE,42,10.0,10.0,66,0.00,,SKC,0.03,VWS V14.01,2013-11-07 03:34:00,
2013-11-06 21:35:00,50.4,39.5,30.29,NNE,30,4.0,12.0,66,0.00,,SKC,0.03,VWS V14.01,2013-11-07 03:35:00,
2013-11-06 21:36:00,50.4,39.5,30.29,NNE,24,6.0,9.0,66,0.00,,SKC,0.03,VWS V14.01,2013-11-07 03:36:00,
2013-11-06 21:37:00,50.4,39.5,30.29,NNE,15,5.0,6.0,66,0.00,,SKC,0.03,VWS V14.01,2013-11-07 03:37:00,
2013-11-06 21:38:00,50.4,39.5,30.29,NNE,24,6.0,9.0,66,0.00,,SKC,0.03,VWS V14.01,2013-11-07 03:38:00,
2013-11-06 21:39:00,50.3,39.4,30.29,North,360,4.0,6.0,66,0.00,,SKC,0.03,VWS V14.01,2013-11-07 03:39:00,
2013-11-06 21:40:00,50.3,39.4,30.29,NNE,22,6.0,10.0,66,0.00,,SKC,0.03,VWS V14.01,2013-11-07 03:40:00,
2013-11-06 21:41:00,50.3,39.4,30.29,NNE,26,4.0,6.0,66,0.00,,SKC,0.03,VWS V14.01,2013-11-07 03:41:00,
2013-11-06 21:42:00,50.3,39.4,30.29,NNE,30,3.0,9.0,66,0.00,,SKC,0.03,VWS V14.01,2013-11-07 03:42:00,
2013-11-06 21:43:00,50.3,39.4,30.29,NNE,26,5.0,6.0,66,0.00,,SKC,0.03,VWS V14.01,2013-11-07 03:43:00,
2013-11-06 21:44:00,50.2,39.3,30.29,NNE,15,5.0,5.0,66,0.00,,SKC,0.03,VWS V14.01,2013-11-07 03:44:00,
2013-11-06 21:45:00,50.2,39.3,30.29,North,9,5.0,6.0,66,0.00,,SKC,0.03,VWS V14.01,2013-11-07 03:45:00,
2013-11-06 21:46:00,50.1,39.2,30.29,NNE,22,5.0,10.0,66,0.00,,SKC,0.03,VWS V14.01,2013-11-07 03:46:00,
2013-11-06 21:47:00,50.1,39.2,30.29,NNE,25,5.0,7.0,66,0.00,,SKC,0.03,VWS V14.01,2013-11-07 03:47:00,
2013-11-06 21:48:00,50.1,39.2,30.29,NNE,24,6.0,10.0,66,0.00,,SKC,0.03,VWS V14.01,2013-11-07 03:48:00,
2013-11-06 21:49:00,50.0,39.5,30.29,NNE,20,6.0,7.0,67,0.00,,SKC,0.03,VWS V14.01,2013-11-07 03:49:00,
2013-11-06 21:50:00,50.0,39.5,30.29,NNE,22,5.0,10.0,67,0.00,,SKC,0.03,VWS V14.01,2013-11-07 03:50:00,
2013-11-06 21:51:00,49.9,39.0,30.29,North,10,6.0,10.0,66,0.00,,SKC,0.03,VWS V14.01,2013-11-07 03:51:00,
2013-11-06 21:52:00,49.9,39.4,30.29,North,9,5.0,7.0,67,0.00,,SKC,0.03,VWS V14.01,2013-11-07 03:52:00,
2013-11-06 21:53:00,49.9,39.0,30.29,North,10,6.0,10.0,66,0.00,,SKC,0.03,VWS V14.01,2013-11-07 03:53:00,
2013-11-06 21:54:00,49.9,39.4,30.29,NNE,14,4.0,7.0,67,0.00,,SKC,0.03,VWS V14.01,2013-11-07 03:54:00,
2013-11-06 21:55:00,49.8,39.3,30.29,North,360,4.0,5.0,67,0.00,,SKC,0.03,VWS V14.01,2013-11-07 03:55:00,
2013-11-06 21:56:00,49.8,39.3,30.29,NNE,24,5.0,7.0,67,0.00,,SKC,0.03,VWS V14.01,2013-11-07 03:56:00,
2013-11-06 21:57:00,49.8,39.3,30.30,NNE,31,9.0,9.0,67,0.00,,SKC,0.03,VWS V14.01,2013-11-07 03:57:00,
2013-11-06 21:58:00,49.8,39.3,30.29,NNE,28,7.0,7.0,67,0.00,,SKC,0.03,VWS V14.01,2013-11-07 03:58:00,
2013-11-06 21:59:00,49.7,39.2,30.29,NNE,27,3.0,4.0,67,0.00,,SKC,0.03,VWS V14.01,2013-11-07 03:59:00,
2013-11-06 22:00:00,49.7,39.2,30.30,North,360,4.0,5.0,67,0.00,,SKC,0.03,VWS V14.01,2013-11-07 04:00:00,
2013-11-06 22:01:00,49.7,39.2,30.30,NE,44,4.0,7.0,67,0.00,,SKC,0.03,VWS V14.01,2013-11-07 04:01:00,
2013-11-06 22:02:00,49.6,39.1,30.30,NNE,25,4.0,5.0,67,0.00,,SKC,0.03,VWS V14.01,2013-11-07 04:02:00,
2013-11-06 22:03:00,49.7,39.2,30.30,NE,47,6.0,7.0,67,0.00,,SKC,0.03,VWS V14.01,2013-11-07 04:03:00,
2013-11-06 22:04:00,49.5,39.4,30.30,North,11,7.0,7.0,68,0.00,,SKC,0.03,VWS V14.01,2013-11-07 04:04:00,
2013-11-06 22:05:00,49.5,39.0,30.30,NNE,30,4.0,7.0,67,0.00,,SKC,0.03,VWS V14.01,2013-11-07 04:05:00,
2013-11-06 22:06:00,49.4,39.3,30.30,NNE,21,3.0,6.0,68,0.00,,SKC,0.03,VWS V14.01,2013-11-07 04:06:00,
2013-11-06 22:07:00,49.4,39.3,30.30,NNE,21,4.0,6.0,68,0.00,,SKC,0.03,VWS V14.01,2013-11-07 04:07:00,
2013-11-06 22:08:00,49.4,39.3,30.30,NNE,24,3.0,6.0,68,0.00,,SKC,0.03,VWS V14.01,2013-11-07 04:08:00,
2013-11-06 22:09:00,49.3,39.2,30.30,NNW,348,5.0,6.0,68,0.00,,SKC,0.03,VWS V14.01,2013-11-07 04:09:00,
2013-11-06 22:10:00,49.3,39.2,30.30,NE,37,6.0,7.0,68,0.00,,SKC,0.03,VWS V14.01,2013-11-07 04:10:00,
2013-11-06 22:11:00,49.3,39.2,30.30,NNE,25,4.0,10.0,68,0.00,,SKC,0.03,VWS V14.01,2013-11-07 04:11:00,
2013-11-06 22:12:00,49.3,39.2,30.30,NNE,31,2.0,6.0,68,0.00,,SKC,0.03,VWS V14.01,2013-11-07 04:12:00,
2013-11-06 22:13:00,49.3,39.2,30.30,NNE,25,5.0,10.0,68,0.00,,SKC,0.03,VWS V14.01,2013-11-07 04:13:00,
2013-11-06 22:14:00,49.2,39.1,30.30,NNE,24,4.0,8.0,68,0.00,,SKC,0.03,VWS V14.01,2013-11-07 04:14:00,
2013-11-06 22:15:00,49.2,39.1,30.30,NNE,14,3.0,7.0,68,0.00,,SKC,0.03,VWS V14.01,2013-11-07 04:15:00,
2013-11-06 22:16:00,49.2,39.1,30.30,North,9,5.0,10.0,68,0.00,,SKC,0.03,VWS V14.01,2013-11-07 04:16:00,
2013-11-06 22:17:00,49.2,39.1,30.30,NNE,12,3.0,6.0,68,0.00,,SKC,0.03,VWS V14.01,2013-11-07 04:17:00,
2013-11-06 22:18:00,49.2,39.1,30.30,NNE,15,4.0,10.0,68,0.00,,SKC,0.03,VWS V14.01,2013-11-07 04:18:00,
2013-11-06 22:19:00,49.2,39.1,30.30,North,5,5.0,6.0,68,0.00,,SKC,0.03,VWS V14.01,2013-11-07 04:19:00,
2013-11-06 22:20:00,49.2,39.1,30.30,NNE,18,4.0,6.0,68,0.00,,SKC,0.03,VWS V14.01,2013-11-07 04:20:00,
2013-11-06 22:21:00,49.2,39.1,30.30,NE,40,9.0,9.0,68,0.00,,SKC,0.03,VWS V14.01,2013-11-07 04:21:00,
2013-11-06 22:22:00,49.1,39.0,30.30,NNE,32,5.0,9.0,68,0.00,,SKC,0.03,VWS V14.01,2013-11-07 04:22:00,
2013-11-06 22:23:00,49.1,39.0,30.30,NE,35,5.0,6.0,68,0.00,,SKC,0.03,VWS V14.01,2013-11-07 04:23:00,
2013-11-06 22:24:00,49.0,38.9,30.31,NE,39,1.0,5.0,68,0.00,,SKC,0.03,VWS V14.01,2013-11-07 04:24:00,
2013-11-06 22:25:00,49.0,38.9,30.31,NE,42,1.0,4.0,68,0.00,,SKC,0.03,VWS V14.01,2013-11-07 04:25:00,
2013-11-06 22:26:00,49.0,38.9,30.31,NE,36,3.0,6.0,68,0.00,,SKC,0.03,VWS V14.01,2013-11-07 04:26:00,
2013-11-06 22:27:00,49.0,38.9,30.31,NE,37,1.0,4.0,68,0.00,,SKC,0.03,VWS V14.01,2013-11-07 04:27:00,
2013-11-06 22:28:00,49.0,38.9,30.31,NE,36,4.0,6.0,68,0.00,,SKC,0.03,VWS V14.01,2013-11-07 04:28:00,
2013-11-06 22:29:00,48.9,38.8,30.31,NNE,14,3.0,4.0,68,0.00,,SKC,0.03,VWS V14.01,2013-11-07 04:29:00,
2013-11-06 22:30:00,48.9,38.8,30.31,NNE,20,1.0,3.0,68,0.00,,SKC,0.03,VWS V14.01,2013-11-07 04:30:00,
2013-11-06 22:31:00,48.8,38.7,30.31,NNE,19,1.0,5.0,68,0.00,,SKC,0.03,VWS V14.01,2013-11-07 04:31:00,
2013-11-06 22:32:00,48.8,38.7,30.31,NNE,19,3.0,3.0,68,0.00,,SKC,0.03,VWS V14.01,2013-11-07 04:32:00,
2013-11-06 22:33:00,48.8,38.7,30.31,NNE,19,1.0,5.0,68,0.00,,SKC,0.03,VWS V14.01,2013-11-07 04:33:00,
2013-11-06 22:34:00,48.7,38.6,30.31,NNE,15,4.0,7.0,68,0.00,,SKC,0.03,VWS V14.01,2013-11-07 04:34:00,
2013-11-06 22:35:00,48.7,38.6,30.31,NNE,21,3.0,4.0,68,0.00,,SKC,0.03,VWS V14.01,2013-11-07 04:35:00,
2013-11-06 22:36:00,48.7,38.6,30.31,NNE,26,4.0,9.0,68,0.00,,SKC,0.03,VWS V14.01,2013-11-07 04:36:00,
2013-11-06 22:37:00,48.6,38.5,30.31,NNE,24,2.0,4.0,68,0.00,,SKC,0.03,VWS V14.01,2013-11-07 04:37:00,
2013-11-06 22:38:00,48.7,38.6,30.31,NNE,26,4.0,9.0,68,0.00,,SKC,0.03,VWS V14.01,2013-11-07 04:38:00,
2013-11-06 22:39:00,48.5,38.4,30.31,NNE,31,1.0,5.0,68,0.00,,SKC,0.03,VWS V14.01,2013-11-07 04:39:00,
2013-11-06 22:40:00,48.5,38.4,30.31,NNE,15,2.0,7.0,68,0.00,,SKC,0.03,VWS V14.01,2013-11-07 04:40:00,
2013-11-06 22:41:00,48.5,38.4,30.31,NNE,18,5.0,7.0,68,0.00,,SKC,0.03,VWS V14.01,2013-11-07 04:41:00,
2013-11-06 22:42:00,48.4,38.7,30.31,NNE,18,5.0,6.0,69,0.00,,SKC,0.03,VWS V14.01,2013-11-07 04:42:00,
2013-11-06 22:43:00,48.5,38.4,30.31,NNE,19,7.0,7.0,68,0.00,,SKC,0.03,VWS V14.01,2013-11-07 04:43:00,
2013-11-06 22:44:00,48.4,38.7,30.31,NNE,15,3.0,8.0,69,0.00,,SKC,0.03,VWS V14.01,2013-11-07 04:44:00,
2013-11-06 22:45:00,48.3,38.2,30.31,NNE,12,3.0,6.0,68,0.00,,SKC,0.03,VWS V14.01,2013-11-07 04:45:00,
2013-11-06 22:46:00,48.3,38.2,30.31,NNE,27,3.0,8.0,68,0.00,,SKC,0.03,VWS V14.01,2013-11-07 04:46:00,
2013-11-06 22:47:00,48.3,38.2,30.31,NNE,28,3.0,6.0,68,0.00,,SKC,0.03,VWS V14.01,2013-11-07 04:47:00,
2013-11-06 22:48:00,48.3,38.2,30.31,NNE,26,4.0,8.0,68,0.00,,SKC,0.03,VWS V14.01,2013-11-07 04:48:00,
2013-11-06 22:49:00,48.3,38.2,30.31,NNE,26,3.0,7.0,68,0.00,,SKC,0.03,VWS V14.01,2013-11-07 04:49:00,
2013-11-06 22:50:00,48.2,38.2,30.31,North,360,5.0,10.0,68,0.00,,SKC,0.03,VWS V14.01,2013-11-07 04:50:00,
2013-11-06 22:51:00,48.2,38.2,30.31,North,5,2.0,7.0,68,0.00,,SKC,0.03,VWS V14.01,2013-11-07 04:51:00,
2013-11-06 22:52:00,48.2,38.2,30.31,North,5,5.0,5.0,68,0.00,,SKC,0.03,VWS V14.01,2013-11-07 04:52:00,
2013-11-06 22:53:00,48.2,38.2,30.31,North,5,2.0,7.0,68,0.00,,SKC,0.03,VWS V14.01,2013-11-07 04:53:00,
2013-11-06 22:54:00,48.2,38.2,30.31,NNE,21,3.0,4.0,68,0.00,,SKC,0.03,VWS V14.01,2013-11-07 04:54:00,
2013-11-06 22:55:00,48.1,38.0,30.31,NNE,24,3.0,6.0,68,0.00,,SKC,0.03,VWS V14.01,2013-11-07 04:55:00,
2013-11-06 22:56:00,48.1,38.0,30.31,NNE,22,1.0,4.0,68,0.00,,SKC,0.03,VWS V14.01,2013-11-07 04:56:00,
2013-11-06 22:57:00,48.1,38.0,30.31,NNE,26,5.0,7.0,68,0.00,,SKC,0.03,VWS V14.01,2013-11-07 04:57:00,
2013-11-06 22:58:00,48.1,38.0,30.31,NNE,22,1.0,4.0,68,0.00,,SKC,0.03,VWS V14.01,2013-11-07 04:58:00,
2013-11-06 22:59:00,48.0,38.0,30.31,NNE,31,2.0,5.0,68,0.00,,SKC,0.03,VWS V14.01,2013-11-07 04:59:00,
2013-11-06 23:00:00,48.0,38.0,30.31,NNE,24,3.0,6.0,68,0.00,,SKC,0.03,VWS V14.01,2013-11-07 05:00:00,
2013-11-06 23:01:00,48.0,38.0,30.31,NNE,31,4.0,5.0,68,0.00,,SKC,0.03,VWS V14.01,2013-11-07 05:01:00,
2013-11-06 23:02:00,48.0,38.0,30.31,NE,49,2.0,5.0,68,0.00,,SKC,0.03,VWS V14.01,2013-11-07 05:02:00,
2013-11-06 23:03:00,47.9,37.9,30.31,NNE,26,2.0,5.0,68,0.00,,SKC,0.03,VWS V14.01,2013-11-07 05:03:00,
2013-11-06 23:04:00,47.9,37.9,30.31,NNE,25,5.0,5.0,68,0.00,,SKC,0.03,VWS V14.01,2013-11-07 05:04:00,
2013-11-06 23:05:00,47.9,37.9,30.31,NE,46,5.0,6.0,68,0.00,,SKC,0.03,VWS V14.01,2013-11-07 05:05:00,
2013-11-06 23:06:00,47.9,37.9,30.31,NNE,25,5.0,5.0,68,0.00,,SKC,0.03,VWS V14.01,2013-11-07 05:06:00,
2013-11-06 23:07:00,47.8,37.8,30.31,NNE,24,1.0,5.0,68,0.00,,SKC,0.03,VWS V14.01,2013-11-07 05:07:00,
2013-11-06 23:08:00,47.8,37.8,30.31,NNE,28,5.0,6.0,68,0.00,,SKC,0.03,VWS V14.01,2013-11-07 05:08:00,
2013-11-06 23:09:00,47.8,37.8,30.31,NNE,15,3.0,6.0,68,0.00,,SKC,0.03,VWS V14.01,2013-11-07 05:09:00,
2013-11-06 23:10:00,47.8,37.8,30.31,North,5,4.0,5.0,68,0.00,,SKC,0.03,VWS V14.01,2013-11-07 05:10:00,
2013-11-06 23:11:00,47.8,37.8,30.31,NNE,15,3.0,6.0,68,0.00,,SKC,0.03,VWS V14.01,2013-11-07 05:11:00,
2013-11-06 23:12:00,47.7,37.7,30.31,NE,42,3.0,7.0,68,0.00,,SKC,0.03,VWS V14.01,2013-11-07 05:12:00,
2013-11-06 23:13:00,47.6,37.6,30.31,NE,38,3.0,5.0,68,0.00,,SKC,0.03,VWS V14.01,2013-11-07 05:13:00,
2013-11-06 23:14:00,47.6,37.6,30.31,NNE,26,5.0,10.0,68,0.00,,SKC,0.03,VWS V14.01,2013-11-07 05:14:00,
2013-11-06 23:15:00,47.6,37.6,30.31,NNE,29,5.0,6.0,68,0.00,,SKC,0.03,VWS V14.01,2013-11-07 05:15:00,
2013-11-06 23:16:00,47.6,37.6,30.31,NNE,26,5.0,10.0,68,0.00,,SKC,0.03,VWS V14.01,2013-11-07 05:16:00,
2013-11-06 23:17:00,47.6,37.6,30.31,North,355,3.0,5.0,68,0.00,,SKC,0.03,VWS V14.01,2013-11-07 05:17:00,
2013-11-06 23:18:00,47.6,37.6,30.31,NNE,18,2.0,6.0,68,0.00,,SKC,0.03,VWS V14.01,2013-11-07 05:18:00,
2013-11-06 23:19:00,47.6,37.6,30.31,North,5,6.0,9.0,68,0.00,,SKC,0.03,VWS V14.01,2013-11-07 05:19:00,
2013-11-06 23:20:00,47.6,37.6,30.31,North,5,3.0,7.0,68,0.00,,SKC,0.03,VWS V14.01,2013-11-07 05:20:00,
2013-11-06 23:21:00,47.6,37.6,30.31,North,5,6.0,9.0,68,0.00,,SKC,0.03,VWS V14.01,2013-11-07 05:21:00,
2013-11-06 23:22:00,47.6,38.0,30.31,NNE,15,4.0,8.0,69,0.00,,SKC,0.03,VWS V14.01,2013-11-07 05:22:00,
2013-11-06 23:23:00,47.6,38.0,30.31,NE,56,4.0,5.0,69,0.00,,SKC,0.03,VWS V14.01,2013-11-07 05:23:00,
2013-11-06 23:24:00,47.6,38.0,30.31,North,355,4.0,8.0,69,0.00,,SKC,0.03,VWS V14.01,2013-11-07 05:24:00,
2013-11-06 23:25:00,47.5,37.8,30.31,North,10,5.0,6.0,69,0.00,,SKC,0.03,VWS V14.01,2013-11-07 05:25:00,
2013-11-06 23:26:00,47.6,38.0,30.31,North,355,4.0,8.0,69,0.00,,SKC,0.03,VWS V14.01,2013-11-07 05:26:00,
2013-11-06 23:27:00,47.5,37.8,30.31,North,9,2.0,6.0,69,0.00,,SKC,0.03,VWS V14.01,2013-11-07 05:27:00,
2013-11-06 23:28:00,47.4,38.1,30.31,NE,34,5.0,8.0,70,0.00,,SKC,0.03,VWS V14.01,2013-11-07 05:28:00,
2013-11-06 23:29:00,47.4,38.1,30.31,NNE,21,4.0,6.0,70,0.00,,SKC,0.03,VWS V14.01,2013-11-07 05:29:00,
2013-11-06 23:30:00,47.4,38.1,30.31,NNW,344,10.0,10.0,70,0.00,,SKC,0.03,VWS V14.01,2013-11-07 05:30:00,
2013-11-06 23:31:00,47.4,38.1,30.31,NNE,21,4.0,6.0,70,0.00,,SKC,0.03,VWS V14.01,2013-11-07 05:31:00,
2013-11-06 23:32:00,47.3,37.7,30.31,North,5,6.0,11.0,69,0.00,,SKC,0.03,VWS V14.01,2013-11-07 05:32:00,
2013-11-06 23:33:00,47.3,37.7,30.31,NNE,26,7.0,13.0,69,0.00,,SKC,0.03,VWS V14.01,2013-11-07 05:33:00,
2013-11-06 23:34:00,47.4,37.8,30.31,North,5,6.0,11.0,69,0.00,,SKC,0.03,VWS V14.01,2013-11-07 05:34:00,
2013-11-06 23:35:00,47.4,37.8,30.31,NNE,33,9.0,11.0,69,0.00,,SKC,0.03,VWS V14.01,2013-11-07 05:35:00,
2013-11-06 23:36:00,47.4,37.8,30.31,North,5,6.0,11.0,69,0.00,,SKC,0.03,VWS V14.01,2013-11-07 05:36:00,
2013-11-06 23:37:00,47.4,37.8,30.31,North,9,4.0,8.0,69,0.00,,SKC,0.03,VWS V14.01,2013-11-07 05:37:00,
2013-11-06 23:38:00,47.4,37.8,30.31,NNE,16,6.0,9.0,69,0.00,,SKC,0.03,VWS V14.01,2013-11-07 05:38:00,
2013-11-06 23:39:00,47.4,37.8,30.31,North,9,5.0,10.0,69,0.00,,SKC,0.03,VWS V14.01,2013-11-07 05:39:00,
2013-11-06 23:40:00,47.4,37.8,30.31,NNE,19,4.0,9.0,69,0.00,,SKC,0.03,VWS V14.01,2013-11-07 05:40:00,
2013-11-06 23:41:00,47.4,37.8,30.31,North,9,5.0,10.0,69,0.00,,SKC,0.03,VWS V14.01,2013-11-07 05:41:00,
2013-11-06 23:42:00,47.3,37.7,30.31,NNE,33,8.0,9.0,69,0.00,,SKC,0.03,VWS V14.01,2013-11-07 05:42:00,
2013-11-06 23:43:00,47.3,37.7,30.31,NNE,13,2.0,10.0,69,0.00,,SKC,0.03,VWS V14.01,2013-11-07 05:43:00,
2013-11-06 23:44:00,47.3,37.7,30.31,NNE,16,6.0,10.0,69,0.00,,SKC,0.03,VWS V14.01,2013-11-07 05:44:00,
2013-11-06 23:45:00,47.3,37.7,30.31,North,11,3.0,12.0,69,0.00,,SKC,0.03,VWS V14.01,2013-11-07 05:45:00,
2013-11-06 23:46:00,47.3,37.7,30.31,NNE,16,6.0,10.0,69,0.00,,SKC,0.03,VWS V14.01,2013-11-07 05:46:00,
2013-11-06 23:47:00,47.2,37.6,30.31,North,11,5.0,8.0,69,0.00,,SKC,0.03,VWS V14.01,2013-11-07 05:47:00,
2013-11-06 23:48:00,47.2,37.6,30.31,North,355,5.0,7.0,69,0.00,,SKC,0.03,VWS V14.01,2013-11-07 05:48:00,
2013-11-06 23:49:00,47.1,37.5,30.31,NNE,15,5.0,9.0,69,0.00,,SKC,0.03,VWS V14.01,2013-11-07 05:49:00,
2013-11-06 23:50:00,47.1,37.5,30.31,NNE,19,6.0,9.0,69,0.00,,SKC,0.03,VWS V14.01,2013-11-07 05:50:00,
2013-11-06 23:51:00,47.1,37.5,30.31,NNE,15,5.0,9.0,69,0.00,,SKC,0.03,VWS V14.01,2013-11-07 05:51:00,
2013-11-06 23:52:00,47.1,37.5,30.32,NNE,24,3.0,6.0,69,0.00,,SKC,0.03,VWS V14.01,2013-11-07 05:52:00,
2013-11-06 23:53:00,47.0,37.4,30.32,NNE,26,6.0,12.0,69,0.00,,SKC,0.03,VWS V14.01,2013-11-07 05:53:00,
2013-11-06 23:54:00,47.0,37.4,30.32,North,5,5.0,8.0,69,0.00,,SKC,0.03,VWS V14.01,2013-11-07 05:54:00,
2013-11-06 23:55:00,47.0,37.4,30.32,NNE,14,7.0,11.0,69,0.00,,SKC,0.03,VWS V14.01,2013-11-07 05:55:00,
2013-11-06 23:56:00,47.0,37.4,30.32,North,5,5.0,8.0,69,0.00,,SKC,0.03,VWS V14.01,2013-11-07 05:56:00,
2013-11-06 23:57:00,47.0,37.4,30.32,NNE,18,7.0,9.0,69,0.00,,SKC,0.03,VWS V14.01,2013-11-07 05:57:00,
2013-11-06 23:58:00,46.9,37.3,30.32,North,9,8.0,9.0,69,0.00,,SKC,0.03,VWS V14.01,2013-11-07 05:58:00,
2013-11-06 23:59:00,46.9,37.3,30.32,NNE,24,5.0,12.0,69,0.00,,SKC,0.03,VWS V14.01,2013-11-07 05:59:00,